PWSweather.com
Personal Weather Stations
Station Observations
OPENSRS
Liberty Village, Toronto, ON M6K 3M1

Liberty VillageToronto, ON M6K 3M1

Lat: 43.63831, Lon: -79.42566

Elevation: 303

Station Type: Davis Instruments Vantage Pro 2

weather.opensrs.com

High Low Average
Temperature 70.8°F21.6°C 60.2°F15.7°C 64.8°F18.2°C
Dew Point 63.9°F17.7°C 49.6°F9.8°C 56.2°F13.4°C
Winds 21.0 mph 33.8 kmh Calm Calm 7.0 mph S11.3 kmh S
Wind Gusts 25.0 mph40.2 kmh -- 17.0 mph27.4 kmh
Humidity 92% 53% 75%
Pressure 29.86 in1011.2 mb 29.57 in1001.4 mb -
Precipitation 0.01 in0.3 mm - -
Hour Temp Dew Point Humidity Winds Wind Gusts Pressure Precip Precip Rate Daily Precip Total
12:00 AM 66.2°F19.0°C 63.5°F17.5°C 91% 5.0 mph NW8.0 kmh NW 5.0 mph8.0 kmh 29.64 in1003.7 mb 0.00 in0.0 mm 0.00 in/hr0.0 mm/hr 0.00 in0.0 mm
12:03 AM 66.2°F19.0°C 63.5°F17.5°C 91% 5.0 mph NW8.0 kmh NW 7.0 mph11.3 kmh 29.63 in1003.4 mb 0.00 in0.0 mm 0.00 in/hr0.0 mm/hr 0.00 in0.0 mm
12:04 AM 66.2°F19.0°C 63.5°F17.5°C 91% 5.0 mph NNW8.0 kmh NNW 7.0 mph11.3 kmh 29.63 in1003.4 mb 0.00 in0.0 mm 0.00 in/hr0.0 mm/hr 0.00 in0.0 mm
12:05 AM 66.2°F19.0°C 63.5°F17.5°C 91% 7.0 mph NNW11.3 kmh NNW 7.0 mph11.3 kmh 29.63 in1003.4 mb 0.00 in0.0 mm 0.00 in/hr0.0 mm/hr 0.00 in0.0 mm
12:08 AM 66.3°F19.1°C 63.6°F17.6°C 91% 4.0 mph N6.4 kmh N 7.0 mph11.3 kmh 29.62 in1003.0 mb 0.00 in0.0 mm 0.00 in/hr0.0 mm/hr 0.00 in0.0 mm
12:09 AM 66.3°F19.1°C 63.9°F17.7°C 92% 3.0 mph N4.8 kmh N 8.0 mph12.9 kmh 29.62 in1003.0 mb 0.00 in0.0 mm 0.00 in/hr0.0 mm/hr 0.00 in0.0 mm
12:10 AM 66.3°F19.1°C 63.6°F17.6°C 91% 4.0 mph N6.4 kmh N 9.0 mph14.5 kmh 29.62 in1003.0 mb 0.00 in0.0 mm 0.00 in/hr0.0 mm/hr 0.00 in0.0 mm
12:13 AM 66.1°F18.9°C 63.4°F17.4°C 91% 8.0 mph NNW12.9 kmh NNW 11.0 mph17.7 kmh 29.62 in1003.0 mb 0.00 in0.0 mm 0.00 in/hr0.0 mm/hr 0.00 in0.0 mm
12:14 AM 66.0°F18.9°C 63.6°F17.6°C 92% 6.0 mph NNE9.7 kmh NNE 11.0 mph17.7 kmh 29.62 in1003.0 mb 0.00 in0.0 mm 0.00 in/hr0.0 mm/hr 0.00 in0.0 mm
12:15 AM 66.1°F18.9°C 63.7°F17.6°C 92% 4.0 mph N6.4 kmh N 11.0 mph17.7 kmh 29.62 in1003.0 mb 0.00 in0.0 mm 0.00 in/hr0.0 mm/hr 0.00 in0.0 mm
12:18 AM 66.1°F18.9°C 63.7°F17.6°C 92% 8.0 mph NE12.9 kmh NE 11.0 mph17.7 kmh 29.62 in1003.0 mb 0.00 in0.0 mm 0.00 in/hr0.0 mm/hr 0.00 in0.0 mm
12:19 AM 66.1°F18.9°C 63.7°F17.6°C 92% 5.0 mph NE8.0 kmh NE 11.0 mph17.7 kmh 29.61 in1002.7 mb 0.00 in0.0 mm 0.00 in/hr0.0 mm/hr 0.00 in0.0 mm
12:20 AM 66.1°F18.9°C 63.7°F17.6°C 92% 8.0 mph NNE12.9 kmh NNE 11.0 mph17.7 kmh 29.61 in1002.7 mb 0.00 in0.0 mm 0.00 in/hr0.0 mm/hr 0.00 in0.0 mm
12:23 AM 66.0°F18.9°C 63.6°F17.6°C 92% 7.0 mph N11.3 kmh N 11.0 mph17.7 kmh 29.61 in1002.7 mb 0.00 in0.0 mm 0.00 in/hr0.0 mm/hr 0.00 in0.0 mm
12:24 AM 66.0°F18.9°C 63.6°F17.6°C 92% 4.0 mph N6.4 kmh N 11.0 mph17.7 kmh 29.61 in1002.7 mb 0.00 in0.0 mm 0.00 in/hr0.0 mm/hr 0.00 in0.0 mm
12:25 AM 66.0°F18.9°C 63.6°F17.6°C 92% 4.0 mph N6.4 kmh N 11.0 mph17.7 kmh 29.61 in1002.7 mb 0.00 in0.0 mm 0.00 in/hr0.0 mm/hr 0.00 in0.0 mm
12:28 AM 65.9°F18.8°C 63.5°F17.5°C 92% 6.0 mph N9.7 kmh N 11.0 mph17.7 kmh 29.61 in1002.7 mb 0.01 in0.3 mm 0.20 in/hr5.1 mm/hr 0.01 in0.3 mm
12:29 AM 65.9°F18.8°C 63.5°F17.5°C 92% 5.0 mph N8.0 kmh N 11.0 mph17.7 kmh 29.61 in1002.7 mb 0.01 in0.3 mm 0.00 in/hr0.0 mm/hr 0.01 in0.3 mm
12:30 AM 65.9°F18.8°C 63.5°F17.5°C 92% 5.0 mph N8.0 kmh N 11.0 mph17.7 kmh 29.61 in1002.7 mb 0.01 in0.3 mm 0.00 in/hr0.0 mm/hr 0.01 in0.3 mm
12:33 AM 65.9°F18.8°C 63.5°F17.5°C 92% 5.0 mph NNE8.0 kmh NNE 11.0 mph17.7 kmh 29.61 in1002.7 mb 0.01 in0.3 mm 0.00 in/hr0.0 mm/hr 0.01 in0.3 mm
12:34 AM 66.0°F18.9°C 63.6°F17.6°C 92% 8.0 mph NNE12.9 kmh NNE 11.0 mph17.7 kmh 29.61 in1002.7 mb 0.01 in0.3 mm 0.00 in/hr0.0 mm/hr 0.01 in0.3 mm
12:35 AM 66.0°F18.9°C 63.6°F17.6°C 92% 5.0 mph NNE8.0 kmh NNE 11.0 mph17.7 kmh 29.61 in1002.7 mb 0.01 in0.3 mm 0.00 in/hr0.0 mm/hr 0.01 in0.3 mm
12:38 AM 66.0°F18.9°C 63.6°F17.6°C 92% 1.0 mph NNE1.6 kmh NNE 11.0 mph17.7 kmh 29.61 in1002.7 mb 0.01 in0.3 mm 0.00 in/hr0.0 mm/hr 0.01 in0.3 mm
12:39 AM 66.1°F18.9°C 63.7°F17.6°C 92% 3.0 mph NNE4.8 kmh NNE 11.0 mph17.7 kmh 29.61 in1002.7 mb 0.01 in0.3 mm 0.00 in/hr0.0 mm/hr 0.01 in0.3 mm
12:40 AM 66.1°F18.9°C 63.7°F17.6°C 92% 5.0 mph NNE8.0 kmh NNE 11.0 mph17.7 kmh 29.61 in1002.7 mb 0.01 in0.3 mm 0.00 in/hr0.0 mm/hr 0.01 in0.3 mm
12:43 AM 66.1°F18.9°C 63.7°F17.6°C 92% 3.0 mph NNE4.8 kmh NNE 11.0 mph17.7 kmh 29.61 in1002.7 mb 0.01 in0.3 mm 0.00 in/hr0.0 mm/hr 0.01 in0.3 mm
12:44 AM 66.2°F19.0°C 63.8°F17.7°C 92% 1.0 mph NE1.6 kmh NE 11.0 mph17.7 kmh 29.61 in1002.7 mb 0.01 in0.3 mm 0.00 in/hr0.0 mm/hr 0.01 in0.3 mm
12:45 AM 66.2°F19.0°C 63.8°F17.7°C 92% 2.0 mph NE3.2 kmh NE 11.0 mph17.7 kmh 29.61 in1002.7 mb 0.01 in0.3 mm 0.00 in/hr0.0 mm/hr 0.01 in0.3 mm
12:48 AM 66.2°F19.0°C 63.8°F17.7°C 92% 4.0 mph NE6.4 kmh NE 11.0 mph17.7 kmh 29.60 in1002.4 mb 0.01 in0.3 mm 0.00 in/hr0.0 mm/hr 0.01 in0.3 mm
12:49 AM 66.2°F19.0°C 63.8°F17.7°C 92% 4.0 mph NE6.4 kmh NE 11.0 mph17.7 kmh 29.60 in1002.4 mb 0.01 in0.3 mm 0.00 in/hr0.0 mm/hr 0.01 in0.3 mm
12:50 AM 66.3°F19.1°C 63.9°F17.7°C 92% 6.0 mph NNE9.7 kmh NNE 11.0 mph17.7 kmh 29.60 in1002.4 mb 0.01 in0.3 mm 0.00 in/hr0.0 mm/hr 0.01 in0.3 mm
12:53 AM 66.2°F19.0°C 63.8°F17.7°C 92% 5.0 mph NE8.0 kmh NE 11.0 mph17.7 kmh 29.60 in1002.4 mb 0.01 in0.3 mm 0.00 in/hr0.0 mm/hr 0.01 in0.3 mm
12:54 AM 66.3°F19.1°C 63.9°F17.7°C 92% 5.0 mph ENE8.0 kmh ENE 11.0 mph17.7 kmh 29.60 in1002.4 mb 0.01 in0.3 mm 0.00 in/hr0.0 mm/hr 0.01 in0.3 mm
12:55 AM 66.2°F19.0°C 63.8°F17.7°C 92% 3.0 mph ENE4.8 kmh ENE 11.0 mph17.7 kmh 29.60 in1002.4 mb 0.01 in0.3 mm 0.00 in/hr0.0 mm/hr 0.01 in0.3 mm
12:58 AM 66.1°F18.9°C 63.4°F17.4°C 91% 2.0 mph NE3.2 kmh NE 11.0 mph17.7 kmh 29.60 in1002.4 mb 0.01 in0.3 mm 0.00 in/hr0.0 mm/hr 0.01 in0.3 mm
12:59 AM 66.1°F18.9°C 63.4°F17.4°C 91% 1.0 mph NE1.6 kmh NE 11.0 mph17.7 kmh 29.60 in1002.4 mb 0.01 in0.3 mm 0.00 in/hr0.0 mm/hr 0.01 in0.3 mm
01:00 AM 66.0°F18.9°C 63.6°F17.6°C 92% 7.0 mph NE11.3 kmh NE 8.0 mph12.9 kmh 29.60 in1002.4 mb 0.01 in0.3 mm 0.00 in/hr0.0 mm/hr 0.01 in0.3 mm
01:03 AM 66.0°F18.9°C 63.6°F17.6°C 92% 1.0 mph NE1.6 kmh NE 8.0 mph12.9 kmh 29.60 in1002.4 mb 0.01 in0.3 mm 0.00 in/hr0.0 mm/hr 0.01 in0.3 mm
01:04 AM 66.0°F18.9°C 63.6°F17.6°C 92% 3.0 mph NE4.8 kmh NE 8.0 mph12.9 kmh 29.61 in1002.7 mb 0.01 in0.3 mm 0.00 in/hr0.0 mm/hr 0.01 in0.3 mm
01:05 AM 66.0°F18.9°C 63.3°F17.4°C 91% 6.0 mph NNE9.7 kmh NNE 9.0 mph14.5 kmh 29.60 in1002.4 mb 0.01 in0.3 mm 0.00 in/hr0.0 mm/hr 0.01 in0.3 mm
01:08 AM 66.0°F18.9°C 63.3°F17.4°C 91% 6.0 mph NNE9.7 kmh NNE 9.0 mph14.5 kmh 29.60 in1002.4 mb 0.01 in0.3 mm 0.00 in/hr0.0 mm/hr 0.01 in0.3 mm
01:09 AM 65.9°F18.8°C 63.2°F17.3°C 91% 3.0 mph NNE4.8 kmh NNE 9.0 mph14.5 kmh 29.60 in1002.4 mb 0.01 in0.3 mm 0.00 in/hr0.0 mm/hr 0.01 in0.3 mm
01:10 AM 65.9°F18.8°C 63.2°F17.3°C 91% Calm Calm 9.0 mph14.5 kmh 29.60 in1002.4 mb 0.01 in0.3 mm 0.00 in/hr0.0 mm/hr 0.01 in0.3 mm
01:13 AM 65.9°F18.8°C 63.2°F17.3°C 91% 1.0 mph NNE1.6 kmh NNE 9.0 mph14.5 kmh 29.60 in1002.4 mb 0.01 in0.3 mm 0.00 in/hr0.0 mm/hr 0.01 in0.3 mm
01:14 AM 65.9°F18.8°C 63.2°F17.3°C 91% 2.0 mph NNE3.2 kmh NNE 9.0 mph14.5 kmh 29.60 in1002.4 mb 0.01 in0.3 mm 0.00 in/hr0.0 mm/hr 0.01 in0.3 mm
01:15 AM 65.9°F18.8°C 63.2°F17.3°C 91% 6.0 mph NNE9.7 kmh NNE 9.0 mph14.5 kmh 29.60 in1002.4 mb 0.01 in0.3 mm 0.00 in/hr0.0 mm/hr 0.01 in0.3 mm
01:18 AM 66.0°F18.9°C 63.3°F17.4°C 91% 3.0 mph NNE4.8 kmh NNE 10.0 mph16.1 kmh 29.60 in1002.4 mb 0.01 in0.3 mm 0.00 in/hr0.0 mm/hr 0.01 in0.3 mm
01:19 AM 66.0°F18.9°C 63.3°F17.4°C 91% 3.0 mph NNE4.8 kmh NNE 10.0 mph16.1 kmh 29.60 in1002.4 mb 0.01 in0.3 mm 0.00 in/hr0.0 mm/hr 0.01 in0.3 mm
01:20 AM 66.0°F18.9°C 63.3°F17.4°C 91% 3.0 mph NNE4.8 kmh NNE 10.0 mph16.1 kmh 29.60 in1002.4 mb 0.01 in0.3 mm 0.00 in/hr0.0 mm/hr 0.01 in0.3 mm
01:23 AM 66.0°F18.9°C 63.3°F17.4°C 91% 8.0 mph N12.9 kmh N 10.0 mph16.1 kmh 29.60 in1002.4 mb 0.01 in0.3 mm 0.00 in/hr0.0 mm/hr 0.01 in0.3 mm
01:24 AM 66.0°F18.9°C 63.3°F17.4°C 91% 6.0 mph N9.7 kmh N 10.0 mph16.1 kmh 29.60 in1002.4 mb 0.01 in0.3 mm 0.00 in/hr0.0 mm/hr 0.01 in0.3 mm
01:25 AM 66.0°F18.9°C 63.3°F17.4°C 91% Calm Calm 10.0 mph16.1 kmh 29.60 in1002.4 mb 0.01 in0.3 mm 0.00 in/hr0.0 mm/hr 0.01 in0.3 mm
01:28 AM 66.0°F18.9°C 63.3°F17.4°C 91% 4.0 mph NNE6.4 kmh NNE 10.0 mph16.1 kmh 29.60 in1002.4 mb 0.01 in0.3 mm 0.00 in/hr0.0 mm/hr 0.01 in0.3 mm
01:29 AM 66.0°F18.9°C 63.3°F17.4°C 91% 3.0 mph NNE4.8 kmh NNE 10.0 mph16.1 kmh 29.60 in1002.4 mb 0.01 in0.3 mm 0.00 in/hr0.0 mm/hr 0.01 in0.3 mm
01:30 AM 66.0°F18.9°C 63.3°F17.4°C 91% 2.0 mph NNE3.2 kmh NNE 10.0 mph16.1 kmh 29.60 in1002.4 mb 0.01 in0.3 mm 0.00 in/hr0.0 mm/hr 0.01 in0.3 mm
01:33 AM 66.1°F18.9°C 63.4°F17.4°C 91% 2.0 mph NNE3.2 kmh NNE 10.0 mph16.1 kmh 29.60 in1002.4 mb 0.01 in0.3 mm 0.00 in/hr0.0 mm/hr 0.01 in0.3 mm
01:34 AM 66.1°F18.9°C 63.4°F17.4°C 91% 2.0 mph NNE3.2 kmh NNE 10.0 mph16.1 kmh 29.60 in1002.4 mb 0.01 in0.3 mm 0.00 in/hr0.0 mm/hr 0.01 in0.3 mm
01:35 AM 66.1°F18.9°C 63.4°F17.4°C 91% Calm Calm 10.0 mph16.1 kmh 29.60 in1002.4 mb 0.01 in0.3 mm 0.00 in/hr0.0 mm/hr 0.01 in0.3 mm
01:38 AM 66.0°F18.9°C 63.3°F17.4°C 91% 1.0 mph NNE1.6 kmh NNE 10.0 mph16.1 kmh 29.59 in1002.0 mb 0.02 in0.5 mm 0.20 in/hr5.1 mm/hr 0.02 in0.5 mm
01:39 AM 66.0°F18.9°C 63.3°F17.4°C 91% 1.0 mph NNE1.6 kmh NNE 10.0 mph16.1 kmh 29.59 in1002.0 mb 0.02 in0.5 mm 0.00 in/hr0.0 mm/hr 0.02 in0.5 mm
01:40 AM 66.0°F18.9°C 63.3°F17.4°C 91% Calm Calm 10.0 mph16.1 kmh 29.59 in1002.0 mb 0.02 in0.5 mm 0.00 in/hr0.0 mm/hr 0.02 in0.5 mm
01:43 AM 66.0°F18.9°C 63.3°F17.4°C 91% 3.0 mph NNE4.8 kmh NNE 10.0 mph16.1 kmh 29.59 in1002.0 mb 0.02 in0.5 mm 0.00 in/hr0.0 mm/hr 0.02 in0.5 mm
01:44 AM 66.0°F18.9°C 63.3°F17.4°C 91% 3.0 mph NNE4.8 kmh NNE 10.0 mph16.1 kmh 29.59 in1002.0 mb 0.02 in0.5 mm 0.00 in/hr0.0 mm/hr 0.02 in0.5 mm
01:45 AM 66.0°F18.9°C 63.3°F17.4°C 91% 4.0 mph NNE6.4 kmh NNE 10.0 mph16.1 kmh 29.59 in1002.0 mb 0.02 in0.5 mm 0.00 in/hr0.0 mm/hr 0.02 in0.5 mm
01:48 AM 66.0°F18.9°C 63.3°F17.4°C 91% Calm Calm 10.0 mph16.1 kmh 29.59 in1002.0 mb 0.02 in0.5 mm 0.00 in/hr0.0 mm/hr 0.02 in0.5 mm
01:49 AM 66.0°F18.9°C 63.3°F17.4°C 91% 3.0 mph N4.8 kmh N 10.0 mph16.1 kmh 29.59 in1002.0 mb 0.02 in0.5 mm 0.00 in/hr0.0 mm/hr 0.02 in0.5 mm
01:50 AM 66.0°F18.9°C 63.3°F17.4°C 91% 2.0 mph N3.2 kmh N 10.0 mph16.1 kmh 29.59 in1002.0 mb 0.02 in0.5 mm 0.00 in/hr0.0 mm/hr 0.02 in0.5 mm
01:53 AM 66.1°F18.9°C 63.1°F17.3°C 90% 6.0 mph N9.7 kmh N 10.0 mph16.1 kmh 29.58 in1001.7 mb 0.02 in0.5 mm 0.00 in/hr0.0 mm/hr 0.02 in0.5 mm
01:54 AM 66.0°F18.9°C 63.0°F17.2°C 90% 5.0 mph N8.0 kmh N 10.0 mph16.1 kmh 29.58 in1001.7 mb 0.02 in0.5 mm 0.00 in/hr0.0 mm/hr 0.02 in0.5 mm
01:55 AM 66.0°F18.9°C 63.0°F17.2°C 90% 7.0 mph N11.3 kmh N 10.0 mph16.1 kmh 29.58 in1001.7 mb 0.02 in0.5 mm 0.00 in/hr0.0 mm/hr 0.02 in0.5 mm
01:58 AM 66.1°F18.9°C 63.1°F17.3°C 90% 7.0 mph N11.3 kmh N 10.0 mph16.1 kmh 29.58 in1001.7 mb 0.02 in0.5 mm 0.00 in/hr0.0 mm/hr 0.02 in0.5 mm
01:59 AM 66.1°F18.9°C 63.1°F17.3°C 90% Calm Calm 10.0 mph16.1 kmh 29.58 in1001.7 mb 0.02 in0.5 mm 0.00 in/hr0.0 mm/hr 0.02 in0.5 mm
02:00 AM 66.0°F18.9°C 63.0°F17.2°C 90% 3.0 mph N4.8 kmh N 3.0 mph4.8 kmh 29.58 in1001.7 mb 0.01 in0.3 mm 0.00 in/hr0.0 mm/hr 0.02 in0.5 mm
02:03 AM 66.1°F18.9°C 63.1°F17.3°C 90% 2.0 mph N3.2 kmh N 8.0 mph12.9 kmh 29.58 in1001.7 mb 0.01 in0.3 mm 0.00 in/hr0.0 mm/hr 0.02 in0.5 mm
02:04 AM 66.0°F18.9°C 63.0°F17.2°C 90% 3.0 mph N4.8 kmh N 8.0 mph12.9 kmh 29.58 in1001.7 mb 0.01 in0.3 mm 0.00 in/hr0.0 mm/hr 0.02 in0.5 mm
02:05 AM 66.0°F18.9°C 63.0°F17.2°C 90% 2.0 mph N3.2 kmh N 8.0 mph12.9 kmh 29.58 in1001.7 mb 0.01 in0.3 mm 0.00 in/hr0.0 mm/hr 0.02 in0.5 mm
02:08 AM 66.0°F18.9°C 63.0°F17.2°C 90% Calm Calm 8.0 mph12.9 kmh 29.59 in1002.0 mb 0.01 in0.3 mm 0.00 in/hr0.0 mm/hr 0.02 in0.5 mm
02:09 AM 66.1°F18.9°C 63.1°F17.3°C 90% 3.0 mph NNE4.8 kmh NNE 8.0 mph12.9 kmh 29.58 in1001.7 mb 0.01 in0.3 mm 0.00 in/hr0.0 mm/hr 0.02 in0.5 mm
02:10 AM 66.1°F18.9°C 63.1°F17.3°C 90% 2.0 mph NNE3.2 kmh NNE 8.0 mph12.9 kmh 29.58 in1001.7 mb 0.01 in0.3 mm 0.00 in/hr0.0 mm/hr 0.02 in0.5 mm
02:13 AM 66.1°F18.9°C 63.1°F17.3°C 90% Calm Calm 8.0 mph12.9 kmh 29.58 in1001.7 mb 0.01 in0.3 mm 0.00 in/hr0.0 mm/hr 0.02 in0.5 mm
02:14 AM 66.1°F18.9°C 63.1°F17.3°C 90% Calm Calm 8.0 mph12.9 kmh 29.59 in1002.0 mb 0.01 in0.3 mm 0.00 in/hr0.0 mm/hr 0.02 in0.5 mm
02:15 AM 66.2°F19.0°C 63.2°F17.3°C 90% 1.0 mph NNE1.6 kmh NNE 8.0 mph12.9 kmh 29.58 in1001.7 mb 0.01 in0.3 mm 0.00 in/hr0.0 mm/hr 0.02 in0.5 mm
02:18 AM 66.2°F19.0°C 63.2°F17.3°C 90% Calm Calm 8.0 mph12.9 kmh 29.58 in1001.7 mb 0.01 in0.3 mm 0.00 in/hr0.0 mm/hr 0.02 in0.5 mm
02:19 AM 66.2°F19.0°C 63.2°F17.3°C 90% 1.0 mph NE1.6 kmh NE 8.0 mph12.9 kmh 29.59 in1002.0 mb 0.01 in0.3 mm 0.00 in/hr0.0 mm/hr 0.02 in0.5 mm
02:20 AM 66.2°F19.0°C 63.2°F17.3°C 90% 5.0 mph NE8.0 kmh NE 8.0 mph12.9 kmh 29.59 in1002.0 mb 0.01 in0.3 mm 0.00 in/hr0.0 mm/hr 0.02 in0.5 mm
02:23 AM 66.2°F19.0°C 63.2°F17.3°C 90% 3.0 mph NE4.8 kmh NE 8.0 mph12.9 kmh 29.58 in1001.7 mb 0.01 in0.3 mm 0.00 in/hr0.0 mm/hr 0.02 in0.5 mm
02:24 AM 66.2°F19.0°C 63.2°F17.3°C 90% 4.0 mph NE6.4 kmh NE 8.0 mph12.9 kmh 29.58 in1001.7 mb 0.01 in0.3 mm 0.00 in/hr0.0 mm/hr 0.02 in0.5 mm
02:25 AM 66.2°F19.0°C 63.2°F17.3°C 90% Calm Calm 8.0 mph12.9 kmh 29.58 in1001.7 mb 0.01 in0.3 mm 0.00 in/hr0.0 mm/hr 0.02 in0.5 mm
02:28 AM 66.2°F19.0°C 63.2°F17.3°C 90% 1.0 mph NE1.6 kmh NE 8.0 mph12.9 kmh 29.58 in1001.7 mb 0.01 in0.3 mm 0.00 in/hr0.0 mm/hr 0.02 in0.5 mm
02:29 AM 66.2°F19.0°C 63.2°F17.3°C 90% 5.0 mph NE8.0 kmh NE 8.0 mph12.9 kmh 29.59 in1002.0 mb 0.01 in0.3 mm 0.00 in/hr0.0 mm/hr 0.02 in0.5 mm
02:30 AM 66.3°F19.1°C 63.6°F17.6°C 91% 1.0 mph NE1.6 kmh NE 8.0 mph12.9 kmh 29.59 in1002.0 mb 0.01 in0.3 mm 0.00 in/hr0.0 mm/hr 0.02 in0.5 mm
02:33 AM 66.3°F19.1°C 63.6°F17.6°C 91% 3.0 mph NE4.8 kmh NE 8.0 mph12.9 kmh 29.59 in1002.0 mb 0.01 in0.3 mm 0.00 in/hr0.0 mm/hr 0.02 in0.5 mm
02:34 AM 66.3°F19.1°C 63.6°F17.6°C 91% 4.0 mph NE6.4 kmh NE 8.0 mph12.9 kmh 29.59 in1002.0 mb 0.01 in0.3 mm 0.00 in/hr0.0 mm/hr 0.02 in0.5 mm
02:35 AM 66.3°F19.1°C 63.6°F17.6°C 91% 4.0 mph NE6.4 kmh NE 8.0 mph12.9 kmh 29.59 in1002.0 mb 0.01 in0.3 mm 0.00 in/hr0.0 mm/hr 0.02 in0.5 mm
02:38 AM 66.3°F19.1°C 63.6°F17.6°C 91% Calm Calm 8.0 mph12.9 kmh 29.59 in1002.0 mb 0.01 in0.3 mm 0.00 in/hr0.0 mm/hr 0.02 in0.5 mm
02:39 AM 66.3°F19.1°C 63.6°F17.6°C 91% Calm Calm 8.0 mph12.9 kmh 29.58 in1001.7 mb 0.01 in0.3 mm 0.00 in/hr0.0 mm/hr 0.02 in0.5 mm
02:40 AM 66.3°F19.1°C 63.9°F17.7°C 92% 3.0 mph NE4.8 kmh NE 8.0 mph12.9 kmh 29.58 in1001.7 mb 0.01 in0.3 mm 0.00 in/hr0.0 mm/hr 0.02 in0.5 mm
02:43 AM 66.3°F19.1°C 63.9°F17.7°C 92% 2.0 mph NE3.2 kmh NE 8.0 mph12.9 kmh 29.59 in1002.0 mb 0.01 in0.3 mm 0.00 in/hr0.0 mm/hr 0.02 in0.5 mm
02:44 AM 66.3°F19.1°C 63.9°F17.7°C 92% 2.0 mph NE3.2 kmh NE 8.0 mph12.9 kmh 29.59 in1002.0 mb 0.01 in0.3 mm 0.00 in/hr0.0 mm/hr 0.02 in0.5 mm
02:45 AM 66.3°F19.1°C 63.9°F17.7°C 92% 4.0 mph NE6.4 kmh NE 8.0 mph12.9 kmh 29.59 in1002.0 mb 0.01 in0.3 mm 0.00 in/hr0.0 mm/hr 0.02 in0.5 mm
02:48 AM 66.3°F19.1°C 63.6°F17.6°C 91% Calm Calm 8.0 mph12.9 kmh 29.59 in1002.0 mb 0.01 in0.3 mm 0.00 in/hr0.0 mm/hr 0.02 in0.5 mm
02:49 AM 66.3°F19.1°C 63.6°F17.6°C 91% Calm Calm 8.0 mph12.9 kmh 29.59 in1002.0 mb 0.01 in0.3 mm 0.00 in/hr0.0 mm/hr 0.02 in0.5 mm
02:50 AM 66.4°F19.1°C 63.7°F17.6°C 91% Calm Calm 8.0 mph12.9 kmh 29.59 in1002.0 mb 0.01 in0.3 mm 0.00 in/hr0.0 mm/hr 0.02 in0.5 mm
02:53 AM 66.4°F19.1°C 63.7°F17.6°C 91% 3.0 mph NE4.8 kmh NE 8.0 mph12.9 kmh 29.59 in1002.0 mb 0.01 in0.3 mm 0.00 in/hr0.0 mm/hr 0.02 in0.5 mm
02:54 AM 66.4°F19.1°C 63.7°F17.6°C 91% 5.0 mph NE8.0 kmh NE 8.0 mph12.9 kmh 29.59 in1002.0 mb 0.01 in0.3 mm 0.00 in/hr0.0 mm/hr 0.02 in0.5 mm
02:55 AM 66.4°F19.1°C 63.7°F17.6°C 91% 3.0 mph NE4.8 kmh NE 8.0 mph12.9 kmh 29.59 in1002.0 mb 0.01 in0.3 mm 0.00 in/hr0.0 mm/hr 0.02 in0.5 mm
02:58 AM 66.4°F19.1°C 63.7°F17.6°C 91% 1.0 mph NE1.6 kmh NE 8.0 mph12.9 kmh 29.59 in1002.0 mb 0.01 in0.3 mm 0.00 in/hr0.0 mm/hr 0.02 in0.5 mm
02:59 AM 66.4°F19.1°C 63.7°F17.6°C 91% Calm Calm 8.0 mph12.9 kmh 29.59 in1002.0 mb 0.01 in0.3 mm 0.00 in/hr0.0 mm/hr 0.02 in0.5 mm
03:00 AM 66.4°F19.1°C 63.7°F17.6°C 91% Calm Calm -- 29.59 in1002.0 mb 0.00 in0.0 mm 0.00 in/hr0.0 mm/hr 0.02 in0.5 mm
03:03 AM 66.3°F19.1°C 63.6°F17.6°C 91% 1.0 mph NE1.6 kmh NE 1.0 mph1.6 kmh 29.59 in1002.0 mb 0.00 in0.0 mm 0.00 in/hr0.0 mm/hr 0.02 in0.5 mm
03:04 AM 66.4°F19.1°C 63.7°F17.6°C 91% 4.0 mph NE6.4 kmh NE 5.0 mph8.0 kmh 29.59 in1002.0 mb 0.00 in0.0 mm 0.00 in/hr0.0 mm/hr 0.02 in0.5 mm
03:05 AM 66.4°F19.1°C 63.7°F17.6°C 91% 5.0 mph NE8.0 kmh NE 5.0 mph8.0 kmh 29.59 in1002.0 mb 0.00 in0.0 mm 0.00 in/hr0.0 mm/hr 0.02 in0.5 mm
03:08 AM 66.3°F19.1°C 63.6°F17.6°C 91% 3.0 mph NE4.8 kmh NE 5.0 mph8.0 kmh 29.59 in1002.0 mb 0.00 in0.0 mm 0.00 in/hr0.0 mm/hr 0.02 in0.5 mm
03:09 AM 66.3°F19.1°C 63.6°F17.6°C 91% Calm Calm 5.0 mph8.0 kmh 29.59 in1002.0 mb 0.00 in0.0 mm 0.00 in/hr0.0 mm/hr 0.02 in0.5 mm
03:10 AM 66.4°F19.1°C 63.7°F17.6°C 91% Calm Calm 5.0 mph8.0 kmh 29.59 in1002.0 mb 0.00 in0.0 mm 0.00 in/hr0.0 mm/hr 0.02 in0.5 mm
03:13 AM 66.3°F19.1°C 63.6°F17.6°C 91% 8.0 mph NE12.9 kmh NE 8.0 mph12.9 kmh 29.59 in1002.0 mb 0.00 in0.0 mm 0.00 in/hr0.0 mm/hr 0.02 in0.5 mm
03:14 AM 66.3°F19.1°C 63.6°F17.6°C 91% 4.0 mph NE6.4 kmh NE 8.0 mph12.9 kmh 29.59 in1002.0 mb 0.00 in0.0 mm 0.00 in/hr0.0 mm/hr 0.02 in0.5 mm
03:15 AM 66.3°F19.1°C 63.6°F17.6°C 91% Calm Calm 8.0 mph12.9 kmh 29.59 in1002.0 mb 0.00 in0.0 mm 0.00 in/hr0.0 mm/hr 0.02 in0.5 mm
03:18 AM 66.2°F19.0°C 63.5°F17.5°C 91% 1.0 mph NE1.6 kmh NE 8.0 mph12.9 kmh 29.59 in1002.0 mb 0.00 in0.0 mm 0.00 in/hr0.0 mm/hr 0.02 in0.5 mm
03:19 AM 66.3°F19.1°C 63.6°F17.6°C 91% 2.0 mph NE3.2 kmh NE 8.0 mph12.9 kmh 29.59 in1002.0 mb 0.00 in0.0 mm 0.00 in/hr0.0 mm/hr 0.02 in0.5 mm
03:20 AM 66.3°F19.1°C 63.6°F17.6°C 91% Calm Calm 8.0 mph12.9 kmh 29.59 in1002.0 mb 0.00 in0.0 mm 0.00 in/hr0.0 mm/hr 0.02 in0.5 mm
03:23 AM 66.3°F19.1°C 63.6°F17.6°C 91% Calm Calm 8.0 mph12.9 kmh 29.58 in1001.7 mb 0.00 in0.0 mm 0.00 in/hr0.0 mm/hr 0.02 in0.5 mm
03:24 AM 66.3°F19.1°C 63.9°F17.7°C 92% 2.0 mph NE3.2 kmh NE 8.0 mph12.9 kmh 29.58 in1001.7 mb 0.00 in0.0 mm 0.00 in/hr0.0 mm/hr 0.02 in0.5 mm
03:25 AM 66.3°F19.1°C 63.6°F17.6°C 91% 2.0 mph NE3.2 kmh NE 8.0 mph12.9 kmh 29.58 in1001.7 mb 0.00 in0.0 mm 0.00 in/hr0.0 mm/hr 0.02 in0.5 mm
03:28 AM 66.3°F19.1°C 63.9°F17.7°C 92% 4.0 mph NE6.4 kmh NE 8.0 mph12.9 kmh 29.58 in1001.7 mb 0.00 in0.0 mm 0.00 in/hr0.0 mm/hr 0.02 in0.5 mm
03:29 AM 66.3°F19.1°C 63.9°F17.7°C 92% 3.0 mph NE4.8 kmh NE 8.0 mph12.9 kmh 29.58 in1001.7 mb 0.00 in0.0 mm 0.00 in/hr0.0 mm/hr 0.02 in0.5 mm
03:30 AM 66.2°F19.0°C 63.8°F17.7°C 92% 3.0 mph NE4.8 kmh NE 8.0 mph12.9 kmh 29.58 in1001.7 mb 0.00 in0.0 mm 0.00 in/hr0.0 mm/hr 0.02 in0.5 mm
03:33 AM 66.2°F19.0°C 63.8°F17.7°C 92% 8.0 mph NE12.9 kmh NE 8.0 mph12.9 kmh 29.58 in1001.7 mb 0.00 in0.0 mm 0.00 in/hr0.0 mm/hr 0.02 in0.5 mm
03:34 AM 66.2°F19.0°C 63.8°F17.7°C 92% 3.0 mph NE4.8 kmh NE 8.0 mph12.9 kmh 29.58 in1001.7 mb 0.00 in0.0 mm 0.00 in/hr0.0 mm/hr 0.02 in0.5 mm
03:35 AM 66.2°F19.0°C 63.8°F17.7°C 92% 3.0 mph NE4.8 kmh NE 8.0 mph12.9 kmh 29.58 in1001.7 mb 0.00 in0.0 mm 0.00 in/hr0.0 mm/hr 0.02 in0.5 mm
03:38 AM 66.2°F19.0°C 63.8°F17.7°C 92% 5.0 mph NE8.0 kmh NE 8.0 mph12.9 kmh 29.58 in1001.7 mb 0.00 in0.0 mm 0.00 in/hr0.0 mm/hr 0.02 in0.5 mm
03:39 AM 66.2°F19.0°C 63.8°F17.7°C 92% 5.0 mph NE8.0 kmh NE 8.0 mph12.9 kmh 29.58 in1001.7 mb 0.00 in0.0 mm 0.00 in/hr0.0 mm/hr 0.02 in0.5 mm
03:40 AM 66.1°F18.9°C 63.7°F17.6°C 92% 4.0 mph NE6.4 kmh NE 8.0 mph12.9 kmh 29.58 in1001.7 mb 0.00 in0.0 mm 0.00 in/hr0.0 mm/hr 0.02 in0.5 mm
03:43 AM 66.1°F18.9°C 63.7°F17.6°C 92% 4.0 mph NE6.4 kmh NE 8.0 mph12.9 kmh 29.58 in1001.7 mb 0.00 in0.0 mm 0.00 in/hr0.0 mm/hr 0.02 in0.5 mm
03:44 AM 66.0°F18.9°C 63.6°F17.6°C 92% 4.0 mph NE6.4 kmh NE 8.0 mph12.9 kmh 29.58 in1001.7 mb 0.00 in0.0 mm 0.00 in/hr0.0 mm/hr 0.02 in0.5 mm
03:45 AM 66.0°F18.9°C 63.6°F17.6°C 92% 1.0 mph NE1.6 kmh NE 8.0 mph12.9 kmh 29.58 in1001.7 mb 0.00 in0.0 mm 0.00 in/hr0.0 mm/hr 0.02 in0.5 mm
03:48 AM 66.0°F18.9°C 63.6°F17.6°C 92% 6.0 mph NE9.7 kmh NE 9.0 mph14.5 kmh 29.58 in1001.7 mb 0.00 in0.0 mm 0.00 in/hr0.0 mm/hr 0.02 in0.5 mm
03:49 AM 66.0°F18.9°C 63.6°F17.6°C 92% 2.0 mph NE3.2 kmh NE 9.0 mph14.5 kmh 29.58 in1001.7 mb 0.00 in0.0 mm 0.00 in/hr0.0 mm/hr 0.02 in0.5 mm
03:50 AM 65.9°F18.8°C 63.5°F17.5°C 92% Calm Calm 9.0 mph14.5 kmh 29.58 in1001.7 mb 0.00 in0.0 mm 0.00 in/hr0.0 mm/hr 0.02 in0.5 mm
03:53 AM 65.9°F18.8°C 63.5°F17.5°C 92% 5.0 mph NE8.0 kmh NE 10.0 mph16.1 kmh 29.58 in1001.7 mb 0.00 in0.0 mm 0.00 in/hr0.0 mm/hr 0.02 in0.5 mm
03:54 AM 65.9°F18.8°C 63.5°F17.5°C 92% 13.0 mph N20.9 kmh N 16.0 mph25.7 kmh 29.58 in1001.7 mb 0.00 in0.0 mm 0.00 in/hr0.0 mm/hr 0.02 in0.5 mm
03:55 AM 65.8°F18.8°C 63.4°F17.4°C 92% 5.0 mph N8.0 kmh N 16.0 mph25.7 kmh 29.58 in1001.7 mb 0.00 in0.0 mm 0.00 in/hr0.0 mm/hr 0.02 in0.5 mm
03:58 AM 65.7°F18.7°C 63.3°F17.4°C 92% 3.0 mph NNE4.8 kmh NNE 16.0 mph25.7 kmh 29.58 in1001.7 mb 0.00 in0.0 mm 0.00 in/hr0.0 mm/hr 0.02 in0.5 mm
03:59 AM 65.8°F18.8°C 63.4°F17.4°C 92% 5.0 mph NNE8.0 kmh NNE 16.0 mph25.7 kmh 29.57 in1001.4 mb 0.00 in0.0 mm 0.00 in/hr0.0 mm/hr 0.02 in0.5 mm
04:00 AM 65.8°F18.8°C 63.4°F17.4°C 92% 8.0 mph N12.9 kmh N 8.0 mph12.9 kmh 29.57 in1001.4 mb 0.00 in0.0 mm 0.00 in/hr0.0 mm/hr 0.02 in0.5 mm
04:03 AM 65.6°F18.7°C 63.2°F17.3°C 92% 3.0 mph NNE4.8 kmh NNE 13.0 mph20.9 kmh 29.57 in1001.4 mb 0.00 in0.0 mm 0.00 in/hr0.0 mm/hr 0.02 in0.5 mm
04:04 AM 65.6°F18.7°C 63.2°F17.3°C 92% 4.0 mph NNE6.4 kmh NNE 13.0 mph20.9 kmh 29.58 in1001.7 mb 0.00 in0.0 mm 0.00 in/hr0.0 mm/hr 0.02 in0.5 mm
04:05 AM 65.6°F18.7°C 63.2°F17.3°C 92% 4.0 mph NNE6.4 kmh NNE 13.0 mph20.9 kmh 29.58 in1001.7 mb 0.00 in0.0 mm 0.00 in/hr0.0 mm/hr 0.02 in0.5 mm
04:08 AM 65.5°F18.6°C 63.1°F17.3°C 92% 5.0 mph NNE8.0 kmh NNE 13.0 mph20.9 kmh 29.58 in1001.7 mb 0.00 in0.0 mm 0.00 in/hr0.0 mm/hr 0.02 in0.5 mm
04:09 AM 65.5°F18.6°C 63.1°F17.3°C 92% 10.0 mph NNE16.1 kmh NNE 13.0 mph20.9 kmh 29.58 in1001.7 mb 0.00 in0.0 mm 0.00 in/hr0.0 mm/hr 0.02 in0.5 mm
04:10 AM 65.4°F18.6°C 63.0°F17.2°C 92% 4.0 mph N6.4 kmh N 14.0 mph22.5 kmh 29.58 in1001.7 mb 0.00 in0.0 mm 0.00 in/hr0.0 mm/hr 0.02 in0.5 mm
04:13 AM 65.4°F18.6°C 63.0°F17.2°C 92% 2.0 mph N3.2 kmh N 14.0 mph22.5 kmh 29.58 in1001.7 mb 0.00 in0.0 mm 0.00 in/hr0.0 mm/hr 0.02 in0.5 mm
04:14 AM 65.4°F18.6°C 63.0°F17.2°C 92% 2.0 mph N3.2 kmh N 14.0 mph22.5 kmh 29.58 in1001.7 mb 0.00 in0.0 mm 0.00 in/hr0.0 mm/hr 0.02 in0.5 mm
04:15 AM 65.4°F18.6°C 63.0°F17.2°C 92% 4.0 mph N6.4 kmh N 14.0 mph22.5 kmh 29.57 in1001.4 mb 0.00 in0.0 mm 0.00 in/hr0.0 mm/hr 0.02 in0.5 mm
04:18 AM 65.4°F18.6°C 63.0°F17.2°C 92% 8.0 mph NE12.9 kmh NE 14.0 mph22.5 kmh 29.57 in1001.4 mb 0.00 in0.0 mm 0.00 in/hr0.0 mm/hr 0.02 in0.5 mm
04:19 AM 65.3°F18.5°C 62.9°F17.2°C 92% 6.0 mph NE9.7 kmh NE 14.0 mph22.5 kmh 29.57 in1001.4 mb 0.00 in0.0 mm 0.00 in/hr0.0 mm/hr 0.02 in0.5 mm
04:20 AM 65.3°F18.5°C 62.9°F17.2°C 92% 4.0 mph NE6.4 kmh NE 14.0 mph22.5 kmh 29.57 in1001.4 mb 0.00 in0.0 mm 0.00 in/hr0.0 mm/hr 0.02 in0.5 mm
04:23 AM 65.3°F18.5°C 62.9°F17.2°C 92% 4.0 mph NNE6.4 kmh NNE 14.0 mph22.5 kmh 29.57 in1001.4 mb 0.00 in0.0 mm 0.00 in/hr0.0 mm/hr 0.02 in0.5 mm
04:24 AM 65.3°F18.5°C 62.9°F17.2°C 92% 8.0 mph NE12.9 kmh NE 14.0 mph22.5 kmh 29.58 in1001.7 mb 0.00 in0.0 mm 0.00 in/hr0.0 mm/hr 0.02 in0.5 mm
04:25 AM 65.3°F18.5°C 62.9°F17.2°C 92% 4.0 mph ENE6.4 kmh ENE 14.0 mph22.5 kmh 29.58 in1001.7 mb 0.00 in0.0 mm 0.00 in/hr0.0 mm/hr 0.02 in0.5 mm
04:28 AM 65.2°F18.4°C 62.8°F17.1°C 92% 8.0 mph NE12.9 kmh NE 14.0 mph22.5 kmh 29.57 in1001.4 mb 0.00 in0.0 mm 0.00 in/hr0.0 mm/hr 0.02 in0.5 mm
04:29 AM 65.2°F18.4°C 62.8°F17.1°C 92% 5.0 mph NE8.0 kmh NE 14.0 mph22.5 kmh 29.58 in1001.7 mb 0.00 in0.0 mm 0.00 in/hr0.0 mm/hr 0.02 in0.5 mm
04:30 AM 65.2°F18.4°C 62.8°F17.1°C 92% 6.0 mph NE9.7 kmh NE 14.0 mph22.5 kmh 29.58 in1001.7 mb 0.00 in0.0 mm 0.00 in/hr0.0 mm/hr 0.02 in0.5 mm
04:33 AM 65.1°F18.4°C 62.7°F17.1°C 92% 1.0 mph ENE1.6 kmh ENE 16.0 mph25.7 kmh 29.57 in1001.4 mb 0.00 in0.0 mm 0.00 in/hr0.0 mm/hr 0.02 in0.5 mm
04:34 AM 65.1°F18.4°C 62.7°F17.1°C 92% 10.0 mph NE16.1 kmh NE 16.0 mph25.7 kmh 29.57 in1001.4 mb 0.00 in0.0 mm 0.00 in/hr0.0 mm/hr 0.02 in0.5 mm
04:35 AM 65.1°F18.4°C 62.7°F17.1°C 92% 6.0 mph ENE9.7 kmh ENE 16.0 mph25.7 kmh 29.58 in1001.7 mb 0.00 in0.0 mm 0.00 in/hr0.0 mm/hr 0.02 in0.5 mm
04:38 AM 65.1°F18.4°C 62.7°F17.1°C 92% 2.0 mph ENE3.2 kmh ENE 16.0 mph25.7 kmh 29.58 in1001.7 mb 0.00 in0.0 mm 0.00 in/hr0.0 mm/hr 0.02 in0.5 mm
04:39 AM 65.1°F18.4°C 62.7°F17.1°C 92% 3.0 mph ENE4.8 kmh ENE 16.0 mph25.7 kmh 29.58 in1001.7 mb 0.00 in0.0 mm 0.00 in/hr0.0 mm/hr 0.02 in0.5 mm
04:40 AM 65.1°F18.4°C 62.7°F17.1°C 92% 10.0 mph NE16.1 kmh NE 16.0 mph25.7 kmh 29.58 in1001.7 mb 0.00 in0.0 mm 0.00 in/hr0.0 mm/hr 0.02 in0.5 mm
04:43 AM 65.1°F18.4°C 62.7°F17.1°C 92% 1.0 mph NE1.6 kmh NE 16.0 mph25.7 kmh 29.58 in1001.7 mb 0.00 in0.0 mm 0.00 in/hr0.0 mm/hr 0.02 in0.5 mm
04:44 AM 65.1°F18.4°C 62.7°F17.1°C 92% 4.0 mph NE6.4 kmh NE 16.0 mph25.7 kmh 29.58 in1001.7 mb 0.00 in0.0 mm 0.00 in/hr0.0 mm/hr 0.02 in0.5 mm
04:45 AM 65.1°F18.4°C 62.7°F17.1°C 92% 11.0 mph NE17.7 kmh NE 16.0 mph25.7 kmh 29.58 in1001.7 mb 0.00 in0.0 mm 0.00 in/hr0.0 mm/hr 0.02 in0.5 mm
04:48 AM 65.1°F18.4°C 62.7°F17.1°C 92% 3.0 mph ENE4.8 kmh ENE 16.0 mph25.7 kmh 29.58 in1001.7 mb 0.00 in0.0 mm 0.00 in/hr0.0 mm/hr 0.02 in0.5 mm
04:49 AM 65.1°F18.4°C 62.7°F17.1°C 92% 4.0 mph ENE6.4 kmh ENE 16.0 mph25.7 kmh 29.58 in1001.7 mb 0.00 in0.0 mm 0.00 in/hr0.0 mm/hr 0.02 in0.5 mm
04:50 AM 65.1°F18.4°C 62.7°F17.1°C 92% 7.0 mph NE11.3 kmh NE 16.0 mph25.7 kmh 29.58 in1001.7 mb 0.00 in0.0 mm 0.00 in/hr0.0 mm/hr 0.02 in0.5 mm
04:53 AM 65.1°F18.4°C 62.7°F17.1°C 92% 3.0 mph NE4.8 kmh NE 16.0 mph25.7 kmh 29.58 in1001.7 mb 0.00 in0.0 mm 0.00 in/hr0.0 mm/hr 0.02 in0.5 mm
04:54 AM 65.1°F18.4°C 62.7°F17.1°C 92% 5.0 mph NE8.0 kmh NE 16.0 mph25.7 kmh 29.58 in1001.7 mb 0.00 in0.0 mm 0.00 in/hr0.0 mm/hr 0.02 in0.5 mm
04:55 AM 65.1°F18.4°C 62.7°F17.1°C 92% 6.0 mph NE9.7 kmh NE 16.0 mph25.7 kmh 29.58 in1001.7 mb 0.00 in0.0 mm 0.00 in/hr0.0 mm/hr 0.02 in0.5 mm
04:58 AM 64.9°F18.3°C 62.5°F16.9°C 92% 1.0 mph NNE1.6 kmh NNE 16.0 mph25.7 kmh 29.58 in1001.7 mb 0.00 in0.0 mm 0.00 in/hr0.0 mm/hr 0.02 in0.5 mm
04:59 AM 64.9°F18.3°C 62.5°F16.9°C 92% 4.0 mph NNE6.4 kmh NNE 16.0 mph25.7 kmh 29.58 in1001.7 mb 0.00 in0.0 mm 0.00 in/hr0.0 mm/hr 0.02 in0.5 mm
05:00 AM 64.9°F18.3°C 62.5°F16.9°C 92% 15.0 mph ENE24.1 kmh ENE 15.0 mph24.1 kmh 29.58 in1001.7 mb 0.00 in0.0 mm 0.00 in/hr0.0 mm/hr 0.02 in0.5 mm
05:03 AM 64.8°F18.2°C 62.4°F16.9°C 92% 8.0 mph N12.9 kmh N 15.0 mph24.1 kmh 29.59 in1002.0 mb 0.00 in0.0 mm 0.00 in/hr0.0 mm/hr 0.02 in0.5 mm
05:04 AM 64.8°F18.2°C 62.4°F16.9°C 92% 12.0 mph N19.3 kmh N 17.0 mph27.4 kmh 29.58 in1001.7 mb 0.00 in0.0 mm 0.00 in/hr0.0 mm/hr 0.02 in0.5 mm
05:05 AM 64.7°F18.2°C 62.3°F16.8°C 92% 4.0 mph NNE6.4 kmh NNE 17.0 mph27.4 kmh 29.59 in1002.0 mb 0.01 in0.3 mm 0.60 in/hr15.2 mm/hr 0.03 in0.8 mm
05:08 AM 64.6°F18.1°C 62.2°F16.8°C 92% 3.0 mph NE4.8 kmh NE 17.0 mph27.4 kmh 29.58 in1001.7 mb 0.01 in0.3 mm 0.00 in/hr0.0 mm/hr 0.03 in0.8 mm
05:09 AM 64.7°F18.2°C 62.3°F16.8°C 92% 7.0 mph NE11.3 kmh NE 17.0 mph27.4 kmh 29.58 in1001.7 mb 0.01 in0.3 mm 0.00 in/hr0.0 mm/hr 0.03 in0.8 mm
05:10 AM 64.7°F18.2°C 62.3°F16.8°C 92% 6.0 mph NE9.7 kmh NE 17.0 mph27.4 kmh 29.58 in1001.7 mb 0.01 in0.3 mm 0.00 in/hr0.0 mm/hr 0.03 in0.8 mm
05:13 AM 64.7°F18.2°C 62.3°F16.8°C 92% 1.0 mph NNE1.6 kmh NNE 17.0 mph27.4 kmh 29.58 in1001.7 mb 0.01 in0.3 mm 0.00 in/hr0.0 mm/hr 0.03 in0.8 mm
05:14 AM 64.8°F18.2°C 62.4°F16.9°C 92% 7.0 mph NNE11.3 kmh NNE 17.0 mph27.4 kmh 29.58 in1001.7 mb 0.01 in0.3 mm 0.00 in/hr0.0 mm/hr 0.03 in0.8 mm
05:15 AM 64.7°F18.2°C 62.3°F16.8°C 92% 8.0 mph E12.9 kmh E 17.0 mph27.4 kmh 29.58 in1001.7 mb 0.01 in0.3 mm 0.00 in/hr0.0 mm/hr 0.03 in0.8 mm
05:18 AM 64.6°F18.1°C 62.2°F16.8°C 92% 4.0 mph N6.4 kmh N 17.0 mph27.4 kmh 29.58 in1001.7 mb 0.01 in0.3 mm 0.00 in/hr0.0 mm/hr 0.03 in0.8 mm
05:19 AM 64.5°F18.1°C 62.1°F16.7°C 92% 1.0 mph N1.6 kmh N 17.0 mph27.4 kmh 29.59 in1002.0 mb 0.01 in0.3 mm 0.00 in/hr0.0 mm/hr 0.03 in0.8 mm
05:20 AM 64.4°F18.0°C 62.0°F16.7°C 92% 11.0 mph NNE17.7 kmh NNE 17.0 mph27.4 kmh 29.58 in1001.7 mb 0.01 in0.3 mm 0.00 in/hr0.0 mm/hr 0.03 in0.8 mm
05:23 AM 64.3°F17.9°C 61.9°F16.6°C 92% 5.0 mph NNE8.0 kmh NNE 18.0 mph29.0 kmh 29.59 in1002.0 mb 0.01 in0.3 mm 0.00 in/hr0.0 mm/hr 0.03 in0.8 mm
05:24 AM 64.3°F17.9°C 61.9°F16.6°C 92% 6.0 mph N9.7 kmh N 18.0 mph29.0 kmh 29.59 in1002.0 mb 0.01 in0.3 mm 0.00 in/hr0.0 mm/hr 0.03 in0.8 mm
05:25 AM 64.2°F17.9°C 61.8°F16.6°C 92% 7.0 mph N11.3 kmh N 18.0 mph29.0 kmh 29.59 in1002.0 mb 0.01 in0.3 mm 0.00 in/hr0.0 mm/hr 0.03 in0.8 mm
05:28 AM 64.2°F17.9°C 61.8°F16.6°C 92% 6.0 mph NE9.7 kmh NE 18.0 mph29.0 kmh 29.59 in1002.0 mb 0.01 in0.3 mm 0.00 in/hr0.0 mm/hr 0.03 in0.8 mm
05:29 AM 64.2°F17.9°C 61.8°F16.6°C 92% 2.0 mph NE3.2 kmh NE 18.0 mph29.0 kmh 29.59 in1002.0 mb 0.01 in0.3 mm 0.00 in/hr0.0 mm/hr 0.03 in0.8 mm
05:30 AM 64.2°F17.9°C 61.8°F16.6°C 92% 10.0 mph N16.1 kmh N 18.0 mph29.0 kmh 29.59 in1002.0 mb 0.01 in0.3 mm 0.00 in/hr0.0 mm/hr 0.03 in0.8 mm
05:33 AM 64.1°F17.8°C 61.7°F16.5°C 92% 3.0 mph NNE4.8 kmh NNE 18.0 mph29.0 kmh 29.59 in1002.0 mb 0.01 in0.3 mm 0.00 in/hr0.0 mm/hr 0.03 in0.8 mm
05:34 AM 64.1°F17.8°C 61.4°F16.3°C 91% 3.0 mph NNE4.8 kmh NNE 18.0 mph29.0 kmh 29.59 in1002.0 mb 0.01 in0.3 mm 0.00 in/hr0.0 mm/hr 0.03 in0.8 mm
05:35 AM 64.0°F17.8°C 61.3°F16.3°C 91% 7.0 mph NNE11.3 kmh NNE 18.0 mph29.0 kmh 29.59 in1002.0 mb 0.01 in0.3 mm 0.00 in/hr0.0 mm/hr 0.03 in0.8 mm
05:38 AM 63.9°F17.7°C 61.2°F16.2°C 91% 5.0 mph N8.0 kmh N 18.0 mph29.0 kmh 29.59 in1002.0 mb 0.01 in0.3 mm 0.00 in/hr0.0 mm/hr 0.03 in0.8 mm
05:39 AM 63.9°F17.7°C 61.2°F16.2°C 91% 6.0 mph NNE9.7 kmh NNE 18.0 mph29.0 kmh 29.59 in1002.0 mb 0.01 in0.3 mm 0.00 in/hr0.0 mm/hr 0.03 in0.8 mm
05:40 AM 63.9°F17.7°C 61.2°F16.2°C 91% 10.0 mph NE16.1 kmh NE 18.0 mph29.0 kmh 29.59 in1002.0 mb 0.01 in0.3 mm 0.00 in/hr0.0 mm/hr 0.03 in0.8 mm
05:43 AM 63.8°F17.7°C 61.1°F16.2°C 91% 11.0 mph NNE17.7 kmh NNE 18.0 mph29.0 kmh 29.60 in1002.4 mb 0.01 in0.3 mm 0.00 in/hr0.0 mm/hr 0.03 in0.8 mm
05:44 AM 63.8°F17.7°C 61.1°F16.2°C 91% 3.0 mph NE4.8 kmh NE 18.0 mph29.0 kmh 29.60 in1002.4 mb 0.01 in0.3 mm 0.00 in/hr0.0 mm/hr 0.03 in0.8 mm
05:45 AM 63.8°F17.7°C 61.1°F16.2°C 91% 3.0 mph NE4.8 kmh NE 18.0 mph29.0 kmh 29.60 in1002.4 mb 0.01 in0.3 mm 0.00 in/hr0.0 mm/hr 0.03 in0.8 mm
05:48 AM 63.9°F17.7°C 61.2°F16.2°C 91% 10.0 mph NE16.1 kmh NE 18.0 mph29.0 kmh 29.60 in1002.4 mb 0.01 in0.3 mm 0.00 in/hr0.0 mm/hr 0.03 in0.8 mm
05:49 AM 63.9°F17.7°C 61.2°F16.2°C 91% 6.0 mph NE9.7 kmh NE 18.0 mph29.0 kmh 29.60 in1002.4 mb 0.01 in0.3 mm 0.00 in/hr0.0 mm/hr 0.03 in0.8 mm
05:50 AM 63.8°F17.7°C 61.1°F16.2°C 91% 5.0 mph NNE8.0 kmh NNE 18.0 mph29.0 kmh 29.60 in1002.4 mb 0.01 in0.3 mm 0.00 in/hr0.0 mm/hr 0.03 in0.8 mm
05:53 AM 63.8°F17.7°C 61.1°F16.2°C 91% 5.0 mph NE8.0 kmh NE 18.0 mph29.0 kmh 29.60 in1002.4 mb 0.01 in0.3 mm 0.00 in/hr0.0 mm/hr 0.03 in0.8 mm
05:54 AM 63.8°F17.7°C 61.1°F16.2°C 91% 3.0 mph NE4.8 kmh NE 18.0 mph29.0 kmh 29.60 in1002.4 mb 0.01 in0.3 mm 0.00 in/hr0.0 mm/hr 0.03 in0.8 mm
05:55 AM 63.8°F17.7°C 61.1°F16.2°C 91% 7.0 mph NE11.3 kmh NE 18.0 mph29.0 kmh 29.60 in1002.4 mb 0.01 in0.3 mm 0.00 in/hr0.0 mm/hr 0.03 in0.8 mm
05:58 AM 63.8°F17.7°C 61.1°F16.2°C 91% 2.0 mph NNE3.2 kmh NNE 18.0 mph29.0 kmh 29.60 in1002.4 mb 0.01 in0.3 mm 0.00 in/hr0.0 mm/hr 0.03 in0.8 mm
05:59 AM 63.8°F17.7°C 61.1°F16.2°C 91% 8.0 mph NE12.9 kmh NE 18.0 mph29.0 kmh 29.61 in1002.7 mb 0.01 in0.3 mm 0.00 in/hr0.0 mm/hr 0.03 in0.8 mm
06:00 AM 63.8°F17.7°C 60.8°F16.0°C 90% 6.0 mph NNE9.7 kmh NNE 6.0 mph9.7 kmh 29.60 in1002.4 mb 0.01 in0.3 mm 0.00 in/hr0.0 mm/hr 0.03 in0.8 mm
06:03 AM 63.7°F17.6°C 61.0°F16.1°C 91% 2.0 mph NE3.2 kmh NE 10.0 mph16.1 kmh 29.60 in1002.4 mb 0.01 in0.3 mm 0.00 in/hr0.0 mm/hr 0.03 in0.8 mm
06:04 AM 63.7°F17.6°C 61.0°F16.1°C 91% 2.0 mph NE3.2 kmh NE 10.0 mph16.1 kmh 29.60 in1002.4 mb 0.01 in0.3 mm 0.00 in/hr0.0 mm/hr 0.03 in0.8 mm
06:05 AM 63.7°F17.6°C 61.0°F16.1°C 91% 8.0 mph NE12.9 kmh NE 15.0 mph24.1 kmh 29.60 in1002.4 mb 0.01 in0.3 mm 0.00 in/hr0.0 mm/hr 0.03 in0.8 mm
06:08 AM 63.6°F17.6°C 60.9°F16.1°C 91% 6.0 mph NNE9.7 kmh NNE 15.0 mph24.1 kmh 29.61 in1002.7 mb 0.01 in0.3 mm 0.00 in/hr0.0 mm/hr 0.03 in0.8 mm
06:09 AM 63.6°F17.6°C 60.9°F16.1°C 91% 2.0 mph NNE3.2 kmh NNE 15.0 mph24.1 kmh 29.61 in1002.7 mb 0.01 in0.3 mm 0.00 in/hr0.0 mm/hr 0.03 in0.8 mm
06:10 AM 63.6°F17.6°C 60.9°F16.1°C 91% 7.0 mph N11.3 kmh N 15.0 mph24.1 kmh 29.61 in1002.7 mb 0.01 in0.3 mm 0.00 in/hr0.0 mm/hr 0.03 in0.8 mm
06:13 AM 63.5°F17.5°C 60.8°F16.0°C 91% 8.0 mph N12.9 kmh N 15.0 mph24.1 kmh 29.61 in1002.7 mb 0.01 in0.3 mm 0.00 in/hr0.0 mm/hr 0.03 in0.8 mm
06:14 AM 63.5°F17.5°C 60.8°F16.0°C 91% 4.0 mph NNE6.4 kmh NNE 15.0 mph24.1 kmh 29.61 in1002.7 mb 0.01 in0.3 mm 0.00 in/hr0.0 mm/hr 0.03 in0.8 mm
06:15 AM 63.5°F17.5°C 60.8°F16.0°C 91% 3.0 mph NNE4.8 kmh NNE 15.0 mph24.1 kmh 29.61 in1002.7 mb 0.01 in0.3 mm 0.00 in/hr0.0 mm/hr 0.03 in0.8 mm
06:18 AM 63.5°F17.5°C 60.8°F16.0°C 91% 4.0 mph NE6.4 kmh NE 15.0 mph24.1 kmh 29.61 in1002.7 mb 0.01 in0.3 mm 0.00 in/hr0.0 mm/hr 0.03 in0.8 mm
06:19 AM 63.5°F17.5°C 60.8°F16.0°C 91% 5.0 mph NE8.0 kmh NE 15.0 mph24.1 kmh 29.61 in1002.7 mb 0.01 in0.3 mm 0.00 in/hr0.0 mm/hr 0.03 in0.8 mm
06:20 AM 63.4°F17.4°C 60.7°F15.9°C 91% 4.0 mph NE6.4 kmh NE 15.0 mph24.1 kmh 29.61 in1002.7 mb 0.01 in0.3 mm 0.00 in/hr0.0 mm/hr 0.03 in0.8 mm
06:23 AM 63.5°F17.5°C 60.8°F16.0°C 91% 7.0 mph NNE11.3 kmh NNE 15.0 mph24.1 kmh 29.61 in1002.7 mb 0.01 in0.3 mm 0.00 in/hr0.0 mm/hr 0.03 in0.8 mm
06:24 AM 63.5°F17.5°C 60.8°F16.0°C 91% 4.0 mph NNE6.4 kmh NNE 15.0 mph24.1 kmh 29.62 in1003.0 mb 0.01 in0.3 mm 0.00 in/hr0.0 mm/hr 0.03 in0.8 mm
06:25 AM 63.5°F17.5°C 60.8°F16.0°C 91% 3.0 mph NNE4.8 kmh NNE 15.0 mph24.1 kmh 29.62 in1003.0 mb 0.01 in0.3 mm 0.00 in/hr0.0 mm/hr 0.03 in0.8 mm
06:28 AM 63.5°F17.5°C 60.8°F16.0°C 91% 4.0 mph N6.4 kmh N 15.0 mph24.1 kmh 29.62 in1003.0 mb 0.01 in0.3 mm 0.00 in/hr0.0 mm/hr 0.03 in0.8 mm
06:29 AM 63.5°F17.5°C 60.8°F16.0°C 91% 6.0 mph N9.7 kmh N 15.0 mph24.1 kmh 29.62 in1003.0 mb 0.01 in0.3 mm 0.00 in/hr0.0 mm/hr 0.03 in0.8 mm
06:30 AM 63.5°F17.5°C 60.8°F16.0°C 91% 5.0 mph N8.0 kmh N 15.0 mph24.1 kmh 29.62 in1003.0 mb 0.01 in0.3 mm 0.00 in/hr0.0 mm/hr 0.03 in0.8 mm
06:33 AM 63.6°F17.6°C 60.9°F16.1°C 91% 6.0 mph N9.7 kmh N 15.0 mph24.1 kmh 29.62 in1003.0 mb 0.01 in0.3 mm 0.00 in/hr0.0 mm/hr 0.03 in0.8 mm
06:34 AM 63.6°F17.6°C 60.6°F15.9°C 90% 5.0 mph N8.0 kmh N 15.0 mph24.1 kmh 29.62 in1003.0 mb 0.01 in0.3 mm 0.00 in/hr0.0 mm/hr 0.03 in0.8 mm
06:35 AM 63.6°F17.6°C 60.6°F15.9°C 90% 5.0 mph N8.0 kmh N 15.0 mph24.1 kmh 29.62 in1003.0 mb 0.01 in0.3 mm 0.00 in/hr0.0 mm/hr 0.03 in0.8 mm
06:38 AM 63.6°F17.6°C 60.6°F15.9°C 90% 5.0 mph N8.0 kmh N 15.0 mph24.1 kmh 29.62 in1003.0 mb 0.01 in0.3 mm 0.00 in/hr0.0 mm/hr 0.03 in0.8 mm
06:39 AM 63.6°F17.6°C 60.6°F15.9°C 90% 10.0 mph N16.1 kmh N 15.0 mph24.1 kmh 29.62 in1003.0 mb 0.01 in0.3 mm 0.00 in/hr0.0 mm/hr 0.03 in0.8 mm
06:40 AM 63.6°F17.6°C 60.6°F15.9°C 90% 5.0 mph N8.0 kmh N 15.0 mph24.1 kmh 29.62 in1003.0 mb 0.01 in0.3 mm 0.00 in/hr0.0 mm/hr 0.03 in0.8 mm
06:43 AM 63.6°F17.6°C 60.6°F15.9°C 90% 2.0 mph NNE3.2 kmh NNE 15.0 mph24.1 kmh 29.62 in1003.0 mb 0.01 in0.3 mm 0.00 in/hr0.0 mm/hr 0.03 in0.8 mm
06:44 AM 63.6°F17.6°C 60.6°F15.9°C 90% 5.0 mph N8.0 kmh N 15.0 mph24.1 kmh 29.62 in1003.0 mb 0.01 in0.3 mm 0.00 in/hr0.0 mm/hr 0.03 in0.8 mm
06:45 AM 63.6°F17.6°C 60.6°F15.9°C 90% 12.0 mph NNW19.3 kmh NNW 15.0 mph24.1 kmh 29.62 in1003.0 mb 0.01 in0.3 mm 0.00 in/hr0.0 mm/hr 0.03 in0.8 mm
06:48 AM 63.6°F17.6°C 60.6°F15.9°C 90% 6.0 mph N9.7 kmh N 15.0 mph24.1 kmh 29.62 in1003.0 mb 0.01 in0.3 mm 0.00 in/hr0.0 mm/hr 0.03 in0.8 mm
06:49 AM 63.6°F17.6°C 60.6°F15.9°C 90% 7.0 mph NNE11.3 kmh NNE 15.0 mph24.1 kmh 29.62 in1003.0 mb 0.01 in0.3 mm 0.00 in/hr0.0 mm/hr 0.03 in0.8 mm
06:50 AM 63.6°F17.6°C 60.6°F15.9°C 90% 6.0 mph N9.7 kmh N 15.0 mph24.1 kmh 29.62 in1003.0 mb 0.01 in0.3 mm 0.00 in/hr0.0 mm/hr 0.03 in0.8 mm
06:53 AM 63.5°F17.5°C 60.5°F15.8°C 90% 10.0 mph NNW16.1 kmh NNW 15.0 mph24.1 kmh 29.62 in1003.0 mb 0.01 in0.3 mm 0.00 in/hr0.0 mm/hr 0.03 in0.8 mm
06:54 AM 63.5°F17.5°C 60.5°F15.8°C 90% 6.0 mph N9.7 kmh N 15.0 mph24.1 kmh 29.62 in1003.0 mb 0.01 in0.3 mm 0.00 in/hr0.0 mm/hr 0.03 in0.8 mm
06:55 AM 63.5°F17.5°C 60.5°F15.8°C 90% 10.0 mph N16.1 kmh N 15.0 mph24.1 kmh 29.62 in1003.0 mb 0.01 in0.3 mm 0.00 in/hr0.0 mm/hr 0.03 in0.8 mm
06:58 AM 63.5°F17.5°C 60.5°F15.8°C 90% 7.0 mph NNE11.3 kmh NNE 15.0 mph24.1 kmh 29.62 in1003.0 mb 0.01 in0.3 mm 0.00 in/hr0.0 mm/hr 0.03 in0.8 mm
06:59 AM 63.4°F17.4°C 60.4°F15.8°C 90% 12.0 mph N19.3 kmh N 16.0 mph25.7 kmh 29.62 in1003.0 mb 0.01 in0.3 mm 0.00 in/hr0.0 mm/hr 0.03 in0.8 mm
07:00 AM 63.4°F17.4°C 60.4°F15.8°C 90% 4.0 mph NNW6.4 kmh NNW 5.0 mph8.0 kmh 29.62 in1003.0 mb 0.00 in0.0 mm 0.00 in/hr0.0 mm/hr 0.03 in0.8 mm
07:03 AM 63.3°F17.4°C 60.3°F15.7°C 90% 7.0 mph N11.3 kmh N 13.0 mph20.9 kmh 29.62 in1003.0 mb 0.00 in0.0 mm 0.00 in/hr0.0 mm/hr 0.03 in0.8 mm
07:04 AM 63.4°F17.4°C 60.4°F15.8°C 90% 11.0 mph N17.7 kmh N 14.0 mph22.5 kmh 29.62 in1003.0 mb 0.00 in0.0 mm 0.00 in/hr0.0 mm/hr 0.03 in0.8 mm
07:05 AM 63.3°F17.4°C 60.3°F15.7°C 90% 12.0 mph N19.3 kmh N 18.0 mph29.0 kmh 29.62 in1003.0 mb 0.00 in0.0 mm 0.00 in/hr0.0 mm/hr 0.03 in0.8 mm
07:08 AM 63.2°F17.3°C 60.2°F15.7°C 90% 6.0 mph N9.7 kmh N 18.0 mph29.0 kmh 29.62 in1003.0 mb 0.00 in0.0 mm 0.00 in/hr0.0 mm/hr 0.03 in0.8 mm
07:09 AM 63.2°F17.3°C 60.2°F15.7°C 90% 7.0 mph N11.3 kmh N 18.0 mph29.0 kmh 29.62 in1003.0 mb 0.00 in0.0 mm 0.00 in/hr0.0 mm/hr 0.03 in0.8 mm
07:10 AM 63.2°F17.3°C 60.2°F15.7°C 90% 10.0 mph NE16.1 kmh NE 18.0 mph29.0 kmh 29.62 in1003.0 mb 0.00 in0.0 mm 0.00 in/hr0.0 mm/hr 0.03 in0.8 mm
07:13 AM 63.2°F17.3°C 60.2°F15.7°C 90% 6.0 mph N9.7 kmh N 18.0 mph29.0 kmh 29.62 in1003.0 mb 0.01 in0.3 mm 0.20 in/hr5.1 mm/hr 0.04 in1.0 mm
07:14 AM 63.1°F17.3°C 60.1°F15.6°C 90% 8.0 mph N12.9 kmh N 18.0 mph29.0 kmh 29.62 in1003.0 mb 0.01 in0.3 mm 0.00 in/hr0.0 mm/hr 0.04 in1.0 mm
07:15 AM 63.1°F17.3°C 60.1°F15.6°C 90% 10.0 mph N16.1 kmh N 18.0 mph29.0 kmh 29.62 in1003.0 mb 0.01 in0.3 mm 0.00 in/hr0.0 mm/hr 0.04 in1.0 mm
07:18 AM 63.0°F17.2°C 60.0°F15.6°C 90% 7.0 mph N11.3 kmh N 18.0 mph29.0 kmh 29.62 in1003.0 mb 0.01 in0.3 mm 0.00 in/hr0.0 mm/hr 0.04 in1.0 mm
07:19 AM 63.0°F17.2°C 60.0°F15.6°C 90% 10.0 mph N16.1 kmh N 18.0 mph29.0 kmh 29.62 in1003.0 mb 0.01 in0.3 mm 0.00 in/hr0.0 mm/hr 0.04 in1.0 mm
07:20 AM 63.0°F17.2°C 60.0°F15.6°C 90% 7.0 mph NNE11.3 kmh NNE 18.0 mph29.0 kmh 29.62 in1003.0 mb 0.01 in0.3 mm 0.00 in/hr0.0 mm/hr 0.04 in1.0 mm
07:23 AM 62.9°F17.2°C 59.9°F15.5°C 90% 5.0 mph NNE8.0 kmh NNE 18.0 mph29.0 kmh 29.63 in1003.4 mb 0.01 in0.3 mm 0.00 in/hr0.0 mm/hr 0.04 in1.0 mm
07:24 AM 62.8°F17.1°C 59.8°F15.4°C 90% 15.0 mph NNE24.1 kmh NNE 18.0 mph29.0 kmh 29.63 in1003.4 mb 0.01 in0.3 mm 0.00 in/hr0.0 mm/hr 0.04 in1.0 mm
07:25 AM 62.8°F17.1°C 59.8°F15.4°C 90% 10.0 mph NW16.1 kmh NW 18.0 mph29.0 kmh 29.63 in1003.4 mb 0.01 in0.3 mm 0.00 in/hr0.0 mm/hr 0.04 in1.0 mm
07:28 AM 62.8°F17.1°C 59.8°F15.4°C 90% 7.0 mph N11.3 kmh N 18.0 mph29.0 kmh 29.63 in1003.4 mb 0.01 in0.3 mm 0.00 in/hr0.0 mm/hr 0.04 in1.0 mm
07:29 AM 62.8°F17.1°C 59.8°F15.4°C 90% 8.0 mph N12.9 kmh N 18.0 mph29.0 kmh 29.63 in1003.4 mb 0.01 in0.3 mm 0.00 in/hr0.0 mm/hr 0.04 in1.0 mm
07:30 AM 62.8°F17.1°C 59.8°F15.4°C 90% 3.0 mph NNE4.8 kmh NNE 18.0 mph29.0 kmh 29.63 in1003.4 mb 0.01 in0.3 mm 0.00 in/hr0.0 mm/hr 0.04 in1.0 mm
07:33 AM 62.8°F17.1°C 59.8°F15.4°C 90% 9.0 mph NNE14.5 kmh NNE 18.0 mph29.0 kmh 29.63 in1003.4 mb 0.01 in0.3 mm 0.00 in/hr0.0 mm/hr 0.04 in1.0 mm
07:34 AM 62.7°F17.1°C 59.7°F15.4°C 90% 9.0 mph N14.5 kmh N 18.0 mph29.0 kmh 29.63 in1003.4 mb 0.01 in0.3 mm 0.00 in/hr0.0 mm/hr 0.04 in1.0 mm
07:35 AM 62.7°F17.1°C 59.7°F15.4°C 90% 8.0 mph N12.9 kmh N 19.0 mph30.6 kmh 29.63 in1003.4 mb 0.01 in0.3 mm 0.00 in/hr0.0 mm/hr 0.04 in1.0 mm
07:38 AM 62.6°F17.0°C 59.6°F15.3°C 90% 7.0 mph NE11.3 kmh NE 19.0 mph30.6 kmh 29.63 in1003.4 mb 0.01 in0.3 mm 0.00 in/hr0.0 mm/hr 0.04 in1.0 mm
07:39 AM 62.6°F17.0°C 59.6°F15.3°C 90% 12.0 mph N19.3 kmh N 19.0 mph30.6 kmh 29.63 in1003.4 mb 0.01 in0.3 mm 0.00 in/hr0.0 mm/hr 0.04 in1.0 mm
07:40 AM 62.6°F17.0°C 59.6°F15.3°C 90% 12.0 mph N19.3 kmh N 19.0 mph30.6 kmh 29.63 in1003.4 mb 0.01 in0.3 mm 0.00 in/hr0.0 mm/hr 0.04 in1.0 mm
07:43 AM 62.5°F16.9°C 59.5°F15.3°C 90% 5.0 mph NNE8.0 kmh NNE 19.0 mph30.6 kmh 29.63 in1003.4 mb 0.01 in0.3 mm 0.00 in/hr0.0 mm/hr 0.04 in1.0 mm
07:44 AM 62.5°F16.9°C 59.5°F15.3°C 90% 8.0 mph NNE12.9 kmh NNE 19.0 mph30.6 kmh 29.64 in1003.7 mb 0.01 in0.3 mm 0.00 in/hr0.0 mm/hr 0.04 in1.0 mm
07:45 AM 62.4°F16.9°C 59.4°F15.2°C 90% 12.0 mph NNE19.3 kmh NNE 20.0 mph32.2 kmh 29.64 in1003.7 mb 0.01 in0.3 mm 0.00 in/hr0.0 mm/hr 0.04 in1.0 mm
07:48 AM 62.2°F16.8°C 58.9°F14.9°C 89% 10.0 mph N16.1 kmh N 20.0 mph32.2 kmh 29.64 in1003.7 mb 0.01 in0.3 mm 0.00 in/hr0.0 mm/hr 0.04 in1.0 mm
07:49 AM 62.2°F16.8°C 58.9°F14.9°C 89% 9.0 mph N14.5 kmh N 20.0 mph32.2 kmh 29.64 in1003.7 mb 0.01 in0.3 mm 0.00 in/hr0.0 mm/hr 0.04 in1.0 mm
07:50 AM 62.1°F16.7°C 58.8°F14.9°C 89% 7.0 mph N11.3 kmh N 20.0 mph32.2 kmh 29.64 in1003.7 mb 0.01 in0.3 mm 0.00 in/hr0.0 mm/hr 0.04 in1.0 mm
07:53 AM 62.1°F16.7°C 58.8°F14.9°C 89% 7.0 mph N11.3 kmh N 20.0 mph32.2 kmh 29.64 in1003.7 mb 0.01 in0.3 mm 0.00 in/hr0.0 mm/hr 0.04 in1.0 mm
07:54 AM 62.1°F16.7°C 58.8°F14.9°C 89% 14.0 mph N22.5 kmh N 20.0 mph32.2 kmh 29.64 in1003.7 mb 0.01 in0.3 mm 0.00 in/hr0.0 mm/hr 0.04 in1.0 mm
07:55 AM 62.1°F16.7°C 58.8°F14.9°C 89% 11.0 mph NE17.7 kmh NE 20.0 mph32.2 kmh 29.64 in1003.7 mb 0.01 in0.3 mm 0.00 in/hr0.0 mm/hr 0.04 in1.0 mm
07:58 AM 62.1°F16.7°C 58.8°F14.9°C 89% 6.0 mph NNE9.7 kmh NNE 20.0 mph32.2 kmh 29.64 in1003.7 mb 0.01 in0.3 mm 0.00 in/hr0.0 mm/hr 0.04 in1.0 mm
07:59 AM 62.1°F16.7°C 58.8°F14.9°C 89% 8.0 mph NNE12.9 kmh NNE 20.0 mph32.2 kmh 29.64 in1003.7 mb 0.01 in0.3 mm 0.00 in/hr0.0 mm/hr 0.04 in1.0 mm
08:00 AM 62.1°F16.7°C 58.8°F14.9°C 89% 12.0 mph N19.3 kmh N 13.0 mph20.9 kmh 29.64 in1003.7 mb 0.01 in0.3 mm 0.00 in/hr0.0 mm/hr 0.04 in1.0 mm
08:03 AM 62.0°F16.7°C 58.7°F14.8°C 89% 12.0 mph N19.3 kmh N 19.0 mph30.6 kmh 29.64 in1003.7 mb 0.01 in0.3 mm 0.00 in/hr0.0 mm/hr 0.04 in1.0 mm
08:04 AM 61.9°F16.6°C 58.3°F14.6°C 88% 9.0 mph NNW14.5 kmh NNW 19.0 mph30.6 kmh 29.64 in1003.7 mb 0.01 in0.3 mm 0.00 in/hr0.0 mm/hr 0.04 in1.0 mm
08:05 AM 61.9°F16.6°C 58.6°F14.8°C 89% 11.0 mph NNW17.7 kmh NNW 19.0 mph30.6 kmh 29.64 in1003.7 mb 0.01 in0.3 mm 0.00 in/hr0.0 mm/hr 0.04 in1.0 mm
08:08 AM 62.0°F16.7°C 58.4°F14.7°C 88% 12.0 mph NNW19.3 kmh NNW 19.0 mph30.6 kmh 29.64 in1003.7 mb 0.01 in0.3 mm 0.00 in/hr0.0 mm/hr 0.04 in1.0 mm
08:09 AM 62.0°F16.7°C 58.4°F14.7°C 88% 7.0 mph N11.3 kmh N 19.0 mph30.6 kmh 29.64 in1003.7 mb 0.01 in0.3 mm 0.00 in/hr0.0 mm/hr 0.04 in1.0 mm
08:10 AM 62.0°F16.7°C 58.4°F14.7°C 88% 8.0 mph NNE12.9 kmh NNE 19.0 mph30.6 kmh 29.64 in1003.7 mb 0.01 in0.3 mm 0.00 in/hr0.0 mm/hr 0.04 in1.0 mm
08:13 AM 62.1°F16.7°C 58.5°F14.7°C 88% 10.0 mph NNW16.1 kmh NNW 19.0 mph30.6 kmh 29.64 in1003.7 mb 0.01 in0.3 mm 0.00 in/hr0.0 mm/hr 0.04 in1.0 mm
08:14 AM 62.1°F16.7°C 58.5°F14.7°C 88% 14.0 mph N22.5 kmh N 19.0 mph30.6 kmh 29.64 in1003.7 mb 0.01 in0.3 mm 0.00 in/hr0.0 mm/hr 0.04 in1.0 mm
08:15 AM 62.0°F16.7°C 58.4°F14.7°C 88% 4.0 mph NNE6.4 kmh NNE 19.0 mph30.6 kmh 29.64 in1003.7 mb 0.01 in0.3 mm 0.00 in/hr0.0 mm/hr 0.04 in1.0 mm
08:18 AM 62.1°F16.7°C 58.5°F14.7°C 88% 12.0 mph NW19.3 kmh NW 19.0 mph30.6 kmh 29.64 in1003.7 mb 0.01 in0.3 mm 0.00 in/hr0.0 mm/hr 0.04 in1.0 mm
08:19 AM 62.1°F16.7°C 58.5°F14.7°C 88% 10.0 mph N16.1 kmh N 19.0 mph30.6 kmh 29.64 in1003.7 mb 0.01 in0.3 mm 0.00 in/hr0.0 mm/hr 0.04 in1.0 mm
08:20 AM 62.1°F16.7°C 58.5°F14.7°C 88% 11.0 mph NNW17.7 kmh NNW 19.0 mph30.6 kmh 29.64 in1003.7 mb 0.01 in0.3 mm 0.00 in/hr0.0 mm/hr 0.04 in1.0 mm
08:23 AM 62.0°F16.7°C 58.4°F14.7°C 88% 20.0 mph N32.2 kmh N 20.0 mph32.2 kmh 29.64 in1003.7 mb 0.01 in0.3 mm 0.00 in/hr0.0 mm/hr 0.04 in1.0 mm
08:24 AM 62.0°F16.7°C 58.4°F14.7°C 88% 8.0 mph NE12.9 kmh NE 20.0 mph32.2 kmh 29.64 in1003.7 mb 0.01 in0.3 mm 0.00 in/hr0.0 mm/hr 0.04 in1.0 mm
08:25 AM 62.0°F16.7°C 58.4°F14.7°C 88% 8.0 mph NE12.9 kmh NE 20.0 mph32.2 kmh 29.65 in1004.1 mb 0.01 in0.3 mm 0.00 in/hr0.0 mm/hr 0.04 in1.0 mm
08:28 AM 62.1°F16.7°C 58.5°F14.7°C 88% 11.0 mph NNE17.7 kmh NNE 20.0 mph32.2 kmh 29.65 in1004.1 mb 0.01 in0.3 mm 0.00 in/hr0.0 mm/hr 0.04 in1.0 mm
08:29 AM 62.0°F16.7°C 58.1°F14.5°C 87% 6.0 mph NW9.7 kmh NW 20.0 mph32.2 kmh 29.65 in1004.1 mb 0.01 in0.3 mm 0.00 in/hr0.0 mm/hr 0.04 in1.0 mm
08:30 AM 62.1°F16.7°C 58.5°F14.7°C 88% 7.0 mph NW11.3 kmh NW 20.0 mph32.2 kmh 29.65 in1004.1 mb 0.01 in0.3 mm 0.00 in/hr0.0 mm/hr 0.04 in1.0 mm
08:33 AM 62.0°F16.7°C 58.1°F14.5°C 87% 10.0 mph NNE16.1 kmh NNE 20.0 mph32.2 kmh 29.65 in1004.1 mb 0.01 in0.3 mm 0.00 in/hr0.0 mm/hr 0.04 in1.0 mm
08:34 AM 62.0°F16.7°C 58.1°F14.5°C 87% 8.0 mph N12.9 kmh N 20.0 mph32.2 kmh 29.65 in1004.1 mb 0.01 in0.3 mm 0.00 in/hr0.0 mm/hr 0.04 in1.0 mm
08:35 AM 62.1°F16.7°C 58.2°F14.6°C 87% 8.0 mph N12.9 kmh N 20.0 mph32.2 kmh 29.65 in1004.1 mb 0.01 in0.3 mm 0.00 in/hr0.0 mm/hr 0.04 in1.0 mm
08:38 AM 62.1°F16.7°C 58.2°F14.6°C 87% 15.0 mph N24.1 kmh N 20.0 mph32.2 kmh 29.65 in1004.1 mb 0.01 in0.3 mm 0.00 in/hr0.0 mm/hr 0.04 in1.0 mm
08:39 AM 62.1°F16.7°C 58.2°F14.6°C 87% 16.0 mph N25.7 kmh N 20.0 mph32.2 kmh 29.65 in1004.1 mb 0.01 in0.3 mm 0.00 in/hr0.0 mm/hr 0.04 in1.0 mm
08:40 AM 62.1°F16.7°C 58.2°F14.6°C 87% 8.0 mph N12.9 kmh N 20.0 mph32.2 kmh 29.65 in1004.1 mb 0.01 in0.3 mm 0.00 in/hr0.0 mm/hr 0.04 in1.0 mm
08:43 AM 62.2°F16.8°C 58.3°F14.6°C 87% 9.0 mph NW14.5 kmh NW 20.0 mph32.2 kmh 29.65 in1004.1 mb 0.01 in0.3 mm 0.00 in/hr0.0 mm/hr 0.04 in1.0 mm
08:44 AM 62.2°F16.8°C 58.3°F14.6°C 87% 9.0 mph N14.5 kmh N 20.0 mph32.2 kmh 29.65 in1004.1 mb 0.01 in0.3 mm 0.00 in/hr0.0 mm/hr 0.04 in1.0 mm
08:45 AM 62.3°F16.8°C 58.4°F14.7°C 87% 9.0 mph NW14.5 kmh NW 20.0 mph32.2 kmh 29.65 in1004.1 mb 0.01 in0.3 mm 0.00 in/hr0.0 mm/hr 0.04 in1.0 mm
08:48 AM 62.3°F16.8°C 58.4°F14.7°C 87% 12.0 mph NNW19.3 kmh NNW 20.0 mph32.2 kmh 29.65 in1004.1 mb 0.01 in0.3 mm 0.00 in/hr0.0 mm/hr 0.04 in1.0 mm
08:49 AM 62.3°F16.8°C 58.4°F14.7°C 87% 14.0 mph NNE22.5 kmh NNE 20.0 mph32.2 kmh 29.65 in1004.1 mb 0.01 in0.3 mm 0.00 in/hr0.0 mm/hr 0.04 in1.0 mm
08:50 AM 62.3°F16.8°C 58.1°F14.5°C 86% 13.0 mph NNW20.9 kmh NNW 20.0 mph32.2 kmh 29.66 in1004.4 mb 0.01 in0.3 mm 0.00 in/hr0.0 mm/hr 0.04 in1.0 mm
08:53 AM 62.3°F16.8°C 58.4°F14.7°C 87% 7.0 mph N11.3 kmh N 20.0 mph32.2 kmh 29.66 in1004.4 mb 0.01 in0.3 mm 0.00 in/hr0.0 mm/hr 0.04 in1.0 mm
08:54 AM 62.3°F16.8°C 58.4°F14.7°C 87% 14.0 mph NNE22.5 kmh NNE 20.0 mph32.2 kmh 29.66 in1004.4 mb 0.01 in0.3 mm 0.00 in/hr0.0 mm/hr 0.04 in1.0 mm
08:55 AM 62.2°F16.8°C 58.0°F14.4°C 86% 11.0 mph N17.7 kmh N 20.0 mph32.2 kmh 29.66 in1004.4 mb 0.01 in0.3 mm 0.00 in/hr0.0 mm/hr 0.04 in1.0 mm
08:58 AM 62.2°F16.8°C 58.0°F14.4°C 86% 2.0 mph NW3.2 kmh NW 20.0 mph32.2 kmh 29.66 in1004.4 mb 0.01 in0.3 mm 0.00 in/hr0.0 mm/hr 0.04 in1.0 mm
08:59 AM 62.3°F16.8°C 58.1°F14.5°C 86% 10.0 mph NW16.1 kmh NW 20.0 mph32.2 kmh 29.66 in1004.4 mb 0.01 in0.3 mm 0.00 in/hr0.0 mm/hr 0.04 in1.0 mm
09:00 AM 62.3°F16.8°C 58.1°F14.5°C 86% 16.0 mph NE25.7 kmh NE 16.0 mph25.7 kmh 29.66 in1004.4 mb 0.00 in0.0 mm 0.00 in/hr0.0 mm/hr 0.04 in1.0 mm
09:03 AM 62.2°F16.8°C 58.0°F14.4°C 86% 3.0 mph NW4.8 kmh NW 16.0 mph25.7 kmh 29.66 in1004.4 mb 0.00 in0.0 mm 0.00 in/hr0.0 mm/hr 0.04 in1.0 mm
09:04 AM 62.3°F16.8°C 58.1°F14.5°C 86% 4.0 mph N6.4 kmh N 16.0 mph25.7 kmh 29.66 in1004.4 mb 0.00 in0.0 mm 0.00 in/hr0.0 mm/hr 0.04 in1.0 mm
09:05 AM 62.3°F16.8°C 58.1°F14.5°C 86% 9.0 mph N14.5 kmh N 16.0 mph25.7 kmh 29.67 in1004.7 mb 0.00 in0.0 mm 0.00 in/hr0.0 mm/hr 0.04 in1.0 mm
09:08 AM 62.3°F16.8°C 58.1°F14.5°C 86% 10.0 mph N16.1 kmh N 20.0 mph32.2 kmh 29.67 in1004.7 mb 0.00 in0.0 mm 0.00 in/hr0.0 mm/hr 0.04 in1.0 mm
09:09 AM 62.2°F16.8°C 58.0°F14.4°C 86% 9.0 mph NNE14.5 kmh NNE 20.0 mph32.2 kmh 29.67 in1004.7 mb 0.00 in0.0 mm 0.00 in/hr0.0 mm/hr 0.04 in1.0 mm
09:10 AM 62.2°F16.8°C 58.0°F14.4°C 86% 3.0 mph NNW4.8 kmh NNW 20.0 mph32.2 kmh 29.67 in1004.7 mb 0.00 in0.0 mm 0.00 in/hr0.0 mm/hr 0.04 in1.0 mm
09:13 AM 62.2°F16.8°C 58.0°F14.4°C 86% 4.0 mph N6.4 kmh N 20.0 mph32.2 kmh 29.67 in1004.7 mb 0.00 in0.0 mm 0.00 in/hr0.0 mm/hr 0.04 in1.0 mm
09:14 AM 62.1°F16.7°C 57.9°F14.4°C 86% 14.0 mph N22.5 kmh N 20.0 mph32.2 kmh 29.67 in1004.7 mb 0.00 in0.0 mm 0.00 in/hr0.0 mm/hr 0.04 in1.0 mm
09:15 AM 62.0°F16.7°C 57.8°F14.3°C 86% 10.0 mph NW16.1 kmh NW 20.0 mph32.2 kmh 29.67 in1004.7 mb 0.00 in0.0 mm 0.00 in/hr0.0 mm/hr 0.04 in1.0 mm
09:18 AM 61.9°F16.6°C 57.7°F14.3°C 86% 10.0 mph NNE16.1 kmh NNE 23.0 mph37.0 kmh 29.67 in1004.7 mb 0.00 in0.0 mm 0.00 in/hr0.0 mm/hr 0.04 in1.0 mm
09:19 AM 61.8°F16.6°C 57.6°F14.2°C 86% 6.0 mph N9.7 kmh N 23.0 mph37.0 kmh 29.67 in1004.7 mb 0.00 in0.0 mm 0.00 in/hr0.0 mm/hr 0.04 in1.0 mm
09:20 AM 61.8°F16.6°C 57.6°F14.2°C 86% 11.0 mph N17.7 kmh N 23.0 mph37.0 kmh 29.67 in1004.7 mb 0.00 in0.0 mm 0.00 in/hr0.0 mm/hr 0.04 in1.0 mm
09:23 AM 61.7°F16.5°C 57.5°F14.2°C 86% 10.0 mph NW16.1 kmh NW 23.0 mph37.0 kmh 29.67 in1004.7 mb 0.00 in0.0 mm 0.00 in/hr0.0 mm/hr 0.04 in1.0 mm
09:24 AM 61.7°F16.5°C 57.5°F14.2°C 86% 12.0 mph N19.3 kmh N 23.0 mph37.0 kmh 29.67 in1004.7 mb 0.00 in0.0 mm 0.00 in/hr0.0 mm/hr 0.04 in1.0 mm
09:25 AM 61.6°F16.4°C 57.4°F14.1°C 86% 13.0 mph NW20.9 kmh NW 23.0 mph37.0 kmh 29.67 in1004.7 mb 0.00 in0.0 mm 0.00 in/hr0.0 mm/hr 0.04 in1.0 mm
09:28 AM 61.6°F16.4°C 57.4°F14.1°C 86% 10.0 mph NNE16.1 kmh NNE 23.0 mph37.0 kmh 29.67 in1004.7 mb 0.00 in0.0 mm 0.00 in/hr0.0 mm/hr 0.04 in1.0 mm
09:29 AM 61.6°F16.4°C 57.4°F14.1°C 86% 8.0 mph N12.9 kmh N 23.0 mph37.0 kmh 29.67 in1004.7 mb 0.00 in0.0 mm 0.00 in/hr0.0 mm/hr 0.04 in1.0 mm
09:30 AM 61.6°F16.4°C 57.4°F14.1°C 86% 3.0 mph NE4.8 kmh NE 23.0 mph37.0 kmh 29.67 in1004.7 mb 0.00 in0.0 mm 0.00 in/hr0.0 mm/hr 0.04 in1.0 mm
09:33 AM 61.6°F16.4°C 57.4°F14.1°C 86% 14.0 mph NNW22.5 kmh NNW 23.0 mph37.0 kmh 29.67 in1004.7 mb 0.00 in0.0 mm 0.00 in/hr0.0 mm/hr 0.04 in1.0 mm
09:34 AM 61.5°F16.4°C 57.6°F14.2°C 87% 17.0 mph NNE27.4 kmh NNE 23.0 mph37.0 kmh 29.68 in1005.1 mb 0.00 in0.0 mm 0.00 in/hr0.0 mm/hr 0.04 in1.0 mm
09:35 AM 61.5°F16.4°C 57.3°F14.1°C 86% 9.0 mph NNW14.5 kmh NNW 23.0 mph37.0 kmh 29.67 in1004.7 mb 0.00 in0.0 mm 0.00 in/hr0.0 mm/hr 0.04 in1.0 mm
09:38 AM 61.4°F16.3°C 57.2°F14.0°C 86% 21.0 mph N33.8 kmh N 23.0 mph37.0 kmh 29.68 in1005.1 mb 0.00 in0.0 mm 0.00 in/hr0.0 mm/hr 0.04 in1.0 mm
09:39 AM 61.4°F16.3°C 57.2°F14.0°C 86% 18.0 mph NNE29.0 kmh NNE 23.0 mph37.0 kmh 29.68 in1005.1 mb 0.00 in0.0 mm 0.00 in/hr0.0 mm/hr 0.04 in1.0 mm
09:40 AM 61.3°F16.3°C 57.1°F13.9°C 86% 14.0 mph NNE22.5 kmh NNE 23.0 mph37.0 kmh 29.68 in1005.1 mb 0.00 in0.0 mm 0.00 in/hr0.0 mm/hr 0.04 in1.0 mm
09:43 AM 61.3°F16.3°C 57.1°F13.9°C 86% 7.0 mph N11.3 kmh N 23.0 mph37.0 kmh 29.68 in1005.1 mb 0.00 in0.0 mm 0.00 in/hr0.0 mm/hr 0.04 in1.0 mm
09:44 AM 61.4°F16.3°C 57.5°F14.2°C 87% 10.0 mph NNW16.1 kmh NNW 23.0 mph37.0 kmh 29.68 in1005.1 mb 0.00 in0.0 mm 0.00 in/hr0.0 mm/hr 0.04 in1.0 mm
09:45 AM 61.4°F16.3°C 57.2°F14.0°C 86% 2.0 mph N3.2 kmh N 23.0 mph37.0 kmh 29.68 in1005.1 mb 0.00 in0.0 mm 0.00 in/hr0.0 mm/hr 0.04 in1.0 mm
09:48 AM 61.4°F16.3°C 57.5°F14.2°C 87% 10.0 mph NNW16.1 kmh NNW 23.0 mph37.0 kmh 29.68 in1005.1 mb 0.00 in0.0 mm 0.00 in/hr0.0 mm/hr 0.04 in1.0 mm
09:49 AM 61.4°F16.3°C 57.2°F14.0°C 86% 11.0 mph N17.7 kmh N 23.0 mph37.0 kmh 29.68 in1005.1 mb 0.00 in0.0 mm 0.00 in/hr0.0 mm/hr 0.04 in1.0 mm
09:50 AM 61.4°F16.3°C 57.2°F14.0°C 86% 12.0 mph N19.3 kmh N 23.0 mph37.0 kmh 29.68 in1005.1 mb 0.00 in0.0 mm 0.00 in/hr0.0 mm/hr 0.04 in1.0 mm
09:53 AM 61.5°F16.4°C 57.3°F14.1°C 86% 9.0 mph NW14.5 kmh NW 23.0 mph37.0 kmh 29.68 in1005.1 mb 0.00 in0.0 mm 0.00 in/hr0.0 mm/hr 0.04 in1.0 mm
09:54 AM 61.4°F16.3°C 57.2°F14.0°C 86% 12.0 mph NNW19.3 kmh NNW 23.0 mph37.0 kmh 29.68 in1005.1 mb 0.00 in0.0 mm 0.00 in/hr0.0 mm/hr 0.04 in1.0 mm
09:55 AM 61.4°F16.3°C 57.2°F14.0°C 86% 7.0 mph N11.3 kmh N 23.0 mph37.0 kmh 29.68 in1005.1 mb 0.00 in0.0 mm 0.00 in/hr0.0 mm/hr 0.04 in1.0 mm
09:58 AM 61.5°F16.4°C 57.3°F14.1°C 86% 4.0 mph N6.4 kmh N 23.0 mph37.0 kmh 29.69 in1005.4 mb 0.00 in0.0 mm 0.00 in/hr0.0 mm/hr 0.04 in1.0 mm
09:59 AM 61.5°F16.4°C 57.3°F14.1°C 86% 16.0 mph NE25.7 kmh NE 23.0 mph37.0 kmh 29.69 in1005.4 mb 0.00 in0.0 mm 0.00 in/hr0.0 mm/hr 0.04 in1.0 mm
10:00 AM 61.4°F16.3°C 57.2°F14.0°C 86% 14.0 mph NNE22.5 kmh NNE 14.0 mph22.5 kmh 29.69 in1005.4 mb 0.00 in0.0 mm 0.00 in/hr0.0 mm/hr 0.04 in1.0 mm
10:03 AM 61.3°F16.3°C 57.1°F13.9°C 86% 9.0 mph NNW14.5 kmh NNW 20.0 mph32.2 kmh 29.69 in1005.4 mb 0.00 in0.0 mm 0.00 in/hr0.0 mm/hr 0.04 in1.0 mm
10:04 AM 61.3°F16.3°C 57.1°F13.9°C 86% 8.0 mph NNE12.9 kmh NNE 20.0 mph32.2 kmh 29.69 in1005.4 mb 0.00 in0.0 mm 0.00 in/hr0.0 mm/hr 0.04 in1.0 mm
10:05 AM 61.3°F16.3°C 57.4°F14.1°C 87% 6.0 mph NNW9.7 kmh NNW 20.0 mph32.2 kmh 29.69 in1005.4 mb 0.00 in0.0 mm 0.00 in/hr0.0 mm/hr 0.04 in1.0 mm
10:08 AM 61.4°F16.3°C 57.5°F14.2°C 87% 5.0 mph N8.0 kmh N 20.0 mph32.2 kmh 29.69 in1005.4 mb 0.00 in0.0 mm 0.00 in/hr0.0 mm/hr 0.04 in1.0 mm
10:09 AM 61.4°F16.3°C 57.5°F14.2°C 87% 8.0 mph N12.9 kmh N 20.0 mph32.2 kmh 29.69 in1005.4 mb 0.00 in0.0 mm 0.00 in/hr0.0 mm/hr 0.04 in1.0 mm
10:10 AM 61.3°F16.3°C 57.4°F14.1°C 87% 9.0 mph N14.5 kmh N 20.0 mph32.2 kmh 29.69 in1005.4 mb 0.00 in0.0 mm 0.00 in/hr0.0 mm/hr 0.04 in1.0 mm
10:13 AM 60.9°F16.1°C 57.0°F13.9°C 87% 9.0 mph N14.5 kmh N 20.0 mph32.2 kmh 29.69 in1005.4 mb 0.00 in0.0 mm 0.00 in/hr0.0 mm/hr 0.04 in1.0 mm
10:14 AM 60.9°F16.1°C 57.0°F13.9°C 87% 5.0 mph NNE8.0 kmh NNE 20.0 mph32.2 kmh 29.69 in1005.4 mb 0.00 in0.0 mm 0.00 in/hr0.0 mm/hr 0.04 in1.0 mm
10:15 AM 60.9°F16.1°C 57.3°F14.1°C 88% 4.0 mph N6.4 kmh N 20.0 mph32.2 kmh 29.69 in1005.4 mb 0.00 in0.0 mm 0.00 in/hr0.0 mm/hr 0.04 in1.0 mm
10:18 AM 60.8°F16.0°C 56.9°F13.8°C 87% 16.0 mph N25.7 kmh N 20.0 mph32.2 kmh 29.69 in1005.4 mb 0.00 in0.0 mm 0.00 in/hr0.0 mm/hr 0.04 in1.0 mm
10:19 AM 60.8°F16.0°C 56.9°F13.8°C 87% 8.0 mph N12.9 kmh N 20.0 mph32.2 kmh 29.69 in1005.4 mb 0.00 in0.0 mm 0.00 in/hr0.0 mm/hr 0.04 in1.0 mm
10:20 AM 60.7°F15.9°C 56.8°F13.8°C 87% 6.0 mph NW9.7 kmh NW 20.0 mph32.2 kmh 29.69 in1005.4 mb 0.00 in0.0 mm 0.00 in/hr0.0 mm/hr 0.04 in1.0 mm
10:23 AM 60.8°F16.0°C 56.9°F13.8°C 87% 8.0 mph N12.9 kmh N 20.0 mph32.2 kmh 29.69 in1005.4 mb 0.00 in0.0 mm 0.00 in/hr0.0 mm/hr 0.04 in1.0 mm
10:24 AM 60.9°F16.1°C 57.0°F13.9°C 87% 13.0 mph NW20.9 kmh NW 20.0 mph32.2 kmh 29.70 in1005.8 mb 0.00 in0.0 mm 0.00 in/hr0.0 mm/hr 0.04 in1.0 mm
10:25 AM 60.9°F16.1°C 56.7°F13.7°C 86% 17.0 mph NNE27.4 kmh NNE 20.0 mph32.2 kmh 29.69 in1005.4 mb 0.00 in0.0 mm 0.00 in/hr0.0 mm/hr 0.04 in1.0 mm
10:28 AM 60.9°F16.1°C 56.7°F13.7°C 86% 10.0 mph N16.1 kmh N 20.0 mph32.2 kmh 29.70 in1005.8 mb 0.00 in0.0 mm 0.00 in/hr0.0 mm/hr 0.04 in1.0 mm
10:29 AM 61.0°F16.1°C 56.8°F13.8°C 86% 7.0 mph NW11.3 kmh NW 20.0 mph32.2 kmh 29.70 in1005.8 mb 0.00 in0.0 mm 0.00 in/hr0.0 mm/hr 0.04 in1.0 mm
10:30 AM 61.0°F16.1°C 56.8°F13.8°C 86% 12.0 mph N19.3 kmh N 20.0 mph32.2 kmh 29.70 in1005.8 mb 0.00 in0.0 mm 0.00 in/hr0.0 mm/hr 0.04 in1.0 mm
10:33 AM 60.9°F16.1°C 56.0°F13.3°C 84% 10.0 mph NE16.1 kmh NE 23.0 mph37.0 kmh 29.70 in1005.8 mb 0.00 in0.0 mm 0.00 in/hr0.0 mm/hr 0.04 in1.0 mm
10:34 AM 61.0°F16.1°C 56.5°F13.6°C 85% 8.0 mph N12.9 kmh N 23.0 mph37.0 kmh 29.70 in1005.8 mb 0.00 in0.0 mm 0.00 in/hr0.0 mm/hr 0.04 in1.0 mm
10:35 AM 61.1°F16.2°C 56.6°F13.7°C 85% 10.0 mph NW16.1 kmh NW 23.0 mph37.0 kmh 29.70 in1005.8 mb 0.00 in0.0 mm 0.00 in/hr0.0 mm/hr 0.04 in1.0 mm
10:38 AM 61.1°F16.2°C 56.6°F13.7°C 85% 4.0 mph NE6.4 kmh NE 23.0 mph37.0 kmh 29.70 in1005.8 mb 0.00 in0.0 mm 0.00 in/hr0.0 mm/hr 0.04 in1.0 mm
10:39 AM 61.2°F16.2°C 56.7°F13.7°C 85% 5.0 mph NNW8.0 kmh NNW 23.0 mph37.0 kmh 29.70 in1005.8 mb 0.00 in0.0 mm 0.00 in/hr0.0 mm/hr 0.04 in1.0 mm
10:40 AM 61.2°F16.2°C 56.7°F13.7°C 85% 7.0 mph NW11.3 kmh NW 23.0 mph37.0 kmh 29.70 in1005.8 mb 0.00 in0.0 mm 0.00 in/hr0.0 mm/hr 0.04 in1.0 mm
10:43 AM 61.2°F16.2°C 56.3°F13.5°C 84% 6.0 mph N9.7 kmh N 23.0 mph37.0 kmh 29.70 in1005.8 mb 0.00 in0.0 mm 0.00 in/hr0.0 mm/hr 0.04 in1.0 mm
10:44 AM 61.3°F16.3°C 56.4°F13.6°C 84% 7.0 mph NNW11.3 kmh NNW 23.0 mph37.0 kmh 29.70 in1005.8 mb 0.00 in0.0 mm 0.00 in/hr0.0 mm/hr 0.04 in1.0 mm
10:45 AM 61.3°F16.3°C 56.4°F13.6°C 84% 8.0 mph NNW12.9 kmh NNW 23.0 mph37.0 kmh 29.70 in1005.8 mb 0.00 in0.0 mm 0.00 in/hr0.0 mm/hr 0.04 in1.0 mm
10:48 AM 61.3°F16.3°C 56.4°F13.6°C 84% 6.0 mph NNW9.7 kmh NNW 23.0 mph37.0 kmh 29.71 in1006.1 mb 0.00 in0.0 mm 0.00 in/hr0.0 mm/hr 0.04 in1.0 mm
10:49 AM 61.3°F16.3°C 56.4°F13.6°C 84% 4.0 mph NNE6.4 kmh NNE 23.0 mph37.0 kmh 29.70 in1005.8 mb 0.00 in0.0 mm 0.00 in/hr0.0 mm/hr 0.04 in1.0 mm
10:50 AM 61.3°F16.3°C 56.4°F13.6°C 84% 8.0 mph N12.9 kmh N 23.0 mph37.0 kmh 29.70 in1005.8 mb 0.00 in0.0 mm 0.00 in/hr0.0 mm/hr 0.04 in1.0 mm
10:53 AM 61.3°F16.3°C 56.4°F13.6°C 84% 6.0 mph NW9.7 kmh NW 23.0 mph37.0 kmh 29.70 in1005.8 mb 0.00 in0.0 mm 0.00 in/hr0.0 mm/hr 0.04 in1.0 mm
10:54 AM 61.3°F16.3°C 56.4°F13.6°C 84% 6.0 mph N9.7 kmh N 23.0 mph37.0 kmh 29.70 in1005.8 mb 0.00 in0.0 mm 0.00 in/hr0.0 mm/hr 0.04 in1.0 mm
10:55 AM 61.4°F16.3°C 56.5°F13.6°C 84% 10.0 mph N16.1 kmh N 23.0 mph37.0 kmh 29.70 in1005.8 mb 0.00 in0.0 mm 0.00 in/hr0.0 mm/hr 0.04 in1.0 mm
10:58 AM 61.4°F16.3°C 56.2°F13.4°C 83% 7.0 mph NNE11.3 kmh NNE 23.0 mph37.0 kmh 29.71 in1006.1 mb 0.00 in0.0 mm 0.00 in/hr0.0 mm/hr 0.04 in1.0 mm
10:59 AM 61.4°F16.3°C 56.2°F13.4°C 83% 5.0 mph N8.0 kmh N 23.0 mph37.0 kmh 29.70 in1005.8 mb 0.00 in0.0 mm 0.00 in/hr0.0 mm/hr 0.04 in1.0 mm
11:00 AM 61.4°F16.3°C 56.2°F13.4°C 83% 8.0 mph NE12.9 kmh NE 8.0 mph12.9 kmh 29.71 in1006.1 mb 0.00 in0.0 mm 0.00 in/hr0.0 mm/hr 0.04 in1.0 mm
11:03 AM 61.7°F16.5°C 56.8°F13.8°C 84% 5.0 mph N8.0 kmh N 12.0 mph19.3 kmh 29.71 in1006.1 mb 0.00 in0.0 mm 0.00 in/hr0.0 mm/hr 0.04 in1.0 mm
11:04 AM 61.8°F16.6°C 56.9°F13.8°C 84% 9.0 mph N14.5 kmh N 13.0 mph20.9 kmh 29.71 in1006.1 mb 0.00 in0.0 mm 0.00 in/hr0.0 mm/hr 0.04 in1.0 mm
11:05 AM 61.7°F16.5°C 56.5°F13.6°C 83% 7.0 mph NNW11.3 kmh NNW 15.0 mph24.1 kmh 29.70 in1005.8 mb 0.00 in0.0 mm 0.00 in/hr0.0 mm/hr 0.04 in1.0 mm
11:08 AM 61.7°F16.5°C 56.5°F13.6°C 83% 7.0 mph NNE11.3 kmh NNE 16.0 mph25.7 kmh 29.71 in1006.1 mb 0.00 in0.0 mm 0.00 in/hr0.0 mm/hr 0.04 in1.0 mm
11:09 AM 61.8°F16.6°C 56.3°F13.5°C 82% 5.0 mph NNE8.0 kmh NNE 16.0 mph25.7 kmh 29.71 in1006.1 mb 0.00 in0.0 mm 0.00 in/hr0.0 mm/hr 0.04 in1.0 mm
11:10 AM 61.8°F16.6°C 56.6°F13.7°C 83% 13.0 mph N20.9 kmh N 17.0 mph27.4 kmh 29.71 in1006.1 mb 0.00 in0.0 mm 0.00 in/hr0.0 mm/hr 0.04 in1.0 mm
11:13 AM 62.0°F16.7°C 56.8°F13.8°C 83% 7.0 mph N11.3 kmh N 17.0 mph27.4 kmh 29.71 in1006.1 mb 0.00 in0.0 mm 0.00 in/hr0.0 mm/hr 0.04 in1.0 mm
11:14 AM 62.1°F16.7°C 56.9°F13.8°C 83% 9.0 mph NNW14.5 kmh NNW 17.0 mph27.4 kmh 29.71 in1006.1 mb 0.00 in0.0 mm 0.00 in/hr0.0 mm/hr 0.04 in1.0 mm
11:15 AM 62.1°F16.7°C 56.6°F13.7°C 82% 7.0 mph NNW11.3 kmh NNW 17.0 mph27.4 kmh 29.71 in1006.1 mb 0.00 in0.0 mm 0.00 in/hr0.0 mm/hr 0.04 in1.0 mm
11:18 AM 62.3°F16.8°C 56.4°F13.6°C 81% 15.0 mph N24.1 kmh N 19.0 mph30.6 kmh 29.71 in1006.1 mb 0.00 in0.0 mm 0.00 in/hr0.0 mm/hr 0.04 in1.0 mm
11:19 AM 62.3°F16.8°C 56.4°F13.6°C 81% 10.0 mph NE16.1 kmh NE 19.0 mph30.6 kmh 29.71 in1006.1 mb 0.00 in0.0 mm 0.00 in/hr0.0 mm/hr 0.04 in1.0 mm
11:20 AM 62.4°F16.9°C 56.5°F13.6°C 81% 5.0 mph N8.0 kmh N 19.0 mph30.6 kmh 29.71 in1006.1 mb 0.00 in0.0 mm 0.00 in/hr0.0 mm/hr 0.04 in1.0 mm
11:23 AM 62.5°F16.9°C 56.6°F13.7°C 81% 3.0 mph N4.8 kmh N 19.0 mph30.6 kmh 29.71 in1006.1 mb 0.00 in0.0 mm 0.00 in/hr0.0 mm/hr 0.04 in1.0 mm
11:24 AM 62.6°F17.0°C 56.7°F13.7°C 81% 5.0 mph N8.0 kmh N 19.0 mph30.6 kmh 29.71 in1006.1 mb 0.00 in0.0 mm 0.00 in/hr0.0 mm/hr 0.04 in1.0 mm
11:25 AM 62.6°F17.0°C 56.7°F13.7°C 81% 16.0 mph NNE25.7 kmh NNE 19.0 mph30.6 kmh 29.71 in1006.1 mb 0.00 in0.0 mm 0.00 in/hr0.0 mm/hr 0.04 in1.0 mm
11:28 AM 62.6°F17.0°C 56.4°F13.6°C 80% 13.0 mph NNW20.9 kmh NNW 19.0 mph30.6 kmh 29.71 in1006.1 mb 0.00 in0.0 mm 0.00 in/hr0.0 mm/hr 0.04 in1.0 mm
11:29 AM 62.6°F17.0°C 56.4°F13.6°C 80% 12.0 mph N19.3 kmh N 19.0 mph30.6 kmh 29.71 in1006.1 mb 0.00 in0.0 mm 0.00 in/hr0.0 mm/hr 0.04 in1.0 mm
11:30 AM 62.6°F17.0°C 56.0°F13.3°C 79% 12.0 mph NNE19.3 kmh NNE 19.0 mph30.6 kmh 29.71 in1006.1 mb 0.00 in0.0 mm 0.00 in/hr0.0 mm/hr 0.04 in1.0 mm
11:33 AM 62.8°F17.1°C 56.2°F13.4°C 79% 3.0 mph NNE4.8 kmh NNE 19.0 mph30.6 kmh 29.71 in1006.1 mb 0.00 in0.0 mm 0.00 in/hr0.0 mm/hr 0.04 in1.0 mm
11:34 AM 62.9°F17.2°C 56.6°F13.7°C 80% 8.0 mph NNW12.9 kmh NNW 19.0 mph30.6 kmh 29.71 in1006.1 mb 0.00 in0.0 mm 0.00 in/hr0.0 mm/hr 0.04 in1.0 mm
11:35 AM 63.0°F17.2°C 56.4°F13.6°C 79% 10.0 mph NE16.1 kmh NE 19.0 mph30.6 kmh 29.72 in1006.4 mb 0.00 in0.0 mm 0.00 in/hr0.0 mm/hr 0.04 in1.0 mm
11:38 AM 63.1°F17.3°C 56.5°F13.6°C 79% 14.0 mph N22.5 kmh N 19.0 mph30.6 kmh 29.72 in1006.4 mb 0.00 in0.0 mm 0.00 in/hr0.0 mm/hr 0.04 in1.0 mm
11:39 AM 63.2°F17.3°C 56.6°F13.7°C 79% 6.0 mph NNW9.7 kmh NNW 19.0 mph30.6 kmh 29.72 in1006.4 mb 0.00 in0.0 mm 0.00 in/hr0.0 mm/hr 0.04 in1.0 mm
11:40 AM 63.2°F17.3°C 56.2°F13.4°C 78% 10.0 mph N16.1 kmh N 19.0 mph30.6 kmh 29.72 in1006.4 mb 0.00 in0.0 mm 0.00 in/hr0.0 mm/hr 0.04 in1.0 mm
11:43 AM 63.4°F17.4°C 56.4°F13.6°C 78% 10.0 mph N16.1 kmh N 19.0 mph30.6 kmh 29.72 in1006.4 mb 0.00 in0.0 mm 0.00 in/hr0.0 mm/hr 0.04 in1.0 mm
11:44 AM 63.5°F17.5°C 56.5°F13.6°C 78% 4.0 mph NNW6.4 kmh NNW 19.0 mph30.6 kmh 29.72 in1006.4 mb 0.00 in0.0 mm 0.00 in/hr0.0 mm/hr 0.04 in1.0 mm
11:45 AM 63.5°F17.5°C 56.2°F13.4°C 77% 10.0 mph NNW16.1 kmh NNW 19.0 mph30.6 kmh 29.72 in1006.4 mb 0.00 in0.0 mm 0.00 in/hr0.0 mm/hr 0.04 in1.0 mm
11:48 AM 63.7°F17.6°C 56.0°F13.3°C 76% 12.0 mph N19.3 kmh N 19.0 mph30.6 kmh 29.72 in1006.4 mb 0.00 in0.0 mm 0.00 in/hr0.0 mm/hr 0.04 in1.0 mm
11:49 AM 63.7°F17.6°C 56.0°F13.3°C 76% 8.0 mph NNE12.9 kmh NNE 19.0 mph30.6 kmh 29.72 in1006.4 mb 0.00 in0.0 mm 0.00 in/hr0.0 mm/hr 0.04 in1.0 mm
11:50 AM 63.8°F17.7°C 55.7°F13.2°C 75% 12.0 mph N19.3 kmh N 19.0 mph30.6 kmh 29.72 in1006.4 mb 0.00 in0.0 mm 0.00 in/hr0.0 mm/hr 0.04 in1.0 mm
11:53 AM 64.0°F17.8°C 55.9°F13.3°C 75% 8.0 mph NE12.9 kmh NE 19.0 mph30.6 kmh 29.72 in1006.4 mb 0.00 in0.0 mm 0.00 in/hr0.0 mm/hr 0.04 in1.0 mm
11:54 AM 64.1°F17.8°C 56.0°F13.3°C 75% 14.0 mph N22.5 kmh N 19.0 mph30.6 kmh 29.72 in1006.4 mb 0.00 in0.0 mm 0.00 in/hr0.0 mm/hr 0.04 in1.0 mm
11:55 AM 64.2°F17.9°C 55.8°F13.2°C 74% 11.0 mph N17.7 kmh N 19.0 mph30.6 kmh 29.72 in1006.4 mb 0.00 in0.0 mm 0.00 in/hr0.0 mm/hr 0.04 in1.0 mm
11:58 AM 64.3°F17.9°C 55.5°F13.1°C 73% 12.0 mph NW19.3 kmh NW 19.0 mph30.6 kmh 29.72 in1006.4 mb 0.00 in0.0 mm 0.00 in/hr0.0 mm/hr 0.04 in1.0 mm
11:59 AM 64.4°F18.0°C 55.6°F13.1°C 73% 6.0 mph NNW9.7 kmh NNW 19.0 mph30.6 kmh 29.72 in1006.4 mb 0.00 in0.0 mm 0.00 in/hr0.0 mm/hr 0.04 in1.0 mm
12:00 PM 64.5°F18.1°C 55.7°F13.2°C 73% 4.0 mph NNE6.4 kmh NNE 6.0 mph9.7 kmh 29.72 in1006.4 mb 0.00 in0.0 mm 0.00 in/hr0.0 mm/hr 0.04 in1.0 mm
12:03 PM 64.7°F18.2°C 55.5°F13.1°C 72% 8.0 mph N12.9 kmh N 17.0 mph27.4 kmh 29.72 in1006.4 mb 0.00 in0.0 mm 0.00 in/hr0.0 mm/hr 0.04 in1.0 mm
12:04 PM 64.8°F18.2°C 55.6°F13.1°C 72% 17.0 mph N27.4 kmh N 17.0 mph27.4 kmh 29.72 in1006.4 mb 0.00 in0.0 mm 0.00 in/hr0.0 mm/hr 0.04 in1.0 mm
12:05 PM 64.8°F18.2°C 56.0°F13.3°C 73% 8.0 mph NW12.9 kmh NW 18.0 mph29.0 kmh 29.72 in1006.4 mb 0.00 in0.0 mm 0.00 in/hr0.0 mm/hr 0.04 in1.0 mm
12:08 PM 65.0°F18.3°C 56.5°F13.6°C 74% 6.0 mph N9.7 kmh N 18.0 mph29.0 kmh 29.72 in1006.4 mb 0.00 in0.0 mm 0.00 in/hr0.0 mm/hr 0.04 in1.0 mm
12:09 PM 65.1°F18.4°C 56.2°F13.4°C 73% 6.0 mph N9.7 kmh N 18.0 mph29.0 kmh 29.72 in1006.4 mb 0.00 in0.0 mm 0.00 in/hr0.0 mm/hr 0.04 in1.0 mm
12:10 PM 65.0°F18.3°C 56.5°F13.6°C 74% 9.0 mph N14.5 kmh N 18.0 mph29.0 kmh 29.72 in1006.4 mb 0.00 in0.0 mm 0.00 in/hr0.0 mm/hr 0.04 in1.0 mm
12:13 PM 64.9°F18.3°C 56.4°F13.6°C 74% 4.0 mph N6.4 kmh N 18.0 mph29.0 kmh 29.72 in1006.4 mb 0.00 in0.0 mm 0.00 in/hr0.0 mm/hr 0.04 in1.0 mm
12:14 PM 64.9°F18.3°C 56.4°F13.6°C 74% 8.0 mph NNE12.9 kmh NNE 18.0 mph29.0 kmh 29.72 in1006.4 mb 0.00 in0.0 mm 0.00 in/hr0.0 mm/hr 0.04 in1.0 mm
12:15 PM 64.9°F18.3°C 56.4°F13.6°C 74% 8.0 mph NW12.9 kmh NW 18.0 mph29.0 kmh 29.72 in1006.4 mb 0.00 in0.0 mm 0.00 in/hr0.0 mm/hr 0.04 in1.0 mm
12:18 PM 64.8°F18.2°C 56.0°F13.3°C 73% 15.0 mph NW24.1 kmh NW 18.0 mph29.0 kmh 29.72 in1006.4 mb 0.00 in0.0 mm 0.00 in/hr0.0 mm/hr 0.04 in1.0 mm
12:19 PM 64.8°F18.2°C 56.0°F13.3°C 73% 6.0 mph NNW9.7 kmh NNW 18.0 mph29.0 kmh 29.72 in1006.4 mb 0.00 in0.0 mm 0.00 in/hr0.0 mm/hr 0.04 in1.0 mm
12:20 PM 65.0°F18.3°C 56.5°F13.6°C 74% 8.0 mph N12.9 kmh N 18.0 mph29.0 kmh 29.72 in1006.4 mb 0.00 in0.0 mm 0.00 in/hr0.0 mm/hr 0.04 in1.0 mm
12:23 PM 65.1°F18.4°C 56.6°F13.7°C 74% 15.0 mph NNW24.1 kmh NNW 18.0 mph29.0 kmh 29.73 in1006.8 mb 0.00 in0.0 mm 0.00 in/hr0.0 mm/hr 0.04 in1.0 mm
12:24 PM 65.1°F18.4°C 56.2°F13.4°C 73% 10.0 mph NE16.1 kmh NE 18.0 mph29.0 kmh 29.73 in1006.8 mb 0.00 in0.0 mm 0.00 in/hr0.0 mm/hr 0.04 in1.0 mm
12:25 PM 65.0°F18.3°C 56.2°F13.4°C 73% 7.0 mph N11.3 kmh N 18.0 mph29.0 kmh 29.73 in1006.8 mb 0.00 in0.0 mm 0.00 in/hr0.0 mm/hr 0.04 in1.0 mm
12:28 PM 65.0°F18.3°C 56.2°F13.4°C 73% 12.0 mph N19.3 kmh N 18.0 mph29.0 kmh 29.72 in1006.4 mb 0.00 in0.0 mm 0.00 in/hr0.0 mm/hr 0.04 in1.0 mm
12:29 PM 65.1°F18.4°C 56.2°F13.4°C 73% 6.0 mph NW9.7 kmh NW 18.0 mph29.0 kmh 29.73 in1006.8 mb 0.00 in0.0 mm 0.00 in/hr0.0 mm/hr 0.04 in1.0 mm
12:30 PM 65.1°F18.4°C 56.2°F13.4°C 73% 7.0 mph N11.3 kmh N 18.0 mph29.0 kmh 29.72 in1006.4 mb 0.00 in0.0 mm 0.00 in/hr0.0 mm/hr 0.04 in1.0 mm
12:33 PM 65.5°F18.6°C 56.6°F13.7°C 73% 9.0 mph N14.5 kmh N 18.0 mph29.0 kmh 29.73 in1006.8 mb 0.00 in0.0 mm 0.00 in/hr0.0 mm/hr 0.04 in1.0 mm
12:34 PM 65.5°F18.6°C 56.3°F13.5°C 72% 12.0 mph NNE19.3 kmh NNE 19.0 mph30.6 kmh 29.73 in1006.8 mb 0.00 in0.0 mm 0.00 in/hr0.0 mm/hr 0.04 in1.0 mm
12:35 PM 65.4°F18.6°C 55.8°F13.2°C 71% 6.0 mph N9.7 kmh N 19.0 mph30.6 kmh 29.73 in1006.8 mb 0.00 in0.0 mm 0.00 in/hr0.0 mm/hr 0.04 in1.0 mm
12:38 PM 65.4°F18.6°C 56.2°F13.4°C 72% 15.0 mph N24.1 kmh N 19.0 mph30.6 kmh 29.73 in1006.8 mb 0.00 in0.0 mm 0.00 in/hr0.0 mm/hr 0.04 in1.0 mm
12:39 PM 65.4°F18.6°C 55.8°F13.2°C 71% 4.0 mph N6.4 kmh N 19.0 mph30.6 kmh 29.73 in1006.8 mb 0.00 in0.0 mm 0.00 in/hr0.0 mm/hr 0.04 in1.0 mm
12:40 PM 65.4°F18.6°C 56.2°F13.4°C 72% 9.0 mph N14.5 kmh N 19.0 mph30.6 kmh 29.73 in1006.8 mb 0.00 in0.0 mm 0.00 in/hr0.0 mm/hr 0.04 in1.0 mm
12:43 PM 65.5°F18.6°C 56.3°F13.5°C 72% 15.0 mph NW24.1 kmh NW 19.0 mph30.6 kmh 29.73 in1006.8 mb 0.00 in0.0 mm 0.00 in/hr0.0 mm/hr 0.04 in1.0 mm
12:44 PM 65.4°F18.6°C 55.8°F13.2°C 71% 15.0 mph N24.1 kmh N 19.0 mph30.6 kmh 29.73 in1006.8 mb 0.00 in0.0 mm 0.00 in/hr0.0 mm/hr 0.04 in1.0 mm
12:45 PM 65.3°F18.5°C 55.3°F12.9°C 70% 13.0 mph NE20.9 kmh NE 21.0 mph33.8 kmh 29.73 in1006.8 mb 0.00 in0.0 mm 0.00 in/hr0.0 mm/hr 0.04 in1.0 mm
12:48 PM 65.5°F18.6°C 56.3°F13.5°C 72% 9.0 mph NNE14.5 kmh NNE 21.0 mph33.8 kmh 29.73 in1006.8 mb 0.00 in0.0 mm 0.00 in/hr0.0 mm/hr 0.04 in1.0 mm
12:49 PM 65.6°F18.7°C 56.0°F13.3°C 71% 6.0 mph NW9.7 kmh NW 21.0 mph33.8 kmh 29.73 in1006.8 mb 0.00 in0.0 mm 0.00 in/hr0.0 mm/hr 0.04 in1.0 mm
12:50 PM 65.8°F18.8°C 56.2°F13.4°C 71% 6.0 mph NNW9.7 kmh NNW 21.0 mph33.8 kmh 29.73 in1006.8 mb 0.00 in0.0 mm 0.00 in/hr0.0 mm/hr 0.04 in1.0 mm
12:53 PM 65.9°F18.8°C 55.9°F13.3°C 70% 11.0 mph NW17.7 kmh NW 21.0 mph33.8 kmh 29.73 in1006.8 mb 0.00 in0.0 mm 0.00 in/hr0.0 mm/hr 0.04 in1.0 mm
12:54 PM 66.0°F18.9°C 56.0°F13.3°C 70% 5.0 mph NNW8.0 kmh NNW 21.0 mph33.8 kmh 29.73 in1006.8 mb 0.00 in0.0 mm 0.00 in/hr0.0 mm/hr 0.04 in1.0 mm
12:55 PM 66.1°F18.9°C 56.0°F13.3°C 70% 12.0 mph N19.3 kmh N 21.0 mph33.8 kmh 29.73 in1006.8 mb 0.00 in0.0 mm 0.00 in/hr0.0 mm/hr 0.04 in1.0 mm
12:58 PM 66.3°F19.1°C 55.8°F13.2°C 69% 16.0 mph NNW25.7 kmh NNW 21.0 mph33.8 kmh 29.73 in1006.8 mb 0.00 in0.0 mm 0.00 in/hr0.0 mm/hr 0.04 in1.0 mm
12:59 PM 66.2°F19.0°C 55.3°F12.9°C 68% 5.0 mph NNW8.0 kmh NNW 21.0 mph33.8 kmh 29.73 in1006.8 mb 0.00 in0.0 mm 0.00 in/hr0.0 mm/hr 0.04 in1.0 mm
01:00 PM 66.1°F18.9°C 55.7°F13.2°C 69% 14.0 mph N22.5 kmh N 14.0 mph22.5 kmh 29.73 in1006.8 mb 0.00 in0.0 mm 0.00 in/hr0.0 mm/hr 0.04 in1.0 mm
01:03 PM 65.9°F18.8°C 55.1°F12.8°C 68% 13.0 mph N20.9 kmh N 16.0 mph25.7 kmh 29.73 in1006.8 mb 0.00 in0.0 mm 0.00 in/hr0.0 mm/hr 0.04 in1.0 mm
01:04 PM 65.9°F18.8°C 55.5°F13.1°C 69% 10.0 mph NW16.1 kmh NW 16.0 mph25.7 kmh 29.73 in1006.8 mb 0.00 in0.0 mm 0.00 in/hr0.0 mm/hr 0.04 in1.0 mm
01:05 PM 65.9°F18.8°C 55.1°F12.8°C 68% 8.0 mph NNW12.9 kmh NNW 16.0 mph25.7 kmh 29.73 in1006.8 mb 0.00 in0.0 mm 0.00 in/hr0.0 mm/hr 0.04 in1.0 mm
01:08 PM 66.3°F19.1°C 55.4°F13.0°C 68% 9.0 mph NW14.5 kmh NW 16.0 mph25.7 kmh 29.73 in1006.8 mb 0.00 in0.0 mm 0.00 in/hr0.0 mm/hr 0.04 in1.0 mm
01:09 PM 66.4°F19.1°C 55.5°F13.1°C 68% 7.0 mph NW11.3 kmh NW 16.0 mph25.7 kmh 29.73 in1006.8 mb 0.00 in0.0 mm 0.00 in/hr0.0 mm/hr 0.04 in1.0 mm
01:10 PM 66.5°F19.2°C 55.2°F12.9°C 67% 8.0 mph NW12.9 kmh NW 16.0 mph25.7 kmh 29.73 in1006.8 mb 0.00 in0.0 mm 0.00 in/hr0.0 mm/hr 0.04 in1.0 mm
01:13 PM 66.2°F19.0°C 54.9°F12.7°C 67% 12.0 mph NNW19.3 kmh NNW 21.0 mph33.8 kmh 29.73 in1006.8 mb 0.00 in0.0 mm 0.00 in/hr0.0 mm/hr 0.04 in1.0 mm
01:14 PM 66.1°F18.9°C 54.8°F12.7°C 67% 8.0 mph NW12.9 kmh NW 21.0 mph33.8 kmh 29.73 in1006.8 mb 0.00 in0.0 mm 0.00 in/hr0.0 mm/hr 0.04 in1.0 mm
01:15 PM 66.2°F19.0°C 54.9°F12.7°C 67% 9.0 mph NW14.5 kmh NW 21.0 mph33.8 kmh 29.73 in1006.8 mb 0.00 in0.0 mm 0.00 in/hr0.0 mm/hr 0.04 in1.0 mm
01:18 PM 66.4°F19.1°C 55.1°F12.8°C 67% 12.0 mph N19.3 kmh N 21.0 mph33.8 kmh 29.73 in1006.8 mb 0.00 in0.0 mm 0.00 in/hr0.0 mm/hr 0.04 in1.0 mm
01:19 PM 66.4°F19.1°C 55.1°F12.8°C 67% 6.0 mph N9.7 kmh N 21.0 mph33.8 kmh 29.73 in1006.8 mb 0.00 in0.0 mm 0.00 in/hr0.0 mm/hr 0.04 in1.0 mm
01:20 PM 66.5°F19.2°C 54.8°F12.7°C 66% 11.0 mph N17.7 kmh N 21.0 mph33.8 kmh 29.73 in1006.8 mb 0.00 in0.0 mm 0.00 in/hr0.0 mm/hr 0.04 in1.0 mm
01:23 PM 66.6°F19.2°C 54.9°F12.7°C 66% 9.0 mph NNE14.5 kmh NNE 21.0 mph33.8 kmh 29.73 in1006.8 mb 0.00 in0.0 mm 0.00 in/hr0.0 mm/hr 0.04 in1.0 mm
01:24 PM 66.5°F19.2°C 54.4°F12.4°C 65% 11.0 mph N17.7 kmh N 21.0 mph33.8 kmh 29.73 in1006.8 mb 0.00 in0.0 mm 0.00 in/hr0.0 mm/hr 0.04 in1.0 mm
01:25 PM 66.6°F19.2°C 54.9°F12.7°C 66% 4.0 mph N6.4 kmh N 21.0 mph33.8 kmh 29.73 in1006.8 mb 0.00 in0.0 mm 0.00 in/hr0.0 mm/hr 0.04 in1.0 mm
01:28 PM 66.8°F19.3°C 54.7°F12.6°C 65% 14.0 mph NNE22.5 kmh NNE 21.0 mph33.8 kmh 29.73 in1006.8 mb 0.00 in0.0 mm 0.00 in/hr0.0 mm/hr 0.04 in1.0 mm
01:29 PM 66.8°F19.3°C 54.7°F12.6°C 65% 14.0 mph NNE22.5 kmh NNE 21.0 mph33.8 kmh 29.73 in1006.8 mb 0.00 in0.0 mm 0.00 in/hr0.0 mm/hr 0.04 in1.0 mm
01:30 PM 66.8°F19.3°C 54.7°F12.6°C 65% 8.0 mph NNW12.9 kmh NNW 21.0 mph33.8 kmh 29.73 in1006.8 mb 0.00 in0.0 mm 0.00 in/hr0.0 mm/hr 0.04 in1.0 mm
01:33 PM 67.0°F19.4°C 54.4°F12.4°C 64% 11.0 mph NW17.7 kmh NW 21.0 mph33.8 kmh 29.73 in1006.8 mb 0.00 in0.0 mm 0.00 in/hr0.0 mm/hr 0.04 in1.0 mm
01:34 PM 67.1°F19.5°C 54.5°F12.5°C 64% 14.0 mph NW22.5 kmh NW 21.0 mph33.8 kmh 29.73 in1006.8 mb 0.00 in0.0 mm 0.00 in/hr0.0 mm/hr 0.04 in1.0 mm
01:35 PM 67.2°F19.6°C 54.6°F12.6°C 64% 5.0 mph NNW8.0 kmh NNW 21.0 mph33.8 kmh 29.74 in1007.1 mb 0.00 in0.0 mm 0.00 in/hr0.0 mm/hr 0.04 in1.0 mm
01:38 PM 67.8°F19.9°C 54.8°F12.7°C 63% 5.0 mph NW8.0 kmh NW 22.0 mph35.4 kmh 29.73 in1006.8 mb 0.00 in0.0 mm 0.00 in/hr0.0 mm/hr 0.04 in1.0 mm
01:39 PM 67.9°F19.9°C 54.4°F12.4°C 62% 16.0 mph NNW25.7 kmh NNW 25.0 mph40.2 kmh 29.74 in1007.1 mb 0.00 in0.0 mm 0.00 in/hr0.0 mm/hr 0.04 in1.0 mm
01:40 PM 68.0°F20.0°C 54.5°F12.5°C 62% 20.0 mph N32.2 kmh N 25.0 mph40.2 kmh 29.73 in1006.8 mb 0.00 in0.0 mm 0.00 in/hr0.0 mm/hr 0.04 in1.0 mm
01:43 PM 68.2°F20.1°C 54.3°F12.4°C 61% 12.0 mph N19.3 kmh N 25.0 mph40.2 kmh 29.74 in1007.1 mb 0.00 in0.0 mm 0.00 in/hr0.0 mm/hr 0.04 in1.0 mm
01:44 PM 68.2°F20.1°C 54.3°F12.4°C 61% 10.0 mph N16.1 kmh N 25.0 mph40.2 kmh 29.74 in1007.1 mb 0.00 in0.0 mm 0.00 in/hr0.0 mm/hr 0.04 in1.0 mm
01:45 PM 68.2°F20.1°C 54.3°F12.4°C 61% 9.0 mph N14.5 kmh N 25.0 mph40.2 kmh 29.73 in1006.8 mb 0.00 in0.0 mm 0.00 in/hr0.0 mm/hr 0.04 in1.0 mm
01:48 PM 68.6°F20.3°C 54.6°F12.6°C 61% 10.0 mph N16.1 kmh N 25.0 mph40.2 kmh 29.74 in1007.1 mb 0.00 in0.0 mm 0.00 in/hr0.0 mm/hr 0.04 in1.0 mm
01:49 PM 68.8°F20.4°C 54.4°F12.4°C 60% 11.0 mph NNW17.7 kmh NNW 25.0 mph40.2 kmh 29.73 in1006.8 mb 0.00 in0.0 mm 0.00 in/hr0.0 mm/hr 0.04 in1.0 mm
01:50 PM 68.9°F20.5°C 54.5°F12.5°C 60% 9.0 mph N14.5 kmh N 25.0 mph40.2 kmh 29.73 in1006.8 mb 0.00 in0.0 mm 0.00 in/hr0.0 mm/hr 0.04 in1.0 mm
01:53 PM 69.2°F20.7°C 54.7°F12.6°C 60% 14.0 mph N22.5 kmh N 25.0 mph40.2 kmh 29.73 in1006.8 mb 0.00 in0.0 mm 0.00 in/hr0.0 mm/hr 0.04 in1.0 mm
01:54 PM 69.3°F20.7°C 54.8°F12.7°C 60% 5.0 mph N8.0 kmh N 25.0 mph40.2 kmh 29.73 in1006.8 mb 0.00 in0.0 mm 0.00 in/hr0.0 mm/hr 0.04 in1.0 mm
01:55 PM 69.5°F20.8°C 55.0°F12.8°C 60% 8.0 mph N12.9 kmh N 25.0 mph40.2 kmh 29.73 in1006.8 mb 0.00 in0.0 mm 0.00 in/hr0.0 mm/hr 0.04 in1.0 mm
01:58 PM 69.9°F21.1°C 54.9°F12.7°C 59% 4.0 mph N6.4 kmh N 25.0 mph40.2 kmh 29.73 in1006.8 mb 0.00 in0.0 mm 0.00 in/hr0.0 mm/hr 0.04 in1.0 mm
01:59 PM 70.0°F21.1°C 55.0°F12.8°C 59% 15.0 mph N24.1 kmh N 25.0 mph40.2 kmh 29.73 in1006.8 mb 0.00 in0.0 mm 0.00 in/hr0.0 mm/hr 0.04 in1.0 mm
02:00 PM 70.1°F21.2°C 55.6°F13.1°C 60% 7.0 mph N11.3 kmh N 9.0 mph14.5 kmh 29.73 in1006.8 mb 0.00 in0.0 mm 0.00 in/hr0.0 mm/hr 0.04 in1.0 mm
02:03 PM 70.3°F21.3°C 56.2°F13.4°C 61% 5.0 mph N8.0 kmh N 11.0 mph17.7 kmh 29.73 in1006.8 mb 0.00 in0.0 mm 0.00 in/hr0.0 mm/hr 0.04 in1.0 mm
02:04 PM 70.4°F21.3°C 56.3°F13.5°C 61% 14.0 mph NNW22.5 kmh NNW 14.0 mph22.5 kmh 29.73 in1006.8 mb 0.00 in0.0 mm 0.00 in/hr0.0 mm/hr 0.04 in1.0 mm
02:05 PM 70.5°F21.4°C 56.4°F13.6°C 61% 7.0 mph N11.3 kmh N 14.0 mph22.5 kmh 29.73 in1006.8 mb 0.00 in0.0 mm 0.00 in/hr0.0 mm/hr 0.04 in1.0 mm
02:08 PM 70.6°F21.4°C 53.7°F12.1°C 55% 13.0 mph NE20.9 kmh NE 21.0 mph33.8 kmh 29.74 in1007.1 mb 0.00 in0.0 mm 0.00 in/hr0.0 mm/hr 0.04 in1.0 mm
02:09 PM 70.4°F21.3°C 53.5°F11.9°C 55% 11.0 mph N17.7 kmh N 21.0 mph33.8 kmh 29.74 in1007.1 mb 0.00 in0.0 mm 0.00 in/hr0.0 mm/hr 0.04 in1.0 mm
02:10 PM 70.2°F21.2°C 53.8°F12.1°C 56% 9.0 mph N14.5 kmh N 21.0 mph33.8 kmh 29.74 in1007.1 mb 0.00 in0.0 mm 0.00 in/hr0.0 mm/hr 0.04 in1.0 mm
02:13 PM 70.5°F21.4°C 54.6°F12.6°C 57% 9.0 mph NW14.5 kmh NW 21.0 mph33.8 kmh 29.73 in1006.8 mb 0.00 in0.0 mm 0.00 in/hr0.0 mm/hr 0.04 in1.0 mm
02:14 PM 70.7°F21.5°C 54.3°F12.4°C 56% 9.0 mph N14.5 kmh N 21.0 mph33.8 kmh 29.74 in1007.1 mb 0.00 in0.0 mm 0.00 in/hr0.0 mm/hr 0.04 in1.0 mm
02:15 PM 70.8°F21.6°C 54.4°F12.4°C 56% 7.0 mph NNW11.3 kmh NNW 21.0 mph33.8 kmh 29.73 in1006.8 mb 0.00 in0.0 mm 0.00 in/hr0.0 mm/hr 0.04 in1.0 mm
02:18 PM 70.5°F21.4°C 54.6°F12.6°C 57% 1.0 mph N1.6 kmh N 21.0 mph33.8 kmh 29.73 in1006.8 mb 0.00 in0.0 mm 0.00 in/hr0.0 mm/hr 0.04 in1.0 mm
02:19 PM 70.5°F21.4°C 55.0°F12.8°C 58% 9.0 mph N14.5 kmh N 21.0 mph33.8 kmh 29.73 in1006.8 mb 0.00 in0.0 mm 0.00 in/hr0.0 mm/hr 0.04 in1.0 mm
02:20 PM 70.5°F21.4°C 55.0°F12.8°C 58% 8.0 mph NE12.9 kmh NE 21.0 mph33.8 kmh 29.74 in1007.1 mb 0.00 in0.0 mm 0.00 in/hr0.0 mm/hr 0.04 in1.0 mm
02:23 PM 70.1°F21.2°C 55.1°F12.8°C 59% 7.0 mph N11.3 kmh N 21.0 mph33.8 kmh 29.74 in1007.1 mb 0.00 in0.0 mm 0.00 in/hr0.0 mm/hr 0.04 in1.0 mm
02:24 PM 70.1°F21.2°C 55.1°F12.8°C 59% 4.0 mph NW6.4 kmh NW 21.0 mph33.8 kmh 29.74 in1007.1 mb 0.00 in0.0 mm 0.00 in/hr0.0 mm/hr 0.04 in1.0 mm
02:25 PM 70.2°F21.2°C 55.2°F12.9°C 59% 8.0 mph NW12.9 kmh NW 21.0 mph33.8 kmh 29.74 in1007.1 mb 0.00 in0.0 mm 0.00 in/hr0.0 mm/hr 0.04 in1.0 mm
02:28 PM 70.4°F21.3°C 54.9°F12.7°C 58% 4.0 mph NNW6.4 kmh NNW 21.0 mph33.8 kmh 29.74 in1007.1 mb 0.00 in0.0 mm 0.00 in/hr0.0 mm/hr 0.04 in1.0 mm
02:29 PM 70.4°F21.3°C 55.4°F13.0°C 59% 6.0 mph N9.7 kmh N 21.0 mph33.8 kmh 29.73 in1006.8 mb 0.00 in0.0 mm 0.00 in/hr0.0 mm/hr 0.04 in1.0 mm
02:30 PM 70.5°F21.4°C 55.5°F13.1°C 59% 10.0 mph NE16.1 kmh NE 21.0 mph33.8 kmh 29.74 in1007.1 mb 0.00 in0.0 mm 0.00 in/hr0.0 mm/hr 0.04 in1.0 mm
02:33 PM 70.4°F21.3°C 54.9°F12.7°C 58% 11.0 mph NNW17.7 kmh NNW 21.0 mph33.8 kmh 29.74 in1007.1 mb 0.00 in0.0 mm 0.00 in/hr0.0 mm/hr 0.04 in1.0 mm
02:34 PM 70.3°F21.3°C 55.3°F12.9°C 59% 12.0 mph NNW19.3 kmh NNW 21.0 mph33.8 kmh 29.74 in1007.1 mb 0.00 in0.0 mm 0.00 in/hr0.0 mm/hr 0.04 in1.0 mm
02:35 PM 70.2°F21.2°C 55.2°F12.9°C 59% 12.0 mph WNW19.3 kmh WNW 21.0 mph33.8 kmh 29.74 in1007.1 mb 0.00 in0.0 mm 0.00 in/hr0.0 mm/hr 0.04 in1.0 mm
02:38 PM 70.4°F21.3°C 54.5°F12.5°C 57% 8.0 mph NNW12.9 kmh NNW 21.0 mph33.8 kmh 29.74 in1007.1 mb 0.00 in0.0 mm 0.00 in/hr0.0 mm/hr 0.04 in1.0 mm
02:39 PM 70.3°F21.3°C 54.8°F12.7°C 58% 9.0 mph NE14.5 kmh NE 21.0 mph33.8 kmh 29.74 in1007.1 mb 0.00 in0.0 mm 0.00 in/hr0.0 mm/hr 0.04 in1.0 mm
02:40 PM 70.4°F21.3°C 54.9°F12.7°C 58% 12.0 mph N19.3 kmh N 21.0 mph33.8 kmh 29.74 in1007.1 mb 0.00 in0.0 mm 0.00 in/hr0.0 mm/hr 0.04 in1.0 mm
02:43 PM 70.5°F21.4°C 54.6°F12.6°C 57% 13.0 mph NW20.9 kmh NW 21.0 mph33.8 kmh 29.74 in1007.1 mb 0.00 in0.0 mm 0.00 in/hr0.0 mm/hr 0.04 in1.0 mm
02:44 PM 70.5°F21.4°C 54.6°F12.6°C 57% 12.0 mph NE19.3 kmh NE 21.0 mph33.8 kmh 29.74 in1007.1 mb 0.00 in0.0 mm 0.00 in/hr0.0 mm/hr 0.04 in1.0 mm
02:45 PM 70.5°F21.4°C 55.0°F12.8°C 58% 8.0 mph NE12.9 kmh NE 21.0 mph33.8 kmh 29.74 in1007.1 mb 0.00 in0.0 mm 0.00 in/hr0.0 mm/hr 0.04 in1.0 mm
02:48 PM 70.6°F21.4°C 55.1°F12.8°C 58% 16.0 mph N25.7 kmh N 21.0 mph33.8 kmh 29.74 in1007.1 mb 0.00 in0.0 mm 0.00 in/hr0.0 mm/hr 0.04 in1.0 mm
02:49 PM 70.5°F21.4°C 55.0°F12.8°C 58% 5.0 mph NNE8.0 kmh NNE 21.0 mph33.8 kmh 29.74 in1007.1 mb 0.00 in0.0 mm 0.00 in/hr0.0 mm/hr 0.04 in1.0 mm
02:50 PM 70.4°F21.3°C 55.4°F13.0°C 59% 8.0 mph NW12.9 kmh NW 21.0 mph33.8 kmh 29.74 in1007.1 mb 0.00 in0.0 mm 0.00 in/hr0.0 mm/hr 0.04 in1.0 mm
02:53 PM 70.2°F21.2°C 55.2°F12.9°C 59% 8.0 mph NNE12.9 kmh NNE 21.0 mph33.8 kmh 29.75 in1007.5 mb 0.00 in0.0 mm 0.00 in/hr0.0 mm/hr 0.04 in1.0 mm
02:54 PM 70.0°F21.1°C 55.0°F12.8°C 59% 12.0 mph N19.3 kmh N 21.0 mph33.8 kmh 29.74 in1007.1 mb 0.00 in0.0 mm 0.00 in/hr0.0 mm/hr 0.04 in1.0 mm
02:55 PM 70.1°F21.2°C 55.6°F13.1°C 60% 9.0 mph NNE14.5 kmh NNE 21.0 mph33.8 kmh 29.74 in1007.1 mb 0.00 in0.0 mm 0.00 in/hr0.0 mm/hr 0.04 in1.0 mm
02:58 PM 70.1°F21.2°C 55.1°F12.8°C 59% 5.0 mph NNW8.0 kmh NNW 21.0 mph33.8 kmh 29.74 in1007.1 mb 0.00 in0.0 mm 0.00 in/hr0.0 mm/hr 0.04 in1.0 mm
02:59 PM 70.3°F21.3°C 55.8°F13.2°C 60% 7.0 mph NW11.3 kmh NW 21.0 mph33.8 kmh 29.75 in1007.5 mb 0.00 in0.0 mm 0.00 in/hr0.0 mm/hr 0.04 in1.0 mm
03:00 PM 70.4°F21.3°C 55.9°F13.3°C 60% 13.0 mph NNE20.9 kmh NNE 14.0 mph22.5 kmh 29.75 in1007.5 mb 0.00 in0.0 mm 0.00 in/hr0.0 mm/hr 0.04 in1.0 mm
03:03 PM 70.3°F21.3°C 55.3°F12.9°C 59% 10.0 mph NE16.1 kmh NE 17.0 mph27.4 kmh 29.75 in1007.5 mb 0.00 in0.0 mm 0.00 in/hr0.0 mm/hr 0.04 in1.0 mm
03:04 PM 70.2°F21.2°C 54.8°F12.7°C 58% 13.0 mph N20.9 kmh N 19.0 mph30.6 kmh 29.75 in1007.5 mb 0.00 in0.0 mm 0.00 in/hr0.0 mm/hr 0.04 in1.0 mm
03:05 PM 69.9°F21.1°C 54.5°F12.5°C 58% 4.0 mph N6.4 kmh N 21.0 mph33.8 kmh 29.75 in1007.5 mb 0.00 in0.0 mm 0.00 in/hr0.0 mm/hr 0.04 in1.0 mm
03:08 PM 69.6°F20.9°C 54.2°F12.3°C 58% 11.0 mph NNW17.7 kmh NNW 21.0 mph33.8 kmh 29.75 in1007.5 mb 0.00 in0.0 mm 0.00 in/hr0.0 mm/hr 0.04 in1.0 mm
03:09 PM 69.6°F20.9°C 54.2°F12.3°C 58% 11.0 mph NW17.7 kmh NW 21.0 mph33.8 kmh 29.75 in1007.5 mb 0.00 in0.0 mm 0.00 in/hr0.0 mm/hr 0.04 in1.0 mm
03:10 PM 69.6°F20.9°C 54.2°F12.3°C 58% 12.0 mph N19.3 kmh N 21.0 mph33.8 kmh 29.75 in1007.5 mb 0.00 in0.0 mm 0.00 in/hr0.0 mm/hr 0.04 in1.0 mm
03:13 PM 69.9°F21.1°C 54.9°F12.7°C 59% 14.0 mph N22.5 kmh N 21.0 mph33.8 kmh 29.75 in1007.5 mb 0.00 in0.0 mm 0.00 in/hr0.0 mm/hr 0.04 in1.0 mm
03:14 PM 69.9°F21.1°C 54.9°F12.7°C 59% 19.0 mph NW30.6 kmh NW 21.0 mph33.8 kmh 29.75 in1007.5 mb 0.00 in0.0 mm 0.00 in/hr0.0 mm/hr 0.04 in1.0 mm
03:15 PM 69.8°F21.0°C 54.8°F12.7°C 59% 15.0 mph NW24.1 kmh NW 21.0 mph33.8 kmh 29.75 in1007.5 mb 0.00 in0.0 mm 0.00 in/hr0.0 mm/hr 0.04 in1.0 mm
03:18 PM 70.0°F21.1°C 56.0°F13.3°C 61% 9.0 mph NNE14.5 kmh NNE 21.0 mph33.8 kmh 29.75 in1007.5 mb 0.00 in0.0 mm 0.00 in/hr0.0 mm/hr 0.04 in1.0 mm
03:19 PM 70.0°F21.1°C 55.0°F12.8°C 59% 3.0 mph N4.8 kmh N 21.0 mph33.8 kmh 29.75 in1007.5 mb 0.00 in0.0 mm 0.00 in/hr0.0 mm/hr 0.04 in1.0 mm
03:20 PM 70.1°F21.2°C 55.6°F13.1°C 60% 15.0 mph N24.1 kmh N 21.0 mph33.8 kmh 29.75 in1007.5 mb 0.00 in0.0 mm 0.00 in/hr0.0 mm/hr 0.04 in1.0 mm
03:23 PM 70.5°F21.4°C 55.5°F13.1°C 59% 14.0 mph N22.5 kmh N 21.0 mph33.8 kmh 29.75 in1007.5 mb 0.00 in0.0 mm 0.00 in/hr0.0 mm/hr 0.04 in1.0 mm
03:24 PM 70.4°F21.3°C 54.9°F12.7°C 58% 10.0 mph N16.1 kmh N 21.0 mph33.8 kmh 29.75 in1007.5 mb 0.00 in0.0 mm 0.00 in/hr0.0 mm/hr 0.04 in1.0 mm
03:25 PM 70.2°F21.2°C 55.2°F12.9°C 59% 11.0 mph NW17.7 kmh NW 21.0 mph33.8 kmh 29.75 in1007.5 mb 0.00 in0.0 mm 0.00 in/hr0.0 mm/hr 0.04 in1.0 mm
03:28 PM 70.1°F21.2°C 55.6°F13.1°C 60% 12.0 mph NNE19.3 kmh NNE 23.0 mph37.0 kmh 29.75 in1007.5 mb 0.00 in0.0 mm 0.00 in/hr0.0 mm/hr 0.04 in1.0 mm
03:29 PM 70.2°F21.2°C 55.2°F12.9°C 59% 14.0 mph NNE22.5 kmh NNE 23.0 mph37.0 kmh 29.75 in1007.5 mb 0.00 in0.0 mm 0.00 in/hr0.0 mm/hr 0.04 in1.0 mm
03:30 PM 70.1°F21.2°C 55.1°F12.8°C 59% 10.0 mph NW16.1 kmh NW 23.0 mph37.0 kmh 29.75 in1007.5 mb 0.00 in0.0 mm 0.00 in/hr0.0 mm/hr 0.04 in1.0 mm
03:33 PM 70.3°F21.3°C 54.8°F12.7°C 58% 15.0 mph N24.1 kmh N 23.0 mph37.0 kmh 29.75 in1007.5 mb 0.00 in0.0 mm 0.00 in/hr0.0 mm/hr 0.04 in1.0 mm
03:34 PM 70.1°F21.2°C 54.2°F12.3°C 57% 16.0 mph NNE25.7 kmh NNE 23.0 mph37.0 kmh 29.75 in1007.5 mb 0.00 in0.0 mm 0.00 in/hr0.0 mm/hr 0.04 in1.0 mm
03:35 PM 69.9°F21.1°C 54.5°F12.5°C 58% 8.0 mph NNE12.9 kmh NNE 23.0 mph37.0 kmh 29.75 in1007.5 mb 0.00 in0.0 mm 0.00 in/hr0.0 mm/hr 0.04 in1.0 mm
03:38 PM 69.9°F21.1°C 54.0°F12.2°C 57% 10.0 mph NNE16.1 kmh NNE 23.0 mph37.0 kmh 29.76 in1007.8 mb 0.00 in0.0 mm 0.00 in/hr0.0 mm/hr 0.04 in1.0 mm
03:39 PM 69.8°F21.0°C 54.4°F12.4°C 58% 16.0 mph N25.7 kmh N 23.0 mph37.0 kmh 29.76 in1007.8 mb 0.00 in0.0 mm 0.00 in/hr0.0 mm/hr 0.04 in1.0 mm
03:40 PM 69.8°F21.0°C 54.4°F12.4°C 58% 12.0 mph N19.3 kmh N 23.0 mph37.0 kmh 29.76 in1007.8 mb 0.00 in0.0 mm 0.00 in/hr0.0 mm/hr 0.04 in1.0 mm
03:43 PM 69.8°F21.0°C 54.4°F12.4°C 58% 7.0 mph N11.3 kmh N 23.0 mph37.0 kmh 29.75 in1007.5 mb 0.00 in0.0 mm 0.00 in/hr0.0 mm/hr 0.04 in1.0 mm
03:44 PM 70.0°F21.1°C 54.6°F12.6°C 58% 10.0 mph NNE16.1 kmh NNE 23.0 mph37.0 kmh 29.76 in1007.8 mb 0.00 in0.0 mm 0.00 in/hr0.0 mm/hr 0.04 in1.0 mm
03:45 PM 70.0°F21.1°C 54.6°F12.6°C 58% 13.0 mph NNW20.9 kmh NNW 23.0 mph37.0 kmh 29.76 in1007.8 mb 0.00 in0.0 mm 0.00 in/hr0.0 mm/hr 0.04 in1.0 mm
03:48 PM 69.8°F21.0°C 54.4°F12.4°C 58% 7.0 mph N11.3 kmh N 23.0 mph37.0 kmh 29.76 in1007.8 mb 0.00 in0.0 mm 0.00 in/hr0.0 mm/hr 0.04 in1.0 mm
03:49 PM 69.9°F21.1°C 54.5°F12.5°C 58% 3.0 mph N4.8 kmh N 23.0 mph37.0 kmh 29.75 in1007.5 mb 0.00 in0.0 mm 0.00 in/hr0.0 mm/hr 0.04 in1.0 mm
03:50 PM 70.1°F21.2°C 55.1°F12.8°C 59% 13.0 mph N20.9 kmh N 23.0 mph37.0 kmh 29.76 in1007.8 mb 0.00 in0.0 mm 0.00 in/hr0.0 mm/hr 0.04 in1.0 mm
03:53 PM 70.6°F21.4°C 55.1°F12.8°C 58% 16.0 mph NW25.7 kmh NW 23.0 mph37.0 kmh 29.76 in1007.8 mb 0.00 in0.0 mm 0.00 in/hr0.0 mm/hr 0.04 in1.0 mm
03:54 PM 70.4°F21.3°C 54.0°F12.2°C 56% 15.0 mph NNE24.1 kmh NNE 23.0 mph37.0 kmh 29.76 in1007.8 mb 0.00 in0.0 mm 0.00 in/hr0.0 mm/hr 0.04 in1.0 mm
03:55 PM 70.2°F21.2°C 53.8°F12.1°C 56% 4.0 mph NE6.4 kmh NE 23.0 mph37.0 kmh 29.76 in1007.8 mb 0.00 in0.0 mm 0.00 in/hr0.0 mm/hr 0.04 in1.0 mm
03:58 PM 70.0°F21.1°C 53.6°F12.0°C 56% 6.0 mph NNE9.7 kmh NNE 23.0 mph37.0 kmh 29.76 in1007.8 mb 0.00 in0.0 mm 0.00 in/hr0.0 mm/hr 0.04 in1.0 mm
03:59 PM 70.0°F21.1°C 54.1°F12.3°C 57% 15.0 mph N24.1 kmh N 23.0 mph37.0 kmh 29.76 in1007.8 mb 0.00 in0.0 mm 0.00 in/hr0.0 mm/hr 0.04 in1.0 mm
04:00 PM 69.9°F21.1°C 54.0°F12.2°C 57% 8.0 mph NNE12.9 kmh NNE 8.0 mph12.9 kmh 29.76 in1007.8 mb 0.00 in0.0 mm 0.00 in/hr0.0 mm/hr 0.04 in1.0 mm
04:03 PM 70.3°F21.3°C 54.8°F12.7°C 58% 3.0 mph NNW4.8 kmh NNW 12.0 mph19.3 kmh 29.76 in1007.8 mb 0.00 in0.0 mm 0.00 in/hr0.0 mm/hr 0.04 in1.0 mm
04:04 PM 70.4°F21.3°C 54.5°F12.5°C 57% 12.0 mph WNW19.3 kmh WNW 12.0 mph19.3 kmh 29.76 in1007.8 mb 0.00 in0.0 mm 0.00 in/hr0.0 mm/hr 0.04 in1.0 mm
04:05 PM 70.3°F21.3°C 53.9°F12.2°C 56% 3.0 mph WNW4.8 kmh WNW 15.0 mph24.1 kmh 29.76 in1007.8 mb 0.00 in0.0 mm 0.00 in/hr0.0 mm/hr 0.04 in1.0 mm
04:08 PM 70.0°F21.1°C 53.6°F12.0°C 56% 12.0 mph NNW19.3 kmh NNW 16.0 mph25.7 kmh 29.76 in1007.8 mb 0.00 in0.0 mm 0.00 in/hr0.0 mm/hr 0.04 in1.0 mm
04:09 PM 69.9°F21.1°C 53.5°F11.9°C 56% 7.0 mph NNE11.3 kmh NNE 16.0 mph25.7 kmh 29.76 in1007.8 mb 0.00 in0.0 mm 0.00 in/hr0.0 mm/hr 0.04 in1.0 mm
04:10 PM 69.9°F21.1°C 53.5°F11.9°C 56% 8.0 mph N12.9 kmh N 18.0 mph29.0 kmh 29.76 in1007.8 mb 0.00 in0.0 mm 0.00 in/hr0.0 mm/hr 0.04 in1.0 mm
04:13 PM 69.6°F20.9°C 53.2°F11.8°C 56% 3.0 mph NNW4.8 kmh NNW 18.0 mph29.0 kmh 29.77 in1008.1 mb 0.00 in0.0 mm 0.00 in/hr0.0 mm/hr 0.04 in1.0 mm
04:14 PM 69.6°F20.9°C 53.2°F11.8°C 56% 10.0 mph NW16.1 kmh NW 18.0 mph29.0 kmh 29.76 in1007.8 mb 0.00 in0.0 mm 0.00 in/hr0.0 mm/hr 0.04 in1.0 mm
04:15 PM 69.6°F20.9°C 52.7°F11.5°C 55% 10.0 mph N16.1 kmh N 19.0 mph30.6 kmh 29.77 in1008.1 mb 0.00 in0.0 mm 0.00 in/hr0.0 mm/hr 0.04 in1.0 mm
04:18 PM 69.6°F20.9°C 52.7°F11.5°C 55% 12.0 mph NE19.3 kmh NE 19.0 mph30.6 kmh 29.77 in1008.1 mb 0.00 in0.0 mm 0.00 in/hr0.0 mm/hr 0.04 in1.0 mm
04:19 PM 69.5°F20.8°C 52.6°F11.4°C 55% 11.0 mph NNE17.7 kmh NNE 19.0 mph30.6 kmh 29.77 in1008.1 mb 0.00 in0.0 mm 0.00 in/hr0.0 mm/hr 0.04 in1.0 mm
04:20 PM 69.3°F20.7°C 52.5°F11.4°C 55% 16.0 mph N25.7 kmh N 19.0 mph30.6 kmh 29.77 in1008.1 mb 0.00 in0.0 mm 0.00 in/hr0.0 mm/hr 0.04 in1.0 mm
04:23 PM 69.0°F20.6°C 52.7°F11.5°C 56% 9.0 mph NE14.5 kmh NE 24.0 mph38.6 kmh 29.77 in1008.1 mb 0.00 in0.0 mm 0.00 in/hr0.0 mm/hr 0.04 in1.0 mm
04:24 PM 69.0°F20.6°C 53.2°F11.8°C 57% 12.0 mph NW19.3 kmh NW 24.0 mph38.6 kmh 29.77 in1008.1 mb 0.00 in0.0 mm 0.00 in/hr0.0 mm/hr 0.04 in1.0 mm
04:25 PM 69.0°F20.6°C 53.2°F11.8°C 57% 8.0 mph NW12.9 kmh NW 24.0 mph38.6 kmh 29.77 in1008.1 mb 0.00 in0.0 mm 0.00 in/hr0.0 mm/hr 0.04 in1.0 mm
04:28 PM 69.4°F20.8°C 54.0°F12.2°C 58% 8.0 mph NW12.9 kmh NW 24.0 mph38.6 kmh 29.77 in1008.1 mb 0.00 in0.0 mm 0.00 in/hr0.0 mm/hr 0.04 in1.0 mm
04:29 PM 69.5°F20.8°C 54.1°F12.3°C 58% 4.0 mph WNW6.4 kmh WNW 24.0 mph38.6 kmh 29.77 in1008.1 mb 0.00 in0.0 mm 0.00 in/hr0.0 mm/hr 0.04 in1.0 mm
04:30 PM 69.5°F20.8°C 54.1°F12.3°C 58% 6.0 mph NW9.7 kmh NW 24.0 mph38.6 kmh 29.77 in1008.1 mb 0.00 in0.0 mm 0.00 in/hr0.0 mm/hr 0.04 in1.0 mm
04:33 PM 69.5°F20.8°C 53.1°F11.7°C 56% 11.0 mph N17.7 kmh N 24.0 mph38.6 kmh 29.77 in1008.1 mb 0.00 in0.0 mm 0.00 in/hr0.0 mm/hr 0.04 in1.0 mm
04:34 PM 69.5°F20.8°C 53.6°F12.0°C 57% 9.0 mph NNW14.5 kmh NNW 24.0 mph38.6 kmh 29.77 in1008.1 mb 0.00 in0.0 mm 0.00 in/hr0.0 mm/hr 0.04 in1.0 mm
04:35 PM 69.7°F20.9°C 54.3°F12.4°C 58% 3.0 mph NW4.8 kmh NW 24.0 mph38.6 kmh 29.77 in1008.1 mb 0.00 in0.0 mm 0.00 in/hr0.0 mm/hr 0.04 in1.0 mm
04:38 PM 70.0°F21.1°C 54.1°F12.3°C 57% 4.0 mph NNW6.4 kmh NNW 24.0 mph38.6 kmh 29.77 in1008.1 mb 0.00 in0.0 mm 0.00 in/hr0.0 mm/hr 0.04 in1.0 mm
04:39 PM 70.0°F21.1°C 54.1°F12.3°C 57% 6.0 mph NE9.7 kmh NE 24.0 mph38.6 kmh 29.77 in1008.1 mb 0.00 in0.0 mm 0.00 in/hr0.0 mm/hr 0.04 in1.0 mm
04:40 PM 70.2°F21.2°C 54.3°F12.4°C 57% 13.0 mph N20.9 kmh N 24.0 mph38.6 kmh 29.77 in1008.1 mb 0.00 in0.0 mm 0.00 in/hr0.0 mm/hr 0.04 in1.0 mm
04:43 PM 69.9°F21.1°C 54.0°F12.2°C 57% 10.0 mph NW16.1 kmh NW 24.0 mph38.6 kmh 29.77 in1008.1 mb 0.00 in0.0 mm 0.00 in/hr0.0 mm/hr 0.04 in1.0 mm
04:44 PM 69.6°F20.9°C 53.2°F11.8°C 56% 11.0 mph N17.7 kmh N 24.0 mph38.6 kmh 29.77 in1008.1 mb 0.00 in0.0 mm 0.00 in/hr0.0 mm/hr 0.04 in1.0 mm
04:45 PM 69.5°F20.8°C 53.6°F12.0°C 57% 10.0 mph NNE16.1 kmh NNE 24.0 mph38.6 kmh 29.77 in1008.1 mb 0.00 in0.0 mm 0.00 in/hr0.0 mm/hr 0.04 in1.0 mm
04:48 PM 69.6°F20.9°C 52.7°F11.5°C 55% 10.0 mph NW16.1 kmh NW 24.0 mph38.6 kmh 29.77 in1008.1 mb 0.00 in0.0 mm 0.00 in/hr0.0 mm/hr 0.04 in1.0 mm
04:49 PM 69.7°F20.9°C 52.8°F11.6°C 55% 4.0 mph NE6.4 kmh NE 24.0 mph38.6 kmh 29.77 in1008.1 mb 0.00 in0.0 mm 0.00 in/hr0.0 mm/hr 0.04 in1.0 mm
04:50 PM 69.8°F21.0°C 52.9°F11.6°C 55% 7.0 mph NNW11.3 kmh NNW 24.0 mph38.6 kmh 29.77 in1008.1 mb 0.00 in0.0 mm 0.00 in/hr0.0 mm/hr 0.04 in1.0 mm
04:53 PM 69.2°F20.7°C 52.9°F11.6°C 56% 10.0 mph NNW16.1 kmh NNW 24.0 mph38.6 kmh 29.78 in1008.5 mb 0.00 in0.0 mm 0.00 in/hr0.0 mm/hr 0.04 in1.0 mm
04:54 PM 68.9°F20.5°C 52.6°F11.4°C 56% 16.0 mph NW25.7 kmh NW 24.0 mph38.6 kmh 29.78 in1008.5 mb 0.00 in0.0 mm 0.00 in/hr0.0 mm/hr 0.04 in1.0 mm
04:55 PM 68.8°F20.4°C 52.5°F11.4°C 56% 4.0 mph NW6.4 kmh NW 24.0 mph38.6 kmh 29.78 in1008.5 mb 0.00 in0.0 mm 0.00 in/hr0.0 mm/hr 0.04 in1.0 mm
04:58 PM 69.2°F20.7°C 52.9°F11.6°C 56% 8.0 mph N12.9 kmh N 24.0 mph38.6 kmh 29.78 in1008.5 mb 0.00 in0.0 mm 0.00 in/hr0.0 mm/hr 0.04 in1.0 mm
04:59 PM 69.2°F20.7°C 52.9°F11.6°C 56% 8.0 mph NW12.9 kmh NW 24.0 mph38.6 kmh 29.78 in1008.5 mb 0.00 in0.0 mm 0.00 in/hr0.0 mm/hr 0.04 in1.0 mm
05:00 PM 69.2°F20.7°C 52.9°F11.6°C 56% 10.0 mph NE16.1 kmh NE 10.0 mph16.1 kmh 29.78 in1008.5 mb 0.00 in0.0 mm 0.00 in/hr0.0 mm/hr 0.04 in1.0 mm
05:03 PM 69.1°F20.6°C 52.8°F11.6°C 56% 8.0 mph N12.9 kmh N 22.0 mph35.4 kmh 29.78 in1008.5 mb 0.00 in0.0 mm 0.00 in/hr0.0 mm/hr 0.04 in1.0 mm
05:04 PM 69.1°F20.6°C 52.8°F11.6°C 56% 9.0 mph NW14.5 kmh NW 22.0 mph35.4 kmh 29.79 in1008.8 mb 0.00 in0.0 mm 0.00 in/hr0.0 mm/hr 0.04 in1.0 mm
05:05 PM 69.3°F20.7°C 52.5°F11.4°C 55% 7.0 mph NW11.3 kmh NW 22.0 mph35.4 kmh 29.78 in1008.5 mb 0.00 in0.0 mm 0.00 in/hr0.0 mm/hr 0.04 in1.0 mm
05:08 PM 69.1°F20.6°C 52.3°F11.3°C 55% 9.0 mph NNE14.5 kmh NNE 22.0 mph35.4 kmh 29.79 in1008.8 mb 0.00 in0.0 mm 0.00 in/hr0.0 mm/hr 0.04 in1.0 mm
05:09 PM 69.2°F20.7°C 52.4°F11.3°C 55% 10.0 mph N16.1 kmh N 22.0 mph35.4 kmh 29.79 in1008.8 mb 0.00 in0.0 mm 0.00 in/hr0.0 mm/hr 0.04 in1.0 mm
05:10 PM 69.4°F20.8°C 52.6°F11.4°C 55% 7.0 mph N11.3 kmh N 22.0 mph35.4 kmh 29.79 in1008.8 mb 0.00 in0.0 mm 0.00 in/hr0.0 mm/hr 0.04 in1.0 mm
05:13 PM 69.0°F20.6°C 51.2°F10.7°C 53% 10.0 mph NW16.1 kmh NW 22.0 mph35.4 kmh 29.79 in1008.8 mb 0.00 in0.0 mm 0.00 in/hr0.0 mm/hr 0.04 in1.0 mm
05:14 PM 68.8°F20.4°C 51.5°F10.8°C 54% 7.0 mph NW11.3 kmh NW 22.0 mph35.4 kmh 29.79 in1008.8 mb 0.00 in0.0 mm 0.00 in/hr0.0 mm/hr 0.04 in1.0 mm
05:15 PM 68.7°F20.4°C 51.9°F11.1°C 55% 13.0 mph N20.9 kmh N 22.0 mph35.4 kmh 29.79 in1008.8 mb 0.00 in0.0 mm 0.00 in/hr0.0 mm/hr 0.04 in1.0 mm
05:18 PM 68.5°F20.3°C 51.2°F10.7°C 54% 7.0 mph NNW11.3 kmh NNW 22.0 mph35.4 kmh 29.79 in1008.8 mb 0.00 in0.0 mm 0.00 in/hr0.0 mm/hr 0.04 in1.0 mm
05:19 PM 68.3°F20.2°C 51.0°F10.6°C 54% 13.0 mph NNW20.9 kmh NNW 22.0 mph35.4 kmh 29.79 in1008.8 mb 0.00 in0.0 mm 0.00 in/hr0.0 mm/hr 0.04 in1.0 mm
05:20 PM 68.3°F20.2°C 51.0°F10.6°C 54% 12.0 mph NNW19.3 kmh NNW 22.0 mph35.4 kmh 29.79 in1008.8 mb 0.00 in0.0 mm 0.00 in/hr0.0 mm/hr 0.04 in1.0 mm
05:23 PM 68.2°F20.1°C 50.9°F10.5°C 54% 16.0 mph N25.7 kmh N 22.0 mph35.4 kmh 29.79 in1008.8 mb 0.00 in0.0 mm 0.00 in/hr0.0 mm/hr 0.04 in1.0 mm
05:24 PM 68.1°F20.1°C 50.9°F10.5°C 54% 7.0 mph N11.3 kmh N 22.0 mph35.4 kmh 29.79 in1008.8 mb 0.00 in0.0 mm 0.00 in/hr0.0 mm/hr 0.04 in1.0 mm
05:25 PM 68.0°F20.0°C 50.8°F10.4°C 54% 9.0 mph N14.5 kmh N 22.0 mph35.4 kmh 29.79 in1008.8 mb 0.00 in0.0 mm 0.00 in/hr0.0 mm/hr 0.04 in1.0 mm
05:28 PM 68.2°F20.1°C 51.4°F10.8°C 55% 12.0 mph NW19.3 kmh NW 22.0 mph35.4 kmh 29.79 in1008.8 mb 0.00 in0.0 mm 0.00 in/hr0.0 mm/hr 0.04 in1.0 mm
05:29 PM 68.2°F20.1°C 51.4°F10.8°C 55% 11.0 mph N17.7 kmh N 22.0 mph35.4 kmh 29.79 in1008.8 mb 0.00 in0.0 mm 0.00 in/hr0.0 mm/hr 0.04 in1.0 mm
05:30 PM 68.1°F20.1°C 51.3°F10.7°C 55% 7.0 mph NNW11.3 kmh NNW 22.0 mph35.4 kmh 29.79 in1008.8 mb 0.00 in0.0 mm 0.00 in/hr0.0 mm/hr 0.04 in1.0 mm
05:33 PM 68.0°F20.0°C 51.7°F10.9°C 56% 2.0 mph N3.2 kmh N 22.0 mph35.4 kmh 29.79 in1008.8 mb 0.00 in0.0 mm 0.00 in/hr0.0 mm/hr 0.04 in1.0 mm
05:34 PM 68.0°F20.0°C 51.3°F10.7°C 55% 17.0 mph NW27.4 kmh NW 22.0 mph35.4 kmh 29.79 in1008.8 mb 0.00 in0.0 mm 0.00 in/hr0.0 mm/hr 0.04 in1.0 mm
05:35 PM 68.0°F20.0°C 50.8°F10.4°C 54% 10.0 mph NNE16.1 kmh NNE 22.0 mph35.4 kmh 29.80 in1009.1 mb 0.00 in0.0 mm 0.00 in/hr0.0 mm/hr 0.04 in1.0 mm
05:38 PM 67.8°F19.9°C 51.1°F10.6°C 55% 15.0 mph N24.1 kmh N 22.0 mph35.4 kmh 29.79 in1008.8 mb 0.00 in0.0 mm 0.00 in/hr0.0 mm/hr 0.04 in1.0 mm
05:39 PM 67.8°F19.9°C 50.6°F10.3°C 54% 12.0 mph N19.3 kmh N 22.0 mph35.4 kmh 29.80 in1009.1 mb 0.00 in0.0 mm 0.00 in/hr0.0 mm/hr 0.04 in1.0 mm
05:40 PM 67.7°F19.8°C 50.5°F10.3°C 54% 12.0 mph W19.3 kmh W 22.0 mph35.4 kmh 29.80 in1009.1 mb 0.00 in0.0 mm 0.00 in/hr0.0 mm/hr 0.04 in1.0 mm
05:43 PM 67.8°F19.9°C 50.6°F10.3°C 54% 5.0 mph NNW8.0 kmh NNW 22.0 mph35.4 kmh 29.80 in1009.1 mb 0.00 in0.0 mm 0.00 in/hr0.0 mm/hr 0.04 in1.0 mm
05:44 PM 68.0°F20.0°C 50.8°F10.4°C 54% 4.0 mph NNE6.4 kmh NNE 22.0 mph35.4 kmh 29.80 in1009.1 mb 0.00 in0.0 mm 0.00 in/hr0.0 mm/hr 0.04 in1.0 mm
05:45 PM 68.4°F20.2°C 51.1°F10.6°C 54% 8.0 mph NW12.9 kmh NW 22.0 mph35.4 kmh 29.80 in1009.1 mb 0.00 in0.0 mm 0.00 in/hr0.0 mm/hr 0.04 in1.0 mm
05:48 PM 68.0°F20.0°C 50.8°F10.4°C 54% 10.0 mph N16.1 kmh N 22.0 mph35.4 kmh 29.80 in1009.1 mb 0.00 in0.0 mm 0.00 in/hr0.0 mm/hr 0.04 in1.0 mm
05:49 PM 68.0°F20.0°C 50.8°F10.4°C 54% 11.0 mph NW17.7 kmh NW 22.0 mph35.4 kmh 29.80 in1009.1 mb 0.00 in0.0 mm 0.00 in/hr0.0 mm/hr 0.04 in1.0 mm
05:50 PM 68.0°F20.0°C 50.3°F10.2°C 53% 8.0 mph N12.9 kmh N 22.0 mph35.4 kmh 29.80 in1009.1 mb 0.00 in0.0 mm 0.00 in/hr0.0 mm/hr 0.04 in1.0 mm
05:53 PM 67.3°F19.6°C 50.1°F10.1°C 54% 8.0 mph NW12.9 kmh NW 22.0 mph35.4 kmh 29.80 in1009.1 mb 0.00 in0.0 mm 0.00 in/hr0.0 mm/hr 0.04 in1.0 mm
05:54 PM 67.2°F19.6°C 50.0°F10.0°C 54% 16.0 mph NW25.7 kmh NW 22.0 mph35.4 kmh 29.80 in1009.1 mb 0.00 in0.0 mm 0.00 in/hr0.0 mm/hr 0.04 in1.0 mm
05:55 PM 67.0°F19.4°C 49.8°F9.9°C 54% 7.0 mph NNE11.3 kmh NNE 22.0 mph35.4 kmh 29.80 in1009.1 mb 0.00 in0.0 mm 0.00 in/hr0.0 mm/hr 0.04 in1.0 mm
05:58 PM 67.2°F19.6°C 50.5°F10.3°C 55% 11.0 mph NW17.7 kmh NW 22.0 mph35.4 kmh 29.80 in1009.1 mb 0.00 in0.0 mm 0.00 in/hr0.0 mm/hr 0.04 in1.0 mm
05:59 PM 67.1°F19.5°C 50.4°F10.2°C 55% 9.0 mph NW14.5 kmh NW 22.0 mph35.4 kmh 29.80 in1009.1 mb 0.00 in0.0 mm 0.00 in/hr0.0 mm/hr 0.04 in1.0 mm
06:00 PM 67.0°F19.4°C 50.3°F10.2°C 55% 12.0 mph WNW19.3 kmh WNW 13.0 mph20.9 kmh 29.80 in1009.1 mb 0.00 in0.0 mm 0.00 in/hr0.0 mm/hr 0.04 in1.0 mm
06:03 PM 67.0°F19.4°C 50.8°F10.4°C 56% 10.0 mph NNW16.1 kmh NNW 19.0 mph30.6 kmh 29.80 in1009.1 mb 0.00 in0.0 mm 0.00 in/hr0.0 mm/hr 0.04 in1.0 mm
06:04 PM 67.0°F19.4°C 50.3°F10.2°C 55% 9.0 mph NW14.5 kmh NW 19.0 mph30.6 kmh 29.80 in1009.1 mb 0.00 in0.0 mm 0.00 in/hr0.0 mm/hr 0.04 in1.0 mm
06:05 PM 67.1°F19.5°C 50.4°F10.2°C 55% 14.0 mph N22.5 kmh N 19.0 mph30.6 kmh 29.80 in1009.1 mb 0.00 in0.0 mm 0.00 in/hr0.0 mm/hr 0.04 in1.0 mm
06:08 PM 66.9°F19.4°C 50.2°F10.1°C 55% 8.0 mph NW12.9 kmh NW 19.0 mph30.6 kmh 29.80 in1009.1 mb 0.00 in0.0 mm 0.00 in/hr0.0 mm/hr 0.04 in1.0 mm
06:09 PM 67.0°F19.4°C 50.3°F10.2°C 55% 12.0 mph N19.3 kmh N 19.0 mph30.6 kmh 29.80 in1009.1 mb 0.00 in0.0 mm 0.00 in/hr0.0 mm/hr 0.04 in1.0 mm
06:10 PM 66.9°F19.4°C 50.2°F10.1°C 55% 15.0 mph NNE24.1 kmh NNE 22.0 mph35.4 kmh 29.80 in1009.1 mb 0.00 in0.0 mm 0.00 in/hr0.0 mm/hr 0.04 in1.0 mm
06:13 PM 66.6°F19.2°C 50.0°F10.0°C 55% 5.0 mph N8.0 kmh N 22.0 mph35.4 kmh 29.80 in1009.1 mb 0.00 in0.0 mm 0.00 in/hr0.0 mm/hr 0.04 in1.0 mm
06:14 PM 66.8°F19.3°C 50.1°F10.1°C 55% 6.0 mph NW9.7 kmh NW 22.0 mph35.4 kmh 29.81 in1009.5 mb 0.00 in0.0 mm 0.00 in/hr0.0 mm/hr 0.04 in1.0 mm
06:15 PM 66.9°F19.4°C 50.2°F10.1°C 55% 8.0 mph NW12.9 kmh NW 22.0 mph35.4 kmh 29.81 in1009.5 mb 0.00 in0.0 mm 0.00 in/hr0.0 mm/hr 0.04 in1.0 mm
06:18 PM 66.9°F19.4°C 50.2°F10.1°C 55% 14.0 mph NNE22.5 kmh NNE 22.0 mph35.4 kmh 29.80 in1009.1 mb 0.00 in0.0 mm 0.00 in/hr0.0 mm/hr 0.04 in1.0 mm
06:19 PM 66.8°F19.3°C 50.1°F10.1°C 55% 10.0 mph NNW16.1 kmh NNW 22.0 mph35.4 kmh 29.81 in1009.5 mb 0.00 in0.0 mm 0.00 in/hr0.0 mm/hr 0.04 in1.0 mm
06:20 PM 66.7°F19.3°C 50.0°F10.0°C 55% 10.0 mph NNW16.1 kmh NNW 22.0 mph35.4 kmh 29.81 in1009.5 mb 0.00 in0.0 mm 0.00 in/hr0.0 mm/hr 0.04 in1.0 mm
06:23 PM 66.7°F19.3°C 50.0°F10.0°C 55% 4.0 mph NW6.4 kmh NW 22.0 mph35.4 kmh 29.81 in1009.5 mb 0.00 in0.0 mm 0.00 in/hr0.0 mm/hr 0.04 in1.0 mm
06:24 PM 66.7°F19.3°C 50.0°F10.0°C 55% 7.0 mph NE11.3 kmh NE 22.0 mph35.4 kmh 29.81 in1009.5 mb 0.00 in0.0 mm 0.00 in/hr0.0 mm/hr 0.04 in1.0 mm
06:25 PM 66.6°F19.2°C 50.0°F10.0°C 55% 7.0 mph NNW11.3 kmh NNW 22.0 mph35.4 kmh 29.81 in1009.5 mb 0.00 in0.0 mm 0.00 in/hr0.0 mm/hr 0.04 in1.0 mm
06:28 PM 66.5°F19.2°C 49.9°F9.9°C 55% 13.0 mph NNE20.9 kmh NNE 22.0 mph35.4 kmh 29.81 in1009.5 mb 0.00 in0.0 mm 0.00 in/hr0.0 mm/hr 0.04 in1.0 mm
06:29 PM 66.4°F19.1°C 49.8°F9.9°C 55% 9.0 mph NW14.5 kmh NW 22.0 mph35.4 kmh 29.81 in1009.5 mb 0.00 in0.0 mm 0.00 in/hr0.0 mm/hr 0.04 in1.0 mm
06:30 PM 66.4°F19.1°C 50.2°F10.1°C 56% 10.0 mph NNE16.1 kmh NNE 22.0 mph35.4 kmh 29.81 in1009.5 mb 0.00 in0.0 mm 0.00 in/hr0.0 mm/hr 0.04 in1.0 mm
06:33 PM 65.9°F18.8°C 49.8°F9.9°C 56% 7.0 mph NW11.3 kmh NW 22.0 mph35.4 kmh 29.81 in1009.5 mb 0.00 in0.0 mm 0.00 in/hr0.0 mm/hr 0.04 in1.0 mm
06:34 PM 65.7°F18.7°C 49.6°F9.8°C 56% 10.0 mph NW16.1 kmh NW 22.0 mph35.4 kmh 29.81 in1009.5 mb 0.00 in0.0 mm 0.00 in/hr0.0 mm/hr 0.04 in1.0 mm
06:35 PM 65.6°F18.7°C 50.0°F10.0°C 57% 7.0 mph NW11.3 kmh NW 22.0 mph35.4 kmh 29.81 in1009.5 mb 0.00 in0.0 mm 0.00 in/hr0.0 mm/hr 0.04 in1.0 mm
06:38 PM 65.4°F18.6°C 49.8°F9.9°C 57% 8.0 mph WNW12.9 kmh WNW 22.0 mph35.4 kmh 29.81 in1009.5 mb 0.00 in0.0 mm 0.00 in/hr0.0 mm/hr 0.04 in1.0 mm
06:39 PM 65.3°F18.5°C 50.2°F10.1°C 58% 8.0 mph NW12.9 kmh NW 22.0 mph35.4 kmh 29.81 in1009.5 mb 0.00 in0.0 mm 0.00 in/hr0.0 mm/hr 0.04 in1.0 mm
06:40 PM 65.3°F18.5°C 50.2°F10.1°C 58% 10.0 mph NW16.1 kmh NW 22.0 mph35.4 kmh 29.81 in1009.5 mb 0.00 in0.0 mm 0.00 in/hr0.0 mm/hr 0.04 in1.0 mm
06:43 PM 65.7°F18.7°C 50.5°F10.3°C 58% 9.0 mph NW14.5 kmh NW 22.0 mph35.4 kmh 29.81 in1009.5 mb 0.00 in0.0 mm 0.00 in/hr0.0 mm/hr 0.04 in1.0 mm
06:44 PM 65.7°F18.7°C 50.5°F10.3°C 58% 9.0 mph WNW14.5 kmh WNW 22.0 mph35.4 kmh 29.81 in1009.5 mb 0.00 in0.0 mm 0.00 in/hr0.0 mm/hr 0.04 in1.0 mm
06:45 PM 65.8°F18.8°C 50.6°F10.3°C 58% 6.0 mph NNW9.7 kmh NNW 22.0 mph35.4 kmh 29.81 in1009.5 mb 0.00 in0.0 mm 0.00 in/hr0.0 mm/hr 0.04 in1.0 mm
06:48 PM 65.8°F18.8°C 50.2°F10.1°C 57% 13.0 mph NNE20.9 kmh NNE 22.0 mph35.4 kmh 29.81 in1009.5 mb 0.00 in0.0 mm 0.00 in/hr0.0 mm/hr 0.04 in1.0 mm
06:49 PM 65.7°F18.7°C 50.5°F10.3°C 58% 14.0 mph N22.5 kmh N 22.0 mph35.4 kmh 29.81 in1009.5 mb 0.00 in0.0 mm 0.00 in/hr0.0 mm/hr 0.04 in1.0 mm
06:50 PM 65.6°F18.7°C 50.4°F10.2°C 58% 15.0 mph N24.1 kmh N 22.0 mph35.4 kmh 29.81 in1009.5 mb 0.00 in0.0 mm 0.00 in/hr0.0 mm/hr 0.04 in1.0 mm
06:53 PM 65.7°F18.7°C 51.0°F10.6°C 59% 7.0 mph NW11.3 kmh NW 22.0 mph35.4 kmh 29.81 in1009.5 mb 0.00 in0.0 mm 0.00 in/hr0.0 mm/hr 0.04 in1.0 mm
06:54 PM 65.9°F18.8°C 51.2°F10.7°C 59% 4.0 mph NW6.4 kmh NW 22.0 mph35.4 kmh 29.82 in1009.8 mb 0.00 in0.0 mm 0.00 in/hr0.0 mm/hr 0.04 in1.0 mm
06:55 PM 66.1°F18.9°C 50.9°F10.5°C 58% 9.0 mph NW14.5 kmh NW 22.0 mph35.4 kmh 29.81 in1009.5 mb 0.00 in0.0 mm 0.00 in/hr0.0 mm/hr 0.04 in1.0 mm
06:58 PM 66.2°F19.0°C 51.0°F10.6°C 58% 4.0 mph WNW6.4 kmh WNW 22.0 mph35.4 kmh 29.82 in1009.8 mb 0.00 in0.0 mm 0.00 in/hr0.0 mm/hr 0.04 in1.0 mm
06:59 PM 66.4°F19.1°C 51.2°F10.7°C 58% 6.0 mph N9.7 kmh N 22.0 mph35.4 kmh 29.82 in1009.8 mb 0.00 in0.0 mm 0.00 in/hr0.0 mm/hr 0.04 in1.0 mm
07:00 PM 66.5°F19.2°C 51.3°F10.7°C 58% 7.0 mph NNW11.3 kmh NNW 7.0 mph11.3 kmh 29.82 in1009.8 mb 0.00 in0.0 mm 0.00 in/hr0.0 mm/hr 0.04 in1.0 mm
07:03 PM 66.3°F19.1°C 51.1°F10.6°C 58% 15.0 mph N24.1 kmh N 19.0 mph30.6 kmh 29.82 in1009.8 mb 0.00 in0.0 mm 0.00 in/hr0.0 mm/hr 0.04 in1.0 mm
07:04 PM 66.2°F19.0°C 51.0°F10.6°C 58% 7.0 mph N11.3 kmh N 19.0 mph30.6 kmh 29.82 in1009.8 mb 0.00 in0.0 mm 0.00 in/hr0.0 mm/hr 0.04 in1.0 mm
07:05 PM 66.1°F18.9°C 50.9°F10.5°C 58% 4.0 mph NNW6.4 kmh NNW 19.0 mph30.6 kmh 29.82 in1009.8 mb 0.00 in0.0 mm 0.00 in/hr0.0 mm/hr 0.04 in1.0 mm
07:08 PM 66.2°F19.0°C 51.0°F10.6°C 58% 17.0 mph NE27.4 kmh NE 19.0 mph30.6 kmh 29.81 in1009.5 mb 0.00 in0.0 mm 0.00 in/hr0.0 mm/hr 0.04 in1.0 mm
07:09 PM 66.2°F19.0°C 51.0°F10.6°C 58% 6.0 mph NE9.7 kmh NE 19.0 mph30.6 kmh 29.81 in1009.5 mb 0.00 in0.0 mm 0.00 in/hr0.0 mm/hr 0.04 in1.0 mm
07:10 PM 66.1°F18.9°C 51.4°F10.8°C 59% 13.0 mph NNW20.9 kmh NNW 19.0 mph30.6 kmh 29.82 in1009.8 mb 0.00 in0.0 mm 0.00 in/hr0.0 mm/hr 0.04 in1.0 mm
07:13 PM 66.0°F18.9°C 51.3°F10.7°C 59% 6.0 mph N9.7 kmh N 19.0 mph30.6 kmh 29.82 in1009.8 mb 0.00 in0.0 mm 0.00 in/hr0.0 mm/hr 0.04 in1.0 mm
07:14 PM 66.1°F18.9°C 51.4°F10.8°C 59% 8.0 mph N12.9 kmh N 19.0 mph30.6 kmh 29.82 in1009.8 mb 0.00 in0.0 mm 0.00 in/hr0.0 mm/hr 0.04 in1.0 mm
07:15 PM 66.2°F19.0°C 51.5°F10.8°C 59% 6.0 mph N9.7 kmh N 19.0 mph30.6 kmh 29.81 in1009.5 mb 0.00 in0.0 mm 0.00 in/hr0.0 mm/hr 0.04 in1.0 mm
07:18 PM 66.2°F19.0°C 51.0°F10.6°C 58% 7.0 mph N11.3 kmh N 19.0 mph30.6 kmh 29.82 in1009.8 mb 0.00 in0.0 mm 0.00 in/hr0.0 mm/hr 0.04 in1.0 mm
07:19 PM 66.2°F19.0°C 51.0°F10.6°C 58% 12.0 mph NNW19.3 kmh NNW 19.0 mph30.6 kmh 29.82 in1009.8 mb 0.00 in0.0 mm 0.00 in/hr0.0 mm/hr 0.04 in1.0 mm
07:20 PM 66.1°F18.9°C 50.9°F10.5°C 58% 10.0 mph N16.1 kmh N 19.0 mph30.6 kmh 29.81 in1009.5 mb 0.00 in0.0 mm 0.00 in/hr0.0 mm/hr 0.04 in1.0 mm
07:23 PM 66.2°F19.0°C 51.5°F10.8°C 59% 10.0 mph NW16.1 kmh NW 19.0 mph30.6 kmh 29.82 in1009.8 mb 0.00 in0.0 mm 0.00 in/hr0.0 mm/hr 0.04 in1.0 mm
07:24 PM 66.2°F19.0°C 51.5°F10.8°C 59% 5.0 mph NW8.0 kmh NW 19.0 mph30.6 kmh 29.81 in1009.5 mb 0.00 in0.0 mm 0.00 in/hr0.0 mm/hr 0.04 in1.0 mm
07:25 PM 66.2°F19.0°C 51.5°F10.8°C 59% 8.0 mph NW12.9 kmh NW 19.0 mph30.6 kmh 29.82 in1009.8 mb 0.00 in0.0 mm 0.00 in/hr0.0 mm/hr 0.04 in1.0 mm
07:28 PM 66.1°F18.9°C 51.4°F10.8°C 59% 5.0 mph NW8.0 kmh NW 19.0 mph30.6 kmh 29.82 in1009.8 mb 0.00 in0.0 mm 0.00 in/hr0.0 mm/hr 0.04 in1.0 mm
07:29 PM 66.1°F18.9°C 51.4°F10.8°C 59% 6.0 mph N9.7 kmh N 19.0 mph30.6 kmh 29.82 in1009.8 mb 0.00 in0.0 mm 0.00 in/hr0.0 mm/hr 0.04 in1.0 mm
07:30 PM 66.2°F19.0°C 51.5°F10.8°C 59% 5.0 mph N8.0 kmh N 19.0 mph30.6 kmh 29.82 in1009.8 mb 0.00 in0.0 mm 0.00 in/hr0.0 mm/hr 0.04 in1.0 mm
07:33 PM 66.4°F19.1°C 51.7°F10.9°C 59% 6.0 mph N9.7 kmh N 19.0 mph30.6 kmh 29.82 in1009.8 mb 0.00 in0.0 mm 0.00 in/hr0.0 mm/hr 0.04 in1.0 mm
07:34 PM 66.4°F19.1°C 51.7°F10.9°C 59% 7.0 mph NW11.3 kmh NW 19.0 mph30.6 kmh 29.82 in1009.8 mb 0.00 in0.0 mm 0.00 in/hr0.0 mm/hr 0.04 in1.0 mm
07:35 PM 66.4°F19.1°C 51.7°F10.9°C 59% 6.0 mph N9.7 kmh N 19.0 mph30.6 kmh 29.82 in1009.8 mb 0.00 in0.0 mm 0.00 in/hr0.0 mm/hr 0.04 in1.0 mm
07:38 PM 66.3°F19.1°C 51.6°F10.9°C 59% 10.0 mph WNW16.1 kmh WNW 19.0 mph30.6 kmh 29.82 in1009.8 mb 0.00 in0.0 mm 0.00 in/hr0.0 mm/hr 0.04 in1.0 mm
07:39 PM 66.3°F19.1°C 51.6°F10.9°C 59% 8.0 mph NNW12.9 kmh NNW 19.0 mph30.6 kmh 29.82 in1009.8 mb 0.00 in0.0 mm 0.00 in/hr0.0 mm/hr 0.04 in1.0 mm
07:40 PM 66.3°F19.1°C 51.6°F10.9°C 59% 5.0 mph N8.0 kmh N 19.0 mph30.6 kmh 29.82 in1009.8 mb 0.00 in0.0 mm 0.00 in/hr0.0 mm/hr 0.04 in1.0 mm
07:43 PM 66.2°F19.0°C 51.5°F10.8°C 59% 6.0 mph NNE9.7 kmh NNE 19.0 mph30.6 kmh 29.82 in1009.8 mb 0.00 in0.0 mm 0.00 in/hr0.0 mm/hr 0.04 in1.0 mm
07:44 PM 66.1°F18.9°C 51.4°F10.8°C 59% 9.0 mph NW14.5 kmh NW 19.0 mph30.6 kmh 29.82 in1009.8 mb 0.00 in0.0 mm 0.00 in/hr0.0 mm/hr 0.04 in1.0 mm
07:45 PM 65.9°F18.8°C 51.2°F10.7°C 59% Calm Calm 19.0 mph30.6 kmh 29.82 in1009.8 mb 0.00 in0.0 mm 0.00 in/hr0.0 mm/hr 0.04 in1.0 mm
07:48 PM 66.1°F18.9°C 51.4°F10.8°C 59% 13.0 mph NNE20.9 kmh NNE 19.0 mph30.6 kmh 29.82 in1009.8 mb 0.00 in0.0 mm 0.00 in/hr0.0 mm/hr 0.04 in1.0 mm
07:49 PM 66.0°F18.9°C 51.7°F10.9°C 60% 11.0 mph NNE17.7 kmh NNE 19.0 mph30.6 kmh 29.82 in1009.8 mb 0.00 in0.0 mm 0.00 in/hr0.0 mm/hr 0.04 in1.0 mm
07:50 PM 65.9°F18.8°C 51.6°F10.9°C 60% 5.0 mph N8.0 kmh N 19.0 mph30.6 kmh 29.82 in1009.8 mb 0.00 in0.0 mm 0.00 in/hr0.0 mm/hr 0.04 in1.0 mm
07:53 PM 65.8°F18.8°C 51.6°F10.9°C 60% 11.0 mph N17.7 kmh N 19.0 mph30.6 kmh 29.83 in1010.2 mb 0.00 in0.0 mm 0.00 in/hr0.0 mm/hr 0.04 in1.0 mm
07:54 PM 65.8°F18.8°C 51.6°F10.9°C 60% 5.0 mph NW8.0 kmh NW 19.0 mph30.6 kmh 29.83 in1010.2 mb 0.00 in0.0 mm 0.00 in/hr0.0 mm/hr 0.04 in1.0 mm
07:55 PM 65.8°F18.8°C 51.6°F10.9°C 60% 9.0 mph NW14.5 kmh NW 19.0 mph30.6 kmh 29.82 in1009.8 mb 0.00 in0.0 mm 0.00 in/hr0.0 mm/hr 0.04 in1.0 mm
07:58 PM 65.5°F18.6°C 51.7°F10.9°C 61% 12.0 mph N19.3 kmh N 19.0 mph30.6 kmh 29.82 in1009.8 mb 0.00 in0.0 mm 0.00 in/hr0.0 mm/hr 0.04 in1.0 mm
07:59 PM 65.5°F18.6°C 51.7°F10.9°C 61% 9.0 mph NNW14.5 kmh NNW 19.0 mph30.6 kmh 29.82 in1009.8 mb 0.00 in0.0 mm 0.00 in/hr0.0 mm/hr 0.04 in1.0 mm
08:00 PM 65.5°F18.6°C 51.7°F10.9°C 61% 5.0 mph WNW8.0 kmh WNW 6.0 mph9.7 kmh 29.82 in1009.8 mb 0.00 in0.0 mm 0.00 in/hr0.0 mm/hr 0.04 in1.0 mm
08:03 PM 65.3°F18.5°C 51.5°F10.8°C 61% 8.0 mph NW12.9 kmh NW 15.0 mph24.1 kmh 29.82 in1009.8 mb 0.00 in0.0 mm 0.00 in/hr0.0 mm/hr 0.04 in1.0 mm
08:04 PM 65.3°F18.5°C 51.5°F10.8°C 61% 6.0 mph NW9.7 kmh NW 15.0 mph24.1 kmh 29.82 in1009.8 mb 0.00 in0.0 mm 0.00 in/hr0.0 mm/hr 0.04 in1.0 mm
08:05 PM 65.2°F18.4°C 51.9°F11.1°C 62% 4.0 mph NW6.4 kmh NW 15.0 mph24.1 kmh 29.83 in1010.2 mb 0.00 in0.0 mm 0.00 in/hr0.0 mm/hr 0.04 in1.0 mm
08:08 PM 65.0°F18.3°C 51.7°F10.9°C 62% 6.0 mph N9.7 kmh N 15.0 mph24.1 kmh 29.82 in1009.8 mb 0.00 in0.0 mm 0.00 in/hr0.0 mm/hr 0.04 in1.0 mm
08:09 PM 65.0°F18.3°C 51.7°F10.9°C 62% 7.0 mph N11.3 kmh N 15.0 mph24.1 kmh 29.83 in1010.2 mb 0.00 in0.0 mm 0.00 in/hr0.0 mm/hr 0.04 in1.0 mm
08:10 PM 65.1°F18.4°C 51.8°F11.0°C 62% 8.0 mph N12.9 kmh N 18.0 mph29.0 kmh 29.83 in1010.2 mb 0.00 in0.0 mm 0.00 in/hr0.0 mm/hr 0.04 in1.0 mm
08:13 PM 65.1°F18.4°C 51.8°F11.0°C 62% 3.0 mph N4.8 kmh N 18.0 mph29.0 kmh 29.83 in1010.2 mb 0.00 in0.0 mm 0.00 in/hr0.0 mm/hr 0.04 in1.0 mm
08:14 PM 65.2°F18.4°C 51.9°F11.1°C 62% 8.0 mph N12.9 kmh N 18.0 mph29.0 kmh 29.83 in1010.2 mb 0.00 in0.0 mm 0.00 in/hr0.0 mm/hr 0.04 in1.0 mm
08:15 PM 65.1°F18.4°C 51.8°F11.0°C 62% 9.0 mph N14.5 kmh N 18.0 mph29.0 kmh 29.83 in1010.2 mb 0.00 in0.0 mm 0.00 in/hr0.0 mm/hr 0.04 in1.0 mm
08:18 PM 64.9°F18.3°C 51.6°F10.9°C 62% 13.0 mph N20.9 kmh N 18.0 mph29.0 kmh 29.83 in1010.2 mb 0.00 in0.0 mm 0.00 in/hr0.0 mm/hr 0.04 in1.0 mm
08:19 PM 64.8°F18.2°C 51.5°F10.8°C 62% 3.0 mph N4.8 kmh N 18.0 mph29.0 kmh 29.83 in1010.2 mb 0.00 in0.0 mm 0.00 in/hr0.0 mm/hr 0.04 in1.0 mm
08:20 PM 64.7°F18.2°C 51.4°F10.8°C 62% 7.0 mph N11.3 kmh N 18.0 mph29.0 kmh 29.83 in1010.2 mb 0.00 in0.0 mm 0.00 in/hr0.0 mm/hr 0.04 in1.0 mm
08:23 PM 64.6°F18.1°C 51.7°F10.9°C 63% 3.0 mph NW4.8 kmh NW 18.0 mph29.0 kmh 29.83 in1010.2 mb 0.00 in0.0 mm 0.00 in/hr0.0 mm/hr 0.04 in1.0 mm
08:24 PM 64.6°F18.1°C 51.7°F10.9°C 63% 6.0 mph NNE9.7 kmh NNE 18.0 mph29.0 kmh 29.83 in1010.2 mb 0.00 in0.0 mm 0.00 in/hr0.0 mm/hr 0.04 in1.0 mm
08:25 PM 64.7°F18.2°C 51.8°F11.0°C 63% 10.0 mph NNW16.1 kmh NNW 18.0 mph29.0 kmh 29.83 in1010.2 mb 0.00 in0.0 mm 0.00 in/hr0.0 mm/hr 0.04 in1.0 mm
08:28 PM 64.5°F18.1°C 51.6°F10.9°C 63% 7.0 mph NW11.3 kmh NW 18.0 mph29.0 kmh 29.83 in1010.2 mb 0.00 in0.0 mm 0.00 in/hr0.0 mm/hr 0.04 in1.0 mm
08:29 PM 64.5°F18.1°C 51.6°F10.9°C 63% 6.0 mph N9.7 kmh N 18.0 mph29.0 kmh 29.83 in1010.2 mb 0.00 in0.0 mm 0.00 in/hr0.0 mm/hr 0.04 in1.0 mm
08:30 PM 64.4°F18.0°C 51.6°F10.9°C 63% 7.0 mph NNE11.3 kmh NNE 18.0 mph29.0 kmh 29.83 in1010.2 mb 0.00 in0.0 mm 0.00 in/hr0.0 mm/hr 0.04 in1.0 mm
08:33 PM 64.3°F17.9°C 51.5°F10.8°C 63% 11.0 mph NNW17.7 kmh NNW 18.0 mph29.0 kmh 29.83 in1010.2 mb 0.00 in0.0 mm 0.00 in/hr0.0 mm/hr 0.04 in1.0 mm
08:34 PM 64.3°F17.9°C 51.5°F10.8°C 63% 7.0 mph NNW11.3 kmh NNW 18.0 mph29.0 kmh 29.83 in1010.2 mb 0.00 in0.0 mm 0.00 in/hr0.0 mm/hr 0.04 in1.0 mm
08:35 PM 64.2°F17.9°C 51.4°F10.8°C 63% 11.0 mph N17.7 kmh N 18.0 mph29.0 kmh 29.83 in1010.2 mb 0.00 in0.0 mm 0.00 in/hr0.0 mm/hr 0.04 in1.0 mm
08:38 PM 64.1°F17.8°C 51.3°F10.7°C 63% 10.0 mph WNW16.1 kmh WNW 18.0 mph29.0 kmh 29.83 in1010.2 mb 0.00 in0.0 mm 0.00 in/hr0.0 mm/hr 0.04 in1.0 mm
08:39 PM 64.0°F17.8°C 51.2°F10.7°C 63% 8.0 mph NW12.9 kmh NW 18.0 mph29.0 kmh 29.83 in1010.2 mb 0.00 in0.0 mm 0.00 in/hr0.0 mm/hr 0.04 in1.0 mm
08:40 PM 64.0°F17.8°C 51.2°F10.7°C 63% 5.0 mph NNW8.0 kmh NNW 18.0 mph29.0 kmh 29.83 in1010.2 mb 0.00 in0.0 mm 0.00 in/hr0.0 mm/hr 0.04 in1.0 mm
08:43 PM 63.9°F17.7°C 51.5°F10.8°C 64% 3.0 mph NNE4.8 kmh NNE 18.0 mph29.0 kmh 29.83 in1010.2 mb 0.00 in0.0 mm 0.00 in/hr0.0 mm/hr 0.04 in1.0 mm
08:44 PM 63.9°F17.7°C 51.5°F10.8°C 64% 14.0 mph NE22.5 kmh NE 18.0 mph29.0 kmh 29.83 in1010.2 mb 0.00 in0.0 mm 0.00 in/hr0.0 mm/hr 0.04 in1.0 mm
08:45 PM 63.9°F17.7°C 51.5°F10.8°C 64% 5.0 mph NNE8.0 kmh NNE 18.0 mph29.0 kmh 29.83 in1010.2 mb 0.00 in0.0 mm 0.00 in/hr0.0 mm/hr 0.04 in1.0 mm
08:48 PM 63.8°F17.7°C 51.4°F10.8°C 64% 6.0 mph NNW9.7 kmh NNW 18.0 mph29.0 kmh 29.83 in1010.2 mb 0.00 in0.0 mm 0.00 in/hr0.0 mm/hr 0.04 in1.0 mm
08:49 PM 63.8°F17.7°C 51.4°F10.8°C 64% 9.0 mph NW14.5 kmh NW 18.0 mph29.0 kmh 29.83 in1010.2 mb 0.00 in0.0 mm 0.00 in/hr0.0 mm/hr 0.04 in1.0 mm
08:50 PM 63.7°F17.6°C 51.3°F10.7°C 64% 1.0 mph NW1.6 kmh NW 18.0 mph29.0 kmh 29.83 in1010.2 mb 0.00 in0.0 mm 0.00 in/hr0.0 mm/hr 0.04 in1.0 mm
08:53 PM 63.7°F17.6°C 51.3°F10.7°C 64% 5.0 mph NNW8.0 kmh NNW 19.0 mph30.6 kmh 29.83 in1010.2 mb 0.00 in0.0 mm 0.00 in/hr0.0 mm/hr 0.04 in1.0 mm
08:54 PM 63.7°F17.6°C 51.3°F10.7°C 64% 3.0 mph N4.8 kmh N 19.0 mph30.6 kmh 29.83 in1010.2 mb 0.00 in0.0 mm 0.00 in/hr0.0 mm/hr 0.04 in1.0 mm
08:55 PM 63.7°F17.6°C 51.7°F10.9°C 65% 12.0 mph N19.3 kmh N 19.0 mph30.6 kmh 29.83 in1010.2 mb 0.00 in0.0 mm 0.00 in/hr0.0 mm/hr 0.04 in1.0 mm
08:58 PM 63.6°F17.6°C 51.6°F10.9°C 65% 7.0 mph NNW11.3 kmh NNW 19.0 mph30.6 kmh 29.83 in1010.2 mb 0.00 in0.0 mm 0.00 in/hr0.0 mm/hr 0.04 in1.0 mm
08:59 PM 63.6°F17.6°C 51.6°F10.9°C 65% 8.0 mph NNW12.9 kmh NNW 19.0 mph30.6 kmh 29.83 in1010.2 mb 0.00 in0.0 mm 0.00 in/hr0.0 mm/hr 0.04 in1.0 mm
09:00 PM 63.5°F17.5°C 51.5°F10.8°C 65% 8.0 mph N12.9 kmh N 11.0 mph17.7 kmh 29.83 in1010.2 mb 0.00 in0.0 mm 0.00 in/hr0.0 mm/hr 0.04 in1.0 mm
09:03 PM 63.5°F17.5°C 51.5°F10.8°C 65% 9.0 mph NNW14.5 kmh NNW 17.0 mph27.4 kmh 29.83 in1010.2 mb 0.00 in0.0 mm 0.00 in/hr0.0 mm/hr 0.04 in1.0 mm
09:04 PM 63.5°F17.5°C 51.5°F10.8°C 65% 11.0 mph N17.7 kmh N 17.0 mph27.4 kmh 29.83 in1010.2 mb 0.00 in0.0 mm 0.00 in/hr0.0 mm/hr 0.04 in1.0 mm
09:05 PM 63.4°F17.4°C 51.4°F10.8°C 65% 6.0 mph NNW9.7 kmh NNW 17.0 mph27.4 kmh 29.84 in1010.5 mb 0.00 in0.0 mm 0.00 in/hr0.0 mm/hr 0.04 in1.0 mm
09:08 PM 63.3°F17.4°C 51.4°F10.8°C 65% 6.0 mph N9.7 kmh N 20.0 mph32.2 kmh 29.84 in1010.5 mb 0.00 in0.0 mm 0.00 in/hr0.0 mm/hr 0.04 in1.0 mm
09:09 PM 63.4°F17.4°C 51.4°F10.8°C 65% 10.0 mph N16.1 kmh N 20.0 mph32.2 kmh 29.84 in1010.5 mb 0.00 in0.0 mm 0.00 in/hr0.0 mm/hr 0.04 in1.0 mm
09:10 PM 63.3°F17.4°C 51.4°F10.8°C 65% 12.0 mph N19.3 kmh N 20.0 mph32.2 kmh 29.84 in1010.5 mb 0.00 in0.0 mm 0.00 in/hr0.0 mm/hr 0.04 in1.0 mm
09:13 PM 63.3°F17.4°C 51.4°F10.8°C 65% 6.0 mph NNW9.7 kmh NNW 20.0 mph32.2 kmh 29.84 in1010.5 mb 0.00 in0.0 mm 0.00 in/hr0.0 mm/hr 0.04 in1.0 mm
09:14 PM 63.3°F17.4°C 51.4°F10.8°C 65% 6.0 mph N9.7 kmh N 20.0 mph32.2 kmh 29.84 in1010.5 mb 0.00 in0.0 mm 0.00 in/hr0.0 mm/hr 0.04 in1.0 mm
09:15 PM 63.3°F17.4°C 51.4°F10.8°C 65% 4.0 mph NNE6.4 kmh NNE 20.0 mph32.2 kmh 29.84 in1010.5 mb 0.00 in0.0 mm 0.00 in/hr0.0 mm/hr 0.04 in1.0 mm
09:18 PM 63.3°F17.4°C 51.4°F10.8°C 65% 8.0 mph NE12.9 kmh NE 20.0 mph32.2 kmh 29.84 in1010.5 mb 0.00 in0.0 mm 0.00 in/hr0.0 mm/hr 0.04 in1.0 mm
09:19 PM 63.3°F17.4°C 51.4°F10.8°C 65% 4.0 mph N6.4 kmh N 20.0 mph32.2 kmh 29.84 in1010.5 mb 0.00 in0.0 mm 0.00 in/hr0.0 mm/hr 0.04 in1.0 mm
09:20 PM 63.2°F17.3°C 51.3°F10.7°C 65% 5.0 mph N8.0 kmh N 20.0 mph32.2 kmh 29.84 in1010.5 mb 0.00 in0.0 mm 0.00 in/hr0.0 mm/hr 0.04 in1.0 mm
09:23 PM 63.2°F17.3°C 51.3°F10.7°C 65% 6.0 mph NNE9.7 kmh NNE 20.0 mph32.2 kmh 29.84 in1010.5 mb 0.00 in0.0 mm 0.00 in/hr0.0 mm/hr 0.04 in1.0 mm
09:24 PM 63.2°F17.3°C 51.3°F10.7°C 65% 5.0 mph N8.0 kmh N 20.0 mph32.2 kmh 29.84 in1010.5 mb 0.00 in0.0 mm 0.00 in/hr0.0 mm/hr 0.04 in1.0 mm
09:25 PM 63.2°F17.3°C 51.7°F10.9°C 66% 6.0 mph N9.7 kmh N 20.0 mph32.2 kmh 29.84 in1010.5 mb 0.00 in0.0 mm 0.00 in/hr0.0 mm/hr 0.04 in1.0 mm
09:28 PM 63.1°F17.3°C 51.6°F10.9°C 66% 6.0 mph NNW9.7 kmh NNW 20.0 mph32.2 kmh 29.84 in1010.5 mb 0.00 in0.0 mm 0.00 in/hr0.0 mm/hr 0.04 in1.0 mm
09:29 PM 63.1°F17.3°C 51.6°F10.9°C 66% 6.0 mph NW9.7 kmh NW 20.0 mph32.2 kmh 29.84 in1010.5 mb 0.00 in0.0 mm 0.00 in/hr0.0 mm/hr 0.04 in1.0 mm
09:30 PM 63.0°F17.2°C 51.5°F10.8°C 66% 4.0 mph NW6.4 kmh NW 20.0 mph32.2 kmh 29.84 in1010.5 mb 0.00 in0.0 mm 0.00 in/hr0.0 mm/hr 0.04 in1.0 mm
09:33 PM 63.0°F17.2°C 51.5°F10.8°C 66% 5.0 mph N8.0 kmh N 20.0 mph32.2 kmh 29.84 in1010.5 mb 0.00 in0.0 mm 0.00 in/hr0.0 mm/hr 0.04 in1.0 mm
09:34 PM 63.0°F17.2°C 51.5°F10.8°C 66% 5.0 mph NNW8.0 kmh NNW 20.0 mph32.2 kmh 29.84 in1010.5 mb 0.00 in0.0 mm 0.00 in/hr0.0 mm/hr 0.04 in1.0 mm
09:35 PM 63.0°F17.2°C 51.5°F10.8°C 66% 7.0 mph N11.3 kmh N 20.0 mph32.2 kmh 29.85 in1010.8 mb 0.00 in0.0 mm 0.00 in/hr0.0 mm/hr 0.04 in1.0 mm
09:38 PM 62.9°F17.2°C 51.4°F10.8°C 66% 5.0 mph NNW8.0 kmh NNW 20.0 mph32.2 kmh 29.85 in1010.8 mb 0.00 in0.0 mm 0.00 in/hr0.0 mm/hr 0.04 in1.0 mm
09:39 PM 62.8°F17.1°C 51.3°F10.7°C 66% 7.0 mph NW11.3 kmh NW 20.0 mph32.2 kmh 29.85 in1010.8 mb 0.00 in0.0 mm 0.00 in/hr0.0 mm/hr 0.04 in1.0 mm
09:40 PM 62.8°F17.1°C 51.3°F10.7°C 66% 1.0 mph NW1.6 kmh NW 20.0 mph32.2 kmh 29.85 in1010.8 mb 0.00 in0.0 mm 0.00 in/hr0.0 mm/hr 0.04 in1.0 mm
09:43 PM 62.7°F17.1°C 51.2°F10.7°C 66% 3.0 mph NW4.8 kmh NW 20.0 mph32.2 kmh 29.85 in1010.8 mb 0.00 in0.0 mm 0.00 in/hr0.0 mm/hr 0.04 in1.0 mm
09:44 PM 62.7°F17.1°C 52.0°F11.1°C 68% 4.0 mph NW6.4 kmh NW 20.0 mph32.2 kmh 29.85 in1010.8 mb 0.00 in0.0 mm 0.00 in/hr0.0 mm/hr 0.04 in1.0 mm
09:45 PM 62.7°F17.1°C 52.0°F11.1°C 68% 3.0 mph NW4.8 kmh NW 20.0 mph32.2 kmh 29.85 in1010.8 mb 0.00 in0.0 mm 0.00 in/hr0.0 mm/hr 0.04 in1.0 mm
09:48 PM 62.6°F17.0°C 51.1°F10.6°C 66% 4.0 mph NW6.4 kmh NW 20.0 mph32.2 kmh 29.85 in1010.8 mb 0.00 in0.0 mm 0.00 in/hr0.0 mm/hr 0.04 in1.0 mm
09:49 PM 62.6°F17.0°C 51.5°F10.8°C 67% 4.0 mph NW6.4 kmh NW 20.0 mph32.2 kmh 29.85 in1010.8 mb 0.00 in0.0 mm 0.00 in/hr0.0 mm/hr 0.04 in1.0 mm
09:50 PM 62.6°F17.0°C 51.5°F10.8°C 67% 6.0 mph NW9.7 kmh NW 20.0 mph32.2 kmh 29.85 in1010.8 mb 0.00 in0.0 mm 0.00 in/hr0.0 mm/hr 0.04 in1.0 mm
09:53 PM 62.6°F17.0°C 51.5°F10.8°C 67% 6.0 mph NW9.7 kmh NW 20.0 mph32.2 kmh 29.85 in1010.8 mb 0.00 in0.0 mm 0.00 in/hr0.0 mm/hr 0.04 in1.0 mm
09:54 PM 62.5°F16.9°C 51.4°F10.8°C 67% 4.0 mph NW6.4 kmh NW 20.0 mph32.2 kmh 29.85 in1010.8 mb 0.00 in0.0 mm 0.00 in/hr0.0 mm/hr 0.04 in1.0 mm
09:55 PM 62.5°F16.9°C 51.4°F10.8°C 67% 4.0 mph NW6.4 kmh NW 20.0 mph32.2 kmh 29.85 in1010.8 mb 0.00 in0.0 mm 0.00 in/hr0.0 mm/hr 0.04 in1.0 mm
09:58 PM 62.4°F16.9°C 51.3°F10.7°C 67% 6.0 mph NW9.7 kmh NW 20.0 mph32.2 kmh 29.85 in1010.8 mb 0.00 in0.0 mm 0.00 in/hr0.0 mm/hr 0.04 in1.0 mm
09:59 PM 62.4°F16.9°C 51.3°F10.7°C 67% 5.0 mph NW8.0 kmh NW 20.0 mph32.2 kmh 29.85 in1010.8 mb 0.00 in0.0 mm 0.00 in/hr0.0 mm/hr 0.04 in1.0 mm
10:00 PM 62.4°F16.9°C 51.3°F10.7°C 67% 6.0 mph NW9.7 kmh NW 6.0 mph9.7 kmh 29.85 in1010.8 mb 0.00 in0.0 mm 0.00 in/hr0.0 mm/hr 0.04 in1.0 mm
10:03 PM 62.4°F16.9°C 51.3°F10.7°C 67% 9.0 mph NW14.5 kmh NW 10.0 mph16.1 kmh 29.85 in1010.8 mb 0.00 in0.0 mm 0.00 in/hr0.0 mm/hr 0.04 in1.0 mm
10:04 PM 62.4°F16.9°C 51.3°F10.7°C 67% 5.0 mph NW8.0 kmh NW 10.0 mph16.1 kmh 29.85 in1010.8 mb 0.00 in0.0 mm 0.00 in/hr0.0 mm/hr 0.04 in1.0 mm
10:05 PM 62.4°F16.9°C 51.3°F10.7°C 67% 5.0 mph NW8.0 kmh NW 10.0 mph16.1 kmh 29.85 in1010.8 mb 0.00 in0.0 mm 0.00 in/hr0.0 mm/hr 0.04 in1.0 mm
10:08 PM 62.3°F16.8°C 51.2°F10.7°C 67% 7.0 mph NW11.3 kmh NW 10.0 mph16.1 kmh 29.86 in1011.2 mb 0.00 in0.0 mm 0.00 in/hr0.0 mm/hr 0.04 in1.0 mm
10:09 PM 62.3°F16.8°C 51.2°F10.7°C 67% 4.0 mph NW6.4 kmh NW 10.0 mph16.1 kmh 29.86 in1011.2 mb 0.00 in0.0 mm 0.00 in/hr0.0 mm/hr 0.04 in1.0 mm
10:10 PM 62.3°F16.8°C 51.2°F10.7°C 67% 4.0 mph NW6.4 kmh NW 10.0 mph16.1 kmh 29.86 in1011.2 mb 0.00 in0.0 mm 0.00 in/hr0.0 mm/hr 0.04 in1.0 mm
10:13 PM 62.3°F16.8°C 51.2°F10.7°C 67% 4.0 mph NW6.4 kmh NW 10.0 mph16.1 kmh 29.86 in1011.2 mb 0.00 in0.0 mm 0.00 in/hr0.0 mm/hr 0.04 in1.0 mm
10:14 PM 62.2°F16.8°C 51.1°F10.6°C 67% 8.0 mph NW12.9 kmh NW 10.0 mph16.1 kmh 29.86 in1011.2 mb 0.00 in0.0 mm 0.00 in/hr0.0 mm/hr 0.04 in1.0 mm
10:15 PM 62.2°F16.8°C 51.1°F10.6°C 67% 4.0 mph NW6.4 kmh NW 10.0 mph16.1 kmh 29.86 in1011.2 mb 0.00 in0.0 mm 0.00 in/hr0.0 mm/hr 0.04 in1.0 mm
10:18 PM 62.1°F16.7°C 51.0°F10.6°C 67% 7.0 mph NW11.3 kmh NW 10.0 mph16.1 kmh 29.86 in1011.2 mb 0.00 in0.0 mm 0.00 in/hr0.0 mm/hr 0.04 in1.0 mm
10:19 PM 62.1°F16.7°C 51.0°F10.6°C 67% 5.0 mph NW8.0 kmh NW 10.0 mph16.1 kmh 29.86 in1011.2 mb 0.00 in0.0 mm 0.00 in/hr0.0 mm/hr 0.04 in1.0 mm
10:20 PM 62.1°F16.7°C 51.0°F10.6°C 67% 4.0 mph NW6.4 kmh NW 10.0 mph16.1 kmh 29.86 in1011.2 mb 0.00 in0.0 mm 0.00 in/hr0.0 mm/hr 0.04 in1.0 mm
10:23 PM 62.0°F16.7°C 51.3°F10.7°C 68% 4.0 mph NW6.4 kmh NW 10.0 mph16.1 kmh 29.86 in1011.2 mb 0.00 in0.0 mm 0.00 in/hr0.0 mm/hr 0.04 in1.0 mm
10:24 PM 62.0°F16.7°C 51.3°F10.7°C 68% 4.0 mph NW6.4 kmh NW 10.0 mph16.1 kmh 29.86 in1011.2 mb 0.00 in0.0 mm 0.00 in/hr0.0 mm/hr 0.04 in1.0 mm
10:25 PM 62.0°F16.7°C 50.9°F10.5°C 67% Calm Calm 10.0 mph16.1 kmh 29.86 in1011.2 mb 0.00 in0.0 mm 0.00 in/hr0.0 mm/hr 0.04 in1.0 mm
10:28 PM 61.9°F16.6°C 51.2°F10.7°C 68% 3.0 mph NW4.8 kmh NW 10.0 mph16.1 kmh 29.86 in1011.2 mb 0.00 in0.0 mm 0.00 in/hr0.0 mm/hr 0.04 in1.0 mm
10:29 PM 61.9°F16.6°C 51.2°F10.7°C 68% 4.0 mph NW6.4 kmh NW 10.0 mph16.1 kmh 29.86 in1011.2 mb 0.00 in0.0 mm 0.00 in/hr0.0 mm/hr 0.04 in1.0 mm
10:30 PM 61.9°F16.6°C 51.2°F10.7°C 68% 4.0 mph NW6.4 kmh NW 10.0 mph16.1 kmh 29.86 in1011.2 mb 0.00 in0.0 mm 0.00 in/hr0.0 mm/hr 0.04 in1.0 mm
10:33 PM 61.8°F16.6°C 51.1°F10.6°C 68% 5.0 mph NW8.0 kmh NW 11.0 mph17.7 kmh 29.86 in1011.2 mb 0.00 in0.0 mm 0.00 in/hr0.0 mm/hr 0.04 in1.0 mm
10:34 PM 61.8°F16.6°C 51.1°F10.6°C 68% 4.0 mph NNW6.4 kmh NNW 11.0 mph17.7 kmh 29.86 in1011.2 mb 0.00 in0.0 mm 0.00 in/hr0.0 mm/hr 0.04 in1.0 mm
10:35 PM 61.7°F16.5°C 51.0°F10.6°C 68% 3.0 mph NNW4.8 kmh NNW 11.0 mph17.7 kmh 29.86 in1011.2 mb 0.00 in0.0 mm 0.00 in/hr0.0 mm/hr 0.04 in1.0 mm
10:38 PM 61.7°F16.5°C 51.0°F10.6°C 68% 5.0 mph NW8.0 kmh NW 11.0 mph17.7 kmh 29.86 in1011.2 mb 0.00 in0.0 mm 0.00 in/hr0.0 mm/hr 0.04 in1.0 mm
10:39 PM 61.7°F16.5°C 51.0°F10.6°C 68% 5.0 mph NW8.0 kmh NW 11.0 mph17.7 kmh 29.86 in1011.2 mb 0.00 in0.0 mm 0.00 in/hr0.0 mm/hr 0.04 in1.0 mm
10:40 PM 61.6°F16.4°C 51.0°F10.6°C 68% 4.0 mph NW6.4 kmh NW 11.0 mph17.7 kmh 29.86 in1011.2 mb 0.00 in0.0 mm 0.00 in/hr0.0 mm/hr 0.04 in1.0 mm
10:43 PM 61.6°F16.4°C 51.3°F10.7°C 69% 9.0 mph NW14.5 kmh NW 11.0 mph17.7 kmh 29.86 in1011.2 mb 0.00 in0.0 mm 0.00 in/hr0.0 mm/hr 0.04 in1.0 mm
10:44 PM 61.6°F16.4°C 51.3°F10.7°C 69% 7.0 mph NW11.3 kmh NW 11.0 mph17.7 kmh 29.86 in1011.2 mb 0.00 in0.0 mm 0.00 in/hr0.0 mm/hr 0.04 in1.0 mm
10:45 PM 61.5°F16.4°C 51.3°F10.7°C 69% 4.0 mph NW6.4 kmh NW 11.0 mph17.7 kmh 29.86 in1011.2 mb 0.00 in0.0 mm 0.00 in/hr0.0 mm/hr 0.04 in1.0 mm
10:48 PM 61.5°F16.4°C 51.3°F10.7°C 69% 7.0 mph NW11.3 kmh NW 11.0 mph17.7 kmh 29.86 in1011.2 mb 0.00 in0.0 mm 0.00 in/hr0.0 mm/hr 0.04 in1.0 mm
10:49 PM 61.5°F16.4°C 51.3°F10.7°C 69% 1.0 mph NW1.6 kmh NW 11.0 mph17.7 kmh 29.86 in1011.2 mb 0.00 in0.0 mm 0.00 in/hr0.0 mm/hr 0.04 in1.0 mm
10:50 PM 61.5°F16.4°C 51.3°F10.7°C 69% 3.0 mph NW4.8 kmh NW 11.0 mph17.7 kmh 29.86 in1011.2 mb 0.00 in0.0 mm 0.00 in/hr0.0 mm/hr 0.04 in1.0 mm
10:53 PM 61.4°F16.3°C 51.2°F10.7°C 69% 5.0 mph NW8.0 kmh NW 11.0 mph17.7 kmh 29.86 in1011.2 mb 0.00 in0.0 mm 0.00 in/hr0.0 mm/hr 0.04 in1.0 mm
10:54 PM 61.4°F16.3°C 51.2°F10.7°C 69% 5.0 mph NW8.0 kmh NW 11.0 mph17.7 kmh 29.86 in1011.2 mb 0.00 in0.0 mm 0.00 in/hr0.0 mm/hr 0.04 in1.0 mm
10:55 PM 61.4°F16.3°C 51.2°F10.7°C 69% 2.0 mph NW3.2 kmh NW 11.0 mph17.7 kmh 29.86 in1011.2 mb 0.00 in0.0 mm 0.00 in/hr0.0 mm/hr 0.04 in1.0 mm
10:58 PM 61.4°F16.3°C 51.2°F10.7°C 69% 3.0 mph WNW4.8 kmh WNW 11.0 mph17.7 kmh 29.86 in1011.2 mb 0.00 in0.0 mm 0.00 in/hr0.0 mm/hr 0.04 in1.0 mm
10:59 PM 61.4°F16.3°C 51.2°F10.7°C 69% 2.0 mph WNW3.2 kmh WNW 11.0 mph17.7 kmh 29.86 in1011.2 mb 0.00 in0.0 mm 0.00 in/hr0.0 mm/hr 0.04 in1.0 mm
11:00 PM 61.4°F16.3°C 51.2°F10.7°C 69% 4.0 mph WNW6.4 kmh WNW 5.0 mph8.0 kmh 29.86 in1011.2 mb 0.00 in0.0 mm 0.00 in/hr0.0 mm/hr 0.04 in1.0 mm
11:03 PM 61.3°F16.3°C 51.1°F10.6°C 69% 3.0 mph WNW4.8 kmh WNW 7.0 mph11.3 kmh 29.86 in1011.2 mb 0.00 in0.0 mm 0.00 in/hr0.0 mm/hr 0.04 in1.0 mm
11:04 PM 61.3°F16.3°C 51.1°F10.6°C 69% 6.0 mph WNW9.7 kmh WNW 7.0 mph11.3 kmh 29.86 in1011.2 mb 0.00 in0.0 mm 0.00 in/hr0.0 mm/hr 0.04 in1.0 mm
11:05 PM 61.3°F16.3°C 51.1°F10.6°C 69% 4.0 mph WNW6.4 kmh WNW 7.0 mph11.3 kmh 29.86 in1011.2 mb 0.00 in0.0 mm 0.00 in/hr0.0 mm/hr 0.04 in1.0 mm
11:08 PM 61.2°F16.2°C 51.4°F10.8°C 70% 7.0 mph WNW11.3 kmh WNW 7.0 mph11.3 kmh 29.86 in1011.2 mb 0.00 in0.0 mm 0.00 in/hr0.0 mm/hr 0.04 in1.0 mm
11:09 PM 61.2°F16.2°C 51.4°F10.8°C 70% 4.0 mph NW6.4 kmh NW 7.0 mph11.3 kmh 29.86 in1011.2 mb 0.00 in0.0 mm 0.00 in/hr0.0 mm/hr 0.04 in1.0 mm
11:10 PM 61.2°F16.2°C 51.4°F10.8°C 70% 3.0 mph NW4.8 kmh NW 8.0 mph12.9 kmh 29.86 in1011.2 mb 0.00 in0.0 mm 0.00 in/hr0.0 mm/hr 0.04 in1.0 mm
11:13 PM 61.1°F16.2°C 51.3°F10.7°C 70% 4.0 mph NW6.4 kmh NW 11.0 mph17.7 kmh 29.86 in1011.2 mb 0.00 in0.0 mm 0.00 in/hr0.0 mm/hr 0.04 in1.0 mm
11:14 PM 61.1°F16.2°C 51.3°F10.7°C 70% 5.0 mph NW8.0 kmh NW 11.0 mph17.7 kmh 29.86 in1011.2 mb 0.00 in0.0 mm 0.00 in/hr0.0 mm/hr 0.04 in1.0 mm
11:15 PM 61.1°F16.2°C 51.3°F10.7°C 70% 3.0 mph NW4.8 kmh NW 11.0 mph17.7 kmh 29.86 in1011.2 mb 0.00 in0.0 mm 0.00 in/hr0.0 mm/hr 0.04 in1.0 mm
11:18 PM 61.0°F16.1°C 51.2°F10.7°C 70% 6.0 mph NW9.7 kmh NW 11.0 mph17.7 kmh 29.86 in1011.2 mb 0.00 in0.0 mm 0.00 in/hr0.0 mm/hr 0.04 in1.0 mm
11:19 PM 61.1°F16.2°C 51.3°F10.7°C 70% 1.0 mph NW1.6 kmh NW 11.0 mph17.7 kmh 29.86 in1011.2 mb 0.00 in0.0 mm 0.00 in/hr0.0 mm/hr 0.04 in1.0 mm
11:20 PM 61.1°F16.2°C 51.3°F10.7°C 70% 7.0 mph NW11.3 kmh NW 11.0 mph17.7 kmh 29.86 in1011.2 mb 0.00 in0.0 mm 0.00 in/hr0.0 mm/hr 0.04 in1.0 mm
11:23 PM 61.0°F16.1°C 51.5°F10.8°C 71% 6.0 mph NW9.7 kmh NW 11.0 mph17.7 kmh 29.86 in1011.2 mb 0.00 in0.0 mm 0.00 in/hr0.0 mm/hr 0.04 in1.0 mm
11:24 PM 61.0°F16.1°C 51.5°F10.8°C 71% 2.0 mph NW3.2 kmh NW 11.0 mph17.7 kmh 29.86 in1011.2 mb 0.00 in0.0 mm 0.00 in/hr0.0 mm/hr 0.04 in1.0 mm
11:25 PM 61.0°F16.1°C 51.5°F10.8°C 71% 3.0 mph NW4.8 kmh NW 11.0 mph17.7 kmh 29.86 in1011.2 mb 0.00 in0.0 mm 0.00 in/hr0.0 mm/hr 0.04 in1.0 mm
11:28 PM 60.9°F16.1°C 51.5°F10.8°C 71% 5.0 mph NW8.0 kmh NW 11.0 mph17.7 kmh 29.86 in1011.2 mb 0.00 in0.0 mm 0.00 in/hr0.0 mm/hr 0.04 in1.0 mm
11:29 PM 60.9°F16.1°C 51.5°F10.8°C 71% 5.0 mph NW8.0 kmh NW 11.0 mph17.7 kmh 29.86 in1011.2 mb 0.00 in0.0 mm 0.00 in/hr0.0 mm/hr 0.04 in1.0 mm
11:30 PM 61.0°F16.1°C 51.5°F10.8°C 71% 5.0 mph NW8.0 kmh NW 11.0 mph17.7 kmh 29.86 in1011.2 mb 0.00 in0.0 mm 0.00 in/hr0.0 mm/hr 0.04 in1.0 mm
11:33 PM 60.9°F16.1°C 51.5°F10.8°C 71% 5.0 mph NW8.0 kmh NW 11.0 mph17.7 kmh 29.86 in1011.2 mb 0.00 in0.0 mm 0.00 in/hr0.0 mm/hr 0.04 in1.0 mm
11:34 PM 60.9°F16.1°C 51.5°F10.8°C 71% 2.0 mph NW3.2 kmh NW 11.0 mph17.7 kmh 29.86 in1011.2 mb 0.00 in0.0 mm 0.00 in/hr0.0 mm/hr 0.04 in1.0 mm
11:35 PM 60.9°F16.1°C 51.5°F10.8°C 71% 4.0 mph NW6.4 kmh NW 11.0 mph17.7 kmh 29.86 in1011.2 mb 0.00 in0.0 mm 0.00 in/hr0.0 mm/hr 0.04 in1.0 mm
11:38 PM 60.9°F16.1°C 51.5°F10.8°C 71% 4.0 mph NW6.4 kmh NW 11.0 mph17.7 kmh 29.86 in1011.2 mb 0.00 in0.0 mm 0.00 in/hr0.0 mm/hr 0.04 in1.0 mm
11:39 PM 60.9°F16.1°C 51.5°F10.8°C 71% 4.0 mph NW6.4 kmh NW 11.0 mph17.7 kmh 29.86 in1011.2 mb 0.00 in0.0 mm 0.00 in/hr0.0 mm/hr 0.04 in1.0 mm
11:40 PM 60.9°F16.1°C 51.5°F10.8°C 71% 2.0 mph NW3.2 kmh NW 11.0 mph17.7 kmh 29.86 in1011.2 mb 0.00 in0.0 mm 0.00 in/hr0.0 mm/hr 0.04 in1.0 mm
11:43 PM 60.8°F16.0°C 51.7°F10.9°C 72% 4.0 mph NW6.4 kmh NW 11.0 mph17.7 kmh 29.86 in1011.2 mb 0.00 in0.0 mm 0.00 in/hr0.0 mm/hr 0.04 in1.0 mm
11:44 PM 60.9°F16.1°C 51.8°F11.0°C 72% 3.0 mph NW4.8 kmh NW 11.0 mph17.7 kmh 29.86 in1011.2 mb 0.00 in0.0 mm 0.00 in/hr0.0 mm/hr 0.04 in1.0 mm
11:45 PM 60.8°F16.0°C 51.7°F10.9°C 72% 7.0 mph NW11.3 kmh NW 11.0 mph17.7 kmh 29.86 in1011.2 mb 0.00 in0.0 mm 0.00 in/hr0.0 mm/hr 0.04 in1.0 mm
11:48 PM 60.8°F16.0°C 51.7°F10.9°C 72% 4.0 mph NW6.4 kmh NW 11.0 mph17.7 kmh 29.86 in1011.2 mb 0.00 in0.0 mm 0.00 in/hr0.0 mm/hr 0.04 in1.0 mm
11:49 PM 60.8°F16.0°C 51.7°F10.9°C 72% 4.0 mph NW6.4 kmh NW 11.0 mph17.7 kmh 29.86 in1011.2 mb 0.00 in0.0 mm 0.00 in/hr0.0 mm/hr 0.04 in1.0 mm
11:50 PM 60.8°F16.0°C 51.7°F10.9°C 72% 2.0 mph NW3.2 kmh NW 11.0 mph17.7 kmh 29.86 in1011.2 mb 0.00 in0.0 mm 0.00 in/hr0.0 mm/hr 0.04 in1.0 mm
11:53 PM 60.9°F16.1°C 51.8°F11.0°C 72% 4.0 mph NW6.4 kmh NW 11.0 mph17.7 kmh 29.86 in1011.2 mb 0.00 in0.0 mm 0.00 in/hr0.0 mm/hr 0.04 in1.0 mm
11:54 PM 60.9°F16.1°C 51.8°F11.0°C 72% 4.0 mph NW6.4 kmh NW 11.0 mph17.7 kmh 29.86 in1011.2 mb 0.00 in0.0 mm 0.00 in/hr0.0 mm/hr 0.04 in1.0 mm
11:55 PM 60.8°F16.0°C 51.7°F10.9°C 72% 4.0 mph NNW6.4 kmh NNW 11.0 mph17.7 kmh 29.86 in1011.2 mb 0.00 in0.0 mm 0.00 in/hr0.0 mm/hr 0.04 in1.0 mm
11:58 PM 60.8°F16.0°C 51.7°F10.9°C 72% 4.0 mph NNW6.4 kmh NNW 11.0 mph17.7 kmh 29.86 in1011.2 mb 0.00 in0.0 mm 0.00 in/hr0.0 mm/hr 0.04 in1.0 mm
11:59 PM 60.8°F16.0°C 51.7°F10.9°C 72% 5.0 mph NW8.0 kmh NW 11.0 mph17.7 kmh 29.86 in1011.2 mb 0.00 in0.0 mm 0.00 in/hr0.0 mm/hr 0.04 in1.0 mm